<?xml version="1.0" encoding="UTF-8" standalone="no" ?>
<gpx xmlns="http://www.topografix.com/GPX/1/1" xmlns:xsi="http://www.w3.org/2001/XMLSchema-instance" xsi:schemaLocation="http://www.topografix.com/GPX/1/1 http://www.topografix.com/GPX/1/1/gpx.xsd" version="1.1" creator="VisuGPX - https://www.visugpx.com">
  <metadata>
    <name>lozèreJ3</name>
  </metadata>
  <trk>
    <name><![CDATA[circuit No du Malzieu vers Dieges]]></name>
    <extensions>
      <line xmlns="http://www.topografix.com/GPX/gpx_style/0/2">
        <color>0000FF</color>
        <width>4</width>
      </line>
    </extensions>
    <trkseg>
      <trkpt lat="44.85502" lon="3.33212">
        <ele>901</ele>
        <time>2020-06-02T09:33:29+02:00</time>
      </trkpt>
      <trkpt lat="44.85502" lon="3.33212">
        <ele>901</ele>
        <time>2020-06-02T09:33:29+02:00</time>
      </trkpt>
      <trkpt lat="44.85482" lon="3.33192">
        <ele>914</ele>
        <time>2020-06-02T09:35:14+02:00</time>
      </trkpt>
      <trkpt lat="44.85479" lon="3.33156">
        <ele>912</ele>
        <time>2020-06-02T09:35:22+02:00</time>
      </trkpt>
      <trkpt lat="44.85489" lon="3.33126">
        <ele>913</ele>
        <time>2020-06-02T09:35:31+02:00</time>
      </trkpt>
      <trkpt lat="44.85506" lon="3.33104">
        <ele>916</ele>
        <time>2020-06-02T09:35:41+02:00</time>
      </trkpt>
      <trkpt lat="44.85505" lon="3.3307">
        <ele>917</ele>
        <time>2020-06-02T09:35:51+02:00</time>
      </trkpt>
      <trkpt lat="44.85524" lon="3.33051">
        <ele>916</ele>
        <time>2020-06-02T09:36:01+02:00</time>
      </trkpt>
      <trkpt lat="44.85546" lon="3.33034">
        <ele>916</ele>
        <time>2020-06-02T09:36:10+02:00</time>
      </trkpt>
      <trkpt lat="44.85565" lon="3.33016">
        <ele>912</ele>
        <time>2020-06-02T09:36:19+02:00</time>
      </trkpt>
      <trkpt lat="44.85588" lon="3.33026">
        <ele>915</ele>
        <time>2020-06-02T09:36:29+02:00</time>
      </trkpt>
      <trkpt lat="44.85589" lon="3.32993">
        <ele>916</ele>
        <time>2020-06-02T09:36:37+02:00</time>
      </trkpt>
      <trkpt lat="44.85571" lon="3.32968">
        <ele>923</ele>
        <time>2020-06-02T09:36:45+02:00</time>
      </trkpt>
      <trkpt lat="44.85566" lon="3.32934">
        <ele>919</ele>
        <time>2020-06-02T09:36:52+02:00</time>
      </trkpt>
      <trkpt lat="44.85566" lon="3.32902">
        <ele>911</ele>
        <time>2020-06-02T09:37:04+02:00</time>
      </trkpt>
      <trkpt lat="44.85587" lon="3.32918">
        <ele>911</ele>
        <time>2020-06-02T09:37:14+02:00</time>
      </trkpt>
      <trkpt lat="44.85605" lon="3.32894">
        <ele>907</ele>
        <time>2020-06-02T09:37:22+02:00</time>
      </trkpt>
      <trkpt lat="44.85626" lon="3.32871">
        <ele>913</ele>
        <time>2020-06-02T09:37:29+02:00</time>
      </trkpt>
      <trkpt lat="44.85646" lon="3.32846">
        <ele>912</ele>
        <time>2020-06-02T09:37:34+02:00</time>
      </trkpt>
      <trkpt lat="44.85663" lon="3.32825">
        <ele>912</ele>
        <time>2020-06-02T09:37:40+02:00</time>
      </trkpt>
      <trkpt lat="44.85683" lon="3.32802">
        <ele>912</ele>
        <time>2020-06-02T09:37:46+02:00</time>
      </trkpt>
      <trkpt lat="44.85704" lon="3.32783">
        <ele>908</ele>
        <time>2020-06-02T09:37:53+02:00</time>
      </trkpt>
      <trkpt lat="44.85726" lon="3.32767">
        <ele>911</ele>
        <time>2020-06-02T09:38:01+02:00</time>
      </trkpt>
      <trkpt lat="44.85749" lon="3.32755">
        <ele>910</ele>
        <time>2020-06-02T09:38:09+02:00</time>
      </trkpt>
      <trkpt lat="44.85772" lon="3.32749">
        <ele>907</ele>
        <time>2020-06-02T09:38:17+02:00</time>
      </trkpt>
      <trkpt lat="44.85795" lon="3.32738">
        <ele>908</ele>
        <time>2020-06-02T09:38:26+02:00</time>
      </trkpt>
      <trkpt lat="44.85818" lon="3.32732">
        <ele>913</ele>
        <time>2020-06-02T09:38:36+02:00</time>
      </trkpt>
      <trkpt lat="44.85842" lon="3.32725">
        <ele>915</ele>
        <time>2020-06-02T09:38:44+02:00</time>
      </trkpt>
      <trkpt lat="44.85865" lon="3.32722">
        <ele>914</ele>
        <time>2020-06-02T09:38:51+02:00</time>
      </trkpt>
      <trkpt lat="44.85888" lon="3.32718">
        <ele>916</ele>
        <time>2020-06-02T09:38:58+02:00</time>
      </trkpt>
      <trkpt lat="44.85913" lon="3.32716">
        <ele>913</ele>
        <time>2020-06-02T09:39:06+02:00</time>
      </trkpt>
      <trkpt lat="44.85939" lon="3.32702">
        <ele>916</ele>
        <time>2020-06-02T09:39:13+02:00</time>
      </trkpt>
      <trkpt lat="44.85963" lon="3.32685">
        <ele>920</ele>
        <time>2020-06-02T09:39:18+02:00</time>
      </trkpt>
      <trkpt lat="44.85987" lon="3.32673">
        <ele>921</ele>
        <time>2020-06-02T09:39:24+02:00</time>
      </trkpt>
      <trkpt lat="44.86008" lon="3.32661">
        <ele>924</ele>
        <time>2020-06-02T09:39:29+02:00</time>
      </trkpt>
      <trkpt lat="44.86036" lon="3.3265">
        <ele>918</ele>
        <time>2020-06-02T09:39:34+02:00</time>
      </trkpt>
      <trkpt lat="44.86059" lon="3.32643">
        <ele>919</ele>
        <time>2020-06-02T09:39:39+02:00</time>
      </trkpt>
      <trkpt lat="44.86084" lon="3.32635">
        <ele>921</ele>
        <time>2020-06-02T09:39:45+02:00</time>
      </trkpt>
      <trkpt lat="44.86106" lon="3.32628">
        <ele>921</ele>
        <time>2020-06-02T09:39:51+02:00</time>
      </trkpt>
      <trkpt lat="44.86132" lon="3.32617">
        <ele>919</ele>
        <time>2020-06-02T09:39:57+02:00</time>
      </trkpt>
      <trkpt lat="44.86158" lon="3.32612">
        <ele>916</ele>
        <time>2020-06-02T09:40:01+02:00</time>
      </trkpt>
      <trkpt lat="44.86185" lon="3.32618">
        <ele>914</ele>
        <time>2020-06-02T09:40:05+02:00</time>
      </trkpt>
      <trkpt lat="44.86212" lon="3.32632">
        <ele>915</ele>
        <time>2020-06-02T09:40:09+02:00</time>
      </trkpt>
      <trkpt lat="44.86237" lon="3.32646">
        <ele>914</ele>
        <time>2020-06-02T09:40:13+02:00</time>
      </trkpt>
      <trkpt lat="44.86259" lon="3.32661">
        <ele>914</ele>
        <time>2020-06-02T09:40:17+02:00</time>
      </trkpt>
      <trkpt lat="44.86283" lon="3.32677">
        <ele>913</ele>
        <time>2020-06-02T09:40:22+02:00</time>
      </trkpt>
      <trkpt lat="44.86307" lon="3.32691">
        <ele>916</ele>
        <time>2020-06-02T09:40:27+02:00</time>
      </trkpt>
      <trkpt lat="44.86331" lon="3.32706">
        <ele>918</ele>
        <time>2020-06-02T09:40:32+02:00</time>
      </trkpt>
      <trkpt lat="44.86354" lon="3.32722">
        <ele>920</ele>
        <time>2020-06-02T09:40:37+02:00</time>
      </trkpt>
      <trkpt lat="44.86376" lon="3.32737">
        <ele>922</ele>
        <time>2020-06-02T09:40:42+02:00</time>
      </trkpt>
      <trkpt lat="44.86398" lon="3.32743">
        <ele>924</ele>
        <time>2020-06-02T09:40:47+02:00</time>
      </trkpt>
      <trkpt lat="44.86422" lon="3.32748">
        <ele>924</ele>
        <time>2020-06-02T09:40:52+02:00</time>
      </trkpt>
      <trkpt lat="44.86444" lon="3.32755">
        <ele>925</ele>
        <time>2020-06-02T09:40:57+02:00</time>
      </trkpt>
      <trkpt lat="44.86468" lon="3.32757">
        <ele>925</ele>
        <time>2020-06-02T09:41:03+02:00</time>
      </trkpt>
      <trkpt lat="44.86492" lon="3.32755">
        <ele>922</ele>
        <time>2020-06-02T09:41:10+02:00</time>
      </trkpt>
      <trkpt lat="44.86517" lon="3.32751">
        <ele>923</ele>
        <time>2020-06-02T09:41:18+02:00</time>
      </trkpt>
      <trkpt lat="44.86541" lon="3.32744">
        <ele>923</ele>
        <time>2020-06-02T09:41:26+02:00</time>
      </trkpt>
      <trkpt lat="44.86565" lon="3.32733">
        <ele>924</ele>
        <time>2020-06-02T09:41:34+02:00</time>
      </trkpt>
      <trkpt lat="44.86588" lon="3.32726">
        <ele>926</ele>
        <time>2020-06-02T09:41:41+02:00</time>
      </trkpt>
      <trkpt lat="44.8661" lon="3.32717">
        <ele>928</ele>
        <time>2020-06-02T09:41:48+02:00</time>
      </trkpt>
      <trkpt lat="44.86632" lon="3.32705">
        <ele>928</ele>
        <time>2020-06-02T09:41:55+02:00</time>
      </trkpt>
      <trkpt lat="44.86653" lon="3.32693">
        <ele>928</ele>
        <time>2020-06-02T09:42:02+02:00</time>
      </trkpt>
      <trkpt lat="44.86676" lon="3.32681">
        <ele>929</ele>
        <time>2020-06-02T09:42:09+02:00</time>
      </trkpt>
      <trkpt lat="44.86698" lon="3.32668">
        <ele>932</ele>
        <time>2020-06-02T09:42:16+02:00</time>
      </trkpt>
      <trkpt lat="44.86719" lon="3.32652">
        <ele>932</ele>
        <time>2020-06-02T09:42:23+02:00</time>
      </trkpt>
      <trkpt lat="44.8674" lon="3.32639">
        <ele>932</ele>
        <time>2020-06-02T09:42:29+02:00</time>
      </trkpt>
      <trkpt lat="44.86763" lon="3.32626">
        <ele>929</ele>
        <time>2020-06-02T09:42:35+02:00</time>
      </trkpt>
      <trkpt lat="44.86785" lon="3.32616">
        <ele>930</ele>
        <time>2020-06-02T09:42:41+02:00</time>
      </trkpt>
      <trkpt lat="44.8681" lon="3.32605">
        <ele>933</ele>
        <time>2020-06-02T09:42:47+02:00</time>
      </trkpt>
      <trkpt lat="44.86835" lon="3.32595">
        <ele>935</ele>
        <time>2020-06-02T09:42:53+02:00</time>
      </trkpt>
      <trkpt lat="44.86858" lon="3.32581">
        <ele>935</ele>
        <time>2020-06-02T09:42:59+02:00</time>
      </trkpt>
      <trkpt lat="44.86878" lon="3.32565">
        <ele>933</ele>
        <time>2020-06-02T09:43:05+02:00</time>
      </trkpt>
      <trkpt lat="44.86901" lon="3.32553">
        <ele>936</ele>
        <time>2020-06-02T09:43:11+02:00</time>
      </trkpt>
      <trkpt lat="44.86925" lon="3.32548">
        <ele>934</ele>
        <time>2020-06-02T09:43:17+02:00</time>
      </trkpt>
      <trkpt lat="44.86948" lon="3.32554">
        <ele>937</ele>
        <time>2020-06-02T09:43:27+02:00</time>
      </trkpt>
      <trkpt lat="44.86972" lon="3.32554">
        <ele>939</ele>
        <time>2020-06-02T09:43:37+02:00</time>
      </trkpt>
      <trkpt lat="44.86996" lon="3.32558">
        <ele>945</ele>
        <time>2020-06-02T09:43:47+02:00</time>
      </trkpt>
      <trkpt lat="44.87001" lon="3.32589">
        <ele>951</ele>
        <time>2020-06-02T09:43:57+02:00</time>
      </trkpt>
      <trkpt lat="44.86979" lon="3.32597">
        <ele>948</ele>
        <time>2020-06-02T09:44:05+02:00</time>
      </trkpt>
      <trkpt lat="44.8698" lon="3.32629">
        <ele>946</ele>
        <time>2020-06-02T09:44:16+02:00</time>
      </trkpt>
      <trkpt lat="44.86995" lon="3.32653">
        <ele>947</ele>
        <time>2020-06-02T09:44:25+02:00</time>
      </trkpt>
      <trkpt lat="44.87011" lon="3.32676">
        <ele>953</ele>
        <time>2020-06-02T09:44:33+02:00</time>
      </trkpt>
      <trkpt lat="44.87026" lon="3.32701">
        <ele>954</ele>
        <time>2020-06-02T09:44:42+02:00</time>
      </trkpt>
      <trkpt lat="44.87041" lon="3.32727">
        <ele>953</ele>
        <time>2020-06-02T09:44:51+02:00</time>
      </trkpt>
      <trkpt lat="44.87057" lon="3.32754">
        <ele>952</ele>
        <time>2020-06-02T09:45:00+02:00</time>
      </trkpt>
      <trkpt lat="44.87075" lon="3.32776">
        <ele>954</ele>
        <time>2020-06-02T09:45:13+02:00</time>
      </trkpt>
      <trkpt lat="44.87096" lon="3.32787">
        <ele>957</ele>
        <time>2020-06-02T09:45:23+02:00</time>
      </trkpt>
      <trkpt lat="44.87119" lon="3.32799">
        <ele>959</ele>
        <time>2020-06-02T09:45:33+02:00</time>
      </trkpt>
      <trkpt lat="44.87143" lon="3.32806">
        <ele>962</ele>
        <time>2020-06-02T09:45:42+02:00</time>
      </trkpt>
      <trkpt lat="44.87168" lon="3.32814">
        <ele>968</ele>
        <time>2020-06-02T09:45:51+02:00</time>
      </trkpt>
      <trkpt lat="44.87192" lon="3.32819">
        <ele>965</ele>
        <time>2020-06-02T09:45:59+02:00</time>
      </trkpt>
      <trkpt lat="44.87215" lon="3.32822">
        <ele>964</ele>
        <time>2020-06-02T09:46:06+02:00</time>
      </trkpt>
      <trkpt lat="44.87238" lon="3.32826">
        <ele>971</ele>
        <time>2020-06-02T09:46:13+02:00</time>
      </trkpt>
      <trkpt lat="44.87261" lon="3.32835">
        <ele>974</ele>
        <time>2020-06-02T09:46:22+02:00</time>
      </trkpt>
      <trkpt lat="44.87282" lon="3.32849">
        <ele>971</ele>
        <time>2020-06-02T09:46:31+02:00</time>
      </trkpt>
      <trkpt lat="44.87304" lon="3.32865">
        <ele>969</ele>
        <time>2020-06-02T09:46:40+02:00</time>
      </trkpt>
      <trkpt lat="44.87326" lon="3.32879">
        <ele>968</ele>
        <time>2020-06-02T09:46:49+02:00</time>
      </trkpt>
      <trkpt lat="44.87347" lon="3.32895">
        <ele>970</ele>
        <time>2020-06-02T09:46:58+02:00</time>
      </trkpt>
      <trkpt lat="44.87367" lon="3.32912">
        <ele>971</ele>
        <time>2020-06-02T09:47:07+02:00</time>
      </trkpt>
      <trkpt lat="44.87387" lon="3.32931">
        <ele>974</ele>
        <time>2020-06-02T09:47:17+02:00</time>
      </trkpt>
      <trkpt lat="44.87407" lon="3.32949">
        <ele>972</ele>
        <time>2020-06-02T09:47:26+02:00</time>
      </trkpt>
      <trkpt lat="44.87424" lon="3.32972">
        <ele>977</ele>
        <time>2020-06-02T09:47:35+02:00</time>
      </trkpt>
      <trkpt lat="44.8744" lon="3.32997">
        <ele>976</ele>
        <time>2020-06-02T09:47:44+02:00</time>
      </trkpt>
      <trkpt lat="44.87456" lon="3.3302">
        <ele>977</ele>
        <time>2020-06-02T09:47:54+02:00</time>
      </trkpt>
      <trkpt lat="44.87469" lon="3.33047">
        <ele>975</ele>
        <time>2020-06-02T09:48:03+02:00</time>
      </trkpt>
      <trkpt lat="44.87484" lon="3.33075">
        <ele>977</ele>
        <time>2020-06-02T09:48:11+02:00</time>
      </trkpt>
      <trkpt lat="44.87503" lon="3.33095">
        <ele>978</ele>
        <time>2020-06-02T09:48:19+02:00</time>
      </trkpt>
      <trkpt lat="44.87525" lon="3.33109">
        <ele>982</ele>
        <time>2020-06-02T09:48:27+02:00</time>
      </trkpt>
      <trkpt lat="44.87544" lon="3.33132">
        <ele>983</ele>
        <time>2020-06-02T09:48:35+02:00</time>
      </trkpt>
      <trkpt lat="44.87554" lon="3.33163">
        <ele>982</ele>
        <time>2020-06-02T09:48:42+02:00</time>
      </trkpt>
      <trkpt lat="44.87563" lon="3.33193">
        <ele>981</ele>
        <time>2020-06-02T09:48:49+02:00</time>
      </trkpt>
      <trkpt lat="44.87572" lon="3.33225">
        <ele>982</ele>
        <time>2020-06-02T09:48:57+02:00</time>
      </trkpt>
      <trkpt lat="44.87581" lon="3.33254">
        <ele>984</ele>
        <time>2020-06-02T09:49:05+02:00</time>
      </trkpt>
      <trkpt lat="44.87593" lon="3.33284">
        <ele>986</ele>
        <time>2020-06-02T09:49:14+02:00</time>
      </trkpt>
      <trkpt lat="44.87603" lon="3.33314">
        <ele>980</ele>
        <time>2020-06-02T09:49:23+02:00</time>
      </trkpt>
      <trkpt lat="44.87616" lon="3.33343">
        <ele>982</ele>
        <time>2020-06-02T09:49:32+02:00</time>
      </trkpt>
      <trkpt lat="44.87632" lon="3.33371">
        <ele>981</ele>
        <time>2020-06-02T09:49:40+02:00</time>
      </trkpt>
      <trkpt lat="44.87643" lon="3.33402">
        <ele>983</ele>
        <time>2020-06-02T09:49:48+02:00</time>
      </trkpt>
      <trkpt lat="44.87654" lon="3.33434">
        <ele>982</ele>
        <time>2020-06-02T09:49:57+02:00</time>
      </trkpt>
      <trkpt lat="44.87668" lon="3.33463">
        <ele>983</ele>
        <time>2020-06-02T09:50:04+02:00</time>
      </trkpt>
      <trkpt lat="44.8768" lon="3.33492">
        <ele>982</ele>
        <time>2020-06-02T09:50:11+02:00</time>
      </trkpt>
      <trkpt lat="44.87694" lon="3.33519">
        <ele>986</ele>
        <time>2020-06-02T09:50:18+02:00</time>
      </trkpt>
      <trkpt lat="44.87709" lon="3.33544">
        <ele>991</ele>
        <time>2020-06-02T09:50:25+02:00</time>
      </trkpt>
      <trkpt lat="44.8772" lon="3.33574">
        <ele>993</ele>
        <time>2020-06-02T09:50:32+02:00</time>
      </trkpt>
      <trkpt lat="44.87722" lon="3.33607">
        <ele>993</ele>
        <time>2020-06-02T09:50:40+02:00</time>
      </trkpt>
      <trkpt lat="44.87706" lon="3.33634">
        <ele>995</ele>
        <time>2020-06-02T09:50:51+02:00</time>
      </trkpt>
      <trkpt lat="44.87697" lon="3.33664">
        <ele>994</ele>
        <time>2020-06-02T09:50:59+02:00</time>
      </trkpt>
      <trkpt lat="44.87684" lon="3.33691">
        <ele>997</ele>
        <time>2020-06-02T09:51:07+02:00</time>
      </trkpt>
      <trkpt lat="44.87667" lon="3.33713">
        <ele>1000</ele>
        <time>2020-06-02T09:51:17+02:00</time>
      </trkpt>
      <trkpt lat="44.87649" lon="3.33738">
        <ele>999</ele>
        <time>2020-06-02T09:51:26+02:00</time>
      </trkpt>
      <trkpt lat="44.87634" lon="3.33764">
        <ele>1000</ele>
        <time>2020-06-02T09:51:34+02:00</time>
      </trkpt>
      <trkpt lat="44.8762" lon="3.33789">
        <ele>1000</ele>
        <time>2020-06-02T09:51:41+02:00</time>
      </trkpt>
      <trkpt lat="44.87605" lon="3.33815">
        <ele>999</ele>
        <time>2020-06-02T09:51:49+02:00</time>
      </trkpt>
      <trkpt lat="44.87585" lon="3.33833">
        <ele>1005</ele>
        <time>2020-06-02T09:51:58+02:00</time>
      </trkpt>
      <trkpt lat="44.87565" lon="3.33856">
        <ele>1005</ele>
        <time>2020-06-02T09:52:04+02:00</time>
      </trkpt>
      <trkpt lat="44.87548" lon="3.33878">
        <ele>1006</ele>
        <time>2020-06-02T09:52:10+02:00</time>
      </trkpt>
      <trkpt lat="44.8753" lon="3.33897">
        <ele>1008</ele>
        <time>2020-06-02T09:52:16+02:00</time>
      </trkpt>
      <trkpt lat="44.8751" lon="3.33916">
        <ele>1011</ele>
        <time>2020-06-02T09:52:23+02:00</time>
      </trkpt>
      <trkpt lat="44.87485" lon="3.3395">
        <ele>1005</ele>
        <time>2020-06-02T09:52:28+02:00</time>
      </trkpt>
      <trkpt lat="44.87466" lon="3.33969">
        <ele>1003</ele>
        <time>2020-06-02T09:52:33+02:00</time>
      </trkpt>
      <trkpt lat="44.87483" lon="3.33993">
        <ele>1002</ele>
        <time>2020-06-02T09:52:45+02:00</time>
      </trkpt>
      <trkpt lat="44.87503" lon="3.34011">
        <ele>1002</ele>
        <time>2020-06-02T09:52:51+02:00</time>
      </trkpt>
      <trkpt lat="44.87522" lon="3.3403">
        <ele>999</ele>
        <time>2020-06-02T09:52:58+02:00</time>
      </trkpt>
      <trkpt lat="44.87542" lon="3.34044">
        <ele>997</ele>
        <time>2020-06-02T09:53:06+02:00</time>
      </trkpt>
      <trkpt lat="44.87562" lon="3.34062">
        <ele>1003</ele>
        <time>2020-06-02T09:53:14+02:00</time>
      </trkpt>
      <trkpt lat="44.87582" lon="3.34076">
        <ele>1006</ele>
        <time>2020-06-02T09:53:23+02:00</time>
      </trkpt>
      <trkpt lat="44.87604" lon="3.34091">
        <ele>1003</ele>
        <time>2020-06-02T09:53:33+02:00</time>
      </trkpt>
      <trkpt lat="44.87626" lon="3.34104">
        <ele>1005</ele>
        <time>2020-06-02T09:53:44+02:00</time>
      </trkpt>
      <trkpt lat="44.87646" lon="3.3412">
        <ele>1007</ele>
        <time>2020-06-02T09:53:56+02:00</time>
      </trkpt>
      <trkpt lat="44.87667" lon="3.34133">
        <ele>1005</ele>
        <time>2020-06-02T09:54:05+02:00</time>
      </trkpt>
      <trkpt lat="44.87691" lon="3.34138">
        <ele>1009</ele>
        <time>2020-06-02T09:54:15+02:00</time>
      </trkpt>
      <trkpt lat="44.87713" lon="3.34129">
        <ele>1014</ele>
        <time>2020-06-02T09:54:24+02:00</time>
      </trkpt>
      <trkpt lat="44.87738" lon="3.34129">
        <ele>1015</ele>
        <time>2020-06-02T09:54:33+02:00</time>
      </trkpt>
      <trkpt lat="44.87754" lon="3.34155">
        <ele>1017</ele>
        <time>2020-06-02T09:54:41+02:00</time>
      </trkpt>
      <trkpt lat="44.87764" lon="3.34186">
        <ele>1020</ele>
        <time>2020-06-02T09:54:50+02:00</time>
      </trkpt>
      <trkpt lat="44.87778" lon="3.34217">
        <ele>1022</ele>
        <time>2020-06-02T09:54:59+02:00</time>
      </trkpt>
      <trkpt lat="44.87785" lon="3.34251">
        <ele>1024</ele>
        <time>2020-06-02T09:55:08+02:00</time>
      </trkpt>
      <trkpt lat="44.87794" lon="3.34284">
        <ele>1023</ele>
        <time>2020-06-02T09:55:17+02:00</time>
      </trkpt>
      <trkpt lat="44.8781" lon="3.34309">
        <ele>1028</ele>
        <time>2020-06-02T09:55:25+02:00</time>
      </trkpt>
      <trkpt lat="44.87823" lon="3.34335">
        <ele>1028</ele>
        <time>2020-06-02T09:55:33+02:00</time>
      </trkpt>
      <trkpt lat="44.87845" lon="3.34351">
        <ele>1025</ele>
        <time>2020-06-02T09:55:41+02:00</time>
      </trkpt>
      <trkpt lat="44.8787" lon="3.34356">
        <ele>1024</ele>
        <time>2020-06-02T09:55:49+02:00</time>
      </trkpt>
      <trkpt lat="44.87894" lon="3.34362">
        <ele>1025</ele>
        <time>2020-06-02T09:55:57+02:00</time>
      </trkpt>
      <trkpt lat="44.87915" lon="3.34375">
        <ele>1022</ele>
        <time>2020-06-02T09:56:05+02:00</time>
      </trkpt>
      <trkpt lat="44.87936" lon="3.34387">
        <ele>1022</ele>
        <time>2020-06-02T09:56:13+02:00</time>
      </trkpt>
      <trkpt lat="44.87958" lon="3.34399">
        <ele>1020</ele>
        <time>2020-06-02T09:56:22+02:00</time>
      </trkpt>
      <trkpt lat="44.87981" lon="3.34407">
        <ele>1022</ele>
        <time>2020-06-02T09:56:30+02:00</time>
      </trkpt>
      <trkpt lat="44.88006" lon="3.34414">
        <ele>1025</ele>
        <time>2020-06-02T09:56:38+02:00</time>
      </trkpt>
      <trkpt lat="44.88028" lon="3.34419">
        <ele>1025</ele>
        <time>2020-06-02T09:56:45+02:00</time>
      </trkpt>
      <trkpt lat="44.8805" lon="3.34425">
        <ele>1028</ele>
        <time>2020-06-02T09:56:52+02:00</time>
      </trkpt>
      <trkpt lat="44.88075" lon="3.34428">
        <ele>1039</ele>
        <time>2020-06-02T09:56:58+02:00</time>
      </trkpt>
      <trkpt lat="44.88098" lon="3.3444">
        <ele>1035</ele>
        <time>2020-06-02T09:57:04+02:00</time>
      </trkpt>
      <trkpt lat="44.88124" lon="3.34451">
        <ele>1034</ele>
        <time>2020-06-02T09:57:09+02:00</time>
      </trkpt>
      <trkpt lat="44.88147" lon="3.34459">
        <ele>1033</ele>
        <time>2020-06-02T09:57:13+02:00</time>
      </trkpt>
      <trkpt lat="44.88171" lon="3.34467">
        <ele>1035</ele>
        <time>2020-06-02T09:57:17+02:00</time>
      </trkpt>
      <trkpt lat="44.88191" lon="3.34481">
        <ele>1031</ele>
        <time>2020-06-02T09:57:22+02:00</time>
      </trkpt>
      <trkpt lat="44.8821" lon="3.345">
        <ele>1031</ele>
        <time>2020-06-02T09:57:28+02:00</time>
      </trkpt>
      <trkpt lat="44.8823" lon="3.34521">
        <ele>1032</ele>
        <time>2020-06-02T09:57:34+02:00</time>
      </trkpt>
      <trkpt lat="44.8825" lon="3.3454">
        <ele>1030</ele>
        <time>2020-06-02T09:57:40+02:00</time>
      </trkpt>
      <trkpt lat="44.88268" lon="3.34559">
        <ele>1031</ele>
        <time>2020-06-02T09:57:46+02:00</time>
      </trkpt>
      <trkpt lat="44.88287" lon="3.34577">
        <ele>1032</ele>
        <time>2020-06-02T09:57:52+02:00</time>
      </trkpt>
      <trkpt lat="44.88309" lon="3.34595">
        <ele>1033</ele>
        <time>2020-06-02T09:57:59+02:00</time>
      </trkpt>
      <trkpt lat="44.88328" lon="3.34613">
        <ele>1034</ele>
        <time>2020-06-02T09:58:06+02:00</time>
      </trkpt>
      <trkpt lat="44.88347" lon="3.34635">
        <ele>1036</ele>
        <time>2020-06-02T09:58:14+02:00</time>
      </trkpt>
      <trkpt lat="44.88362" lon="3.34659">
        <ele>1038</ele>
        <time>2020-06-02T09:58:22+02:00</time>
      </trkpt>
      <trkpt lat="44.88368" lon="3.34693">
        <ele>1040</ele>
        <time>2020-06-02T09:58:31+02:00</time>
      </trkpt>
      <trkpt lat="44.88389" lon="3.34712">
        <ele>1039</ele>
        <time>2020-06-02T09:58:40+02:00</time>
      </trkpt>
      <trkpt lat="44.88408" lon="3.34732">
        <ele>1039</ele>
        <time>2020-06-02T09:58:49+02:00</time>
      </trkpt>
      <trkpt lat="44.88426" lon="3.34754">
        <ele>1039</ele>
        <time>2020-06-02T09:58:58+02:00</time>
      </trkpt>
      <trkpt lat="44.88443" lon="3.34777">
        <ele>1041</ele>
        <time>2020-06-02T09:59:07+02:00</time>
      </trkpt>
      <trkpt lat="44.88455" lon="3.34805">
        <ele>1048</ele>
        <time>2020-06-02T09:59:17+02:00</time>
      </trkpt>
      <trkpt lat="44.88449" lon="3.34837">
        <ele>1047</ele>
        <time>2020-06-02T09:59:26+02:00</time>
      </trkpt>
      <trkpt lat="44.88446" lon="3.34871">
        <ele>1047</ele>
        <time>2020-06-02T09:59:37+02:00</time>
      </trkpt>
      <trkpt lat="44.88439" lon="3.34902">
        <ele>1053</ele>
        <time>2020-06-02T09:59:50+02:00</time>
      </trkpt>
      <trkpt lat="44.88432" lon="3.34933">
        <ele>1056</ele>
        <time>2020-06-02T10:00:02+02:00</time>
      </trkpt>
      <trkpt lat="44.88422" lon="3.34963">
        <ele>1058</ele>
        <time>2020-06-02T10:00:15+02:00</time>
      </trkpt>
      <trkpt lat="44.88439" lon="3.34984">
        <ele>1068</ele>
        <time>2020-06-02T10:00:42+02:00</time>
      </trkpt>
      <trkpt lat="44.88463" lon="3.34984">
        <ele>1071</ele>
        <time>2020-06-02T10:00:54+02:00</time>
      </trkpt>
      <trkpt lat="44.88486" lon="3.34988">
        <ele>1077</ele>
        <time>2020-06-02T10:01:06+02:00</time>
      </trkpt>
      <trkpt lat="44.88509" lon="3.34991">
        <ele>1080</ele>
        <time>2020-06-02T10:01:17+02:00</time>
      </trkpt>
      <trkpt lat="44.88533" lon="3.34995">
        <ele>1083</ele>
        <time>2020-06-02T10:01:29+02:00</time>
      </trkpt>
      <trkpt lat="44.88556" lon="3.34996">
        <ele>1085</ele>
        <time>2020-06-02T10:01:40+02:00</time>
      </trkpt>
      <trkpt lat="44.88577" lon="3.3501">
        <ele>1089</ele>
        <time>2020-06-02T10:01:52+02:00</time>
      </trkpt>
      <trkpt lat="44.88573" lon="3.35041">
        <ele>1083</ele>
        <time>2020-06-02T10:02:06+02:00</time>
      </trkpt>
      <trkpt lat="44.88568" lon="3.35075">
        <ele>1087</ele>
        <time>2020-06-02T10:02:19+02:00</time>
      </trkpt>
      <trkpt lat="44.88575" lon="3.35105">
        <ele>1091</ele>
        <time>2020-06-02T10:02:30+02:00</time>
      </trkpt>
      <trkpt lat="44.88583" lon="3.35135">
        <ele>1093</ele>
        <time>2020-06-02T10:02:41+02:00</time>
      </trkpt>
      <trkpt lat="44.8859" lon="3.35167">
        <ele>1092</ele>
        <time>2020-06-02T10:02:52+02:00</time>
      </trkpt>
      <trkpt lat="44.88597" lon="3.35199">
        <ele>1093</ele>
        <time>2020-06-02T10:03:04+02:00</time>
      </trkpt>
      <trkpt lat="44.88605" lon="3.35231">
        <ele>1095</ele>
        <time>2020-06-02T10:03:16+02:00</time>
      </trkpt>
      <trkpt lat="44.88619" lon="3.35258">
        <ele>1096</ele>
        <time>2020-06-02T10:03:29+02:00</time>
      </trkpt>
      <trkpt lat="44.88639" lon="3.35278">
        <ele>1099</ele>
        <time>2020-06-02T10:03:40+02:00</time>
      </trkpt>
      <trkpt lat="44.88658" lon="3.35299">
        <ele>1105</ele>
        <time>2020-06-02T10:04:51+02:00</time>
      </trkpt>
      <trkpt lat="44.88676" lon="3.35319">
        <ele>1103</ele>
        <time>2020-06-02T10:05:00+02:00</time>
      </trkpt>
      <trkpt lat="44.8869" lon="3.35348">
        <ele>1106</ele>
        <time>2020-06-02T10:05:09+02:00</time>
      </trkpt>
      <trkpt lat="44.88702" lon="3.35376">
        <ele>1106</ele>
        <time>2020-06-02T10:05:18+02:00</time>
      </trkpt>
      <trkpt lat="44.88709" lon="3.35408">
        <ele>1103</ele>
        <time>2020-06-02T10:05:26+02:00</time>
      </trkpt>
      <trkpt lat="44.88718" lon="3.35438">
        <ele>1104</ele>
        <time>2020-06-02T10:05:32+02:00</time>
      </trkpt>
      <trkpt lat="44.88726" lon="3.35467">
        <ele>1105</ele>
        <time>2020-06-02T10:05:38+02:00</time>
      </trkpt>
      <trkpt lat="44.88735" lon="3.35496">
        <ele>1106</ele>
        <time>2020-06-02T10:05:44+02:00</time>
      </trkpt>
      <trkpt lat="44.88747" lon="3.35528">
        <ele>1109</ele>
        <time>2020-06-02T10:05:51+02:00</time>
      </trkpt>
      <trkpt lat="44.88767" lon="3.3555">
        <ele>1109</ele>
        <time>2020-06-02T10:05:58+02:00</time>
      </trkpt>
      <trkpt lat="44.88787" lon="3.35572">
        <ele>1106</ele>
        <time>2020-06-02T10:06:05+02:00</time>
      </trkpt>
      <trkpt lat="44.88806" lon="3.35596">
        <ele>1111</ele>
        <time>2020-06-02T10:06:13+02:00</time>
      </trkpt>
      <trkpt lat="44.88823" lon="3.35623">
        <ele>1111</ele>
        <time>2020-06-02T10:06:20+02:00</time>
      </trkpt>
      <trkpt lat="44.88833" lon="3.35658">
        <ele>1106</ele>
        <time>2020-06-02T10:06:27+02:00</time>
      </trkpt>
      <trkpt lat="44.88835" lon="3.35691">
        <ele>1108</ele>
        <time>2020-06-02T10:06:34+02:00</time>
      </trkpt>
      <trkpt lat="44.88835" lon="3.35727">
        <ele>1110</ele>
        <time>2020-06-02T10:06:42+02:00</time>
      </trkpt>
      <trkpt lat="44.8884" lon="3.35758">
        <ele>1111</ele>
        <time>2020-06-02T10:06:49+02:00</time>
      </trkpt>
      <trkpt lat="44.88844" lon="3.35792">
        <ele>1112</ele>
        <time>2020-06-02T10:06:56+02:00</time>
      </trkpt>
      <trkpt lat="44.88845" lon="3.35824">
        <ele>1111</ele>
        <time>2020-06-02T10:07:03+02:00</time>
      </trkpt>
      <trkpt lat="44.88849" lon="3.35857">
        <ele>1111</ele>
        <time>2020-06-02T10:07:10+02:00</time>
      </trkpt>
      <trkpt lat="44.88851" lon="3.35889">
        <ele>1112</ele>
        <time>2020-06-02T10:07:17+02:00</time>
      </trkpt>
      <trkpt lat="44.8885" lon="3.35922">
        <ele>1117</ele>
        <time>2020-06-02T10:07:26+02:00</time>
      </trkpt>
      <trkpt lat="44.88853" lon="3.35955">
        <ele>1118</ele>
        <time>2020-06-02T10:07:35+02:00</time>
      </trkpt>
      <trkpt lat="44.88866" lon="3.35984">
        <ele>1121</ele>
        <time>2020-06-02T10:07:42+02:00</time>
      </trkpt>
      <trkpt lat="44.88884" lon="3.36011">
        <ele>1120</ele>
        <time>2020-06-02T10:07:49+02:00</time>
      </trkpt>
      <trkpt lat="44.88901" lon="3.36035">
        <ele>1119</ele>
        <time>2020-06-02T10:07:55+02:00</time>
      </trkpt>
      <trkpt lat="44.88916" lon="3.36059">
        <ele>1121</ele>
        <time>2020-06-02T10:08:01+02:00</time>
      </trkpt>
      <trkpt lat="44.88933" lon="3.36082">
        <ele>1120</ele>
        <time>2020-06-02T10:08:07+02:00</time>
      </trkpt>
      <trkpt lat="44.8895" lon="3.36108">
        <ele>1120</ele>
        <time>2020-06-02T10:08:14+02:00</time>
      </trkpt>
      <trkpt lat="44.88968" lon="3.36129">
        <ele>1120</ele>
        <time>2020-06-02T10:08:20+02:00</time>
      </trkpt>
      <trkpt lat="44.88985" lon="3.36153">
        <ele>1119</ele>
        <time>2020-06-02T10:08:26+02:00</time>
      </trkpt>
      <trkpt lat="44.89001" lon="3.36175">
        <ele>1121</ele>
        <time>2020-06-02T10:08:32+02:00</time>
      </trkpt>
      <trkpt lat="44.89018" lon="3.36199">
        <ele>1122</ele>
        <time>2020-06-02T10:08:38+02:00</time>
      </trkpt>
      <trkpt lat="44.89036" lon="3.3622">
        <ele>1124</ele>
        <time>2020-06-02T10:08:45+02:00</time>
      </trkpt>
      <trkpt lat="44.89056" lon="3.3624">
        <ele>1124</ele>
        <time>2020-06-02T10:08:52+02:00</time>
      </trkpt>
      <trkpt lat="44.89073" lon="3.36261">
        <ele>1128</ele>
        <time>2020-06-02T10:08:58+02:00</time>
      </trkpt>
      <trkpt lat="44.89081" lon="3.36292">
        <ele>1128</ele>
        <time>2020-06-02T10:09:04+02:00</time>
      </trkpt>
      <trkpt lat="44.89087" lon="3.36328">
        <ele>1128</ele>
        <time>2020-06-02T10:09:11+02:00</time>
      </trkpt>
      <trkpt lat="44.89095" lon="3.36361">
        <ele>1130</ele>
        <time>2020-06-02T10:09:19+02:00</time>
      </trkpt>
      <trkpt lat="44.89103" lon="3.36393">
        <ele>1134</ele>
        <time>2020-06-02T10:09:27+02:00</time>
      </trkpt>
      <trkpt lat="44.89112" lon="3.36423">
        <ele>1134</ele>
        <time>2020-06-02T10:09:35+02:00</time>
      </trkpt>
      <trkpt lat="44.89118" lon="3.36453">
        <ele>1134</ele>
        <time>2020-06-02T10:09:46+02:00</time>
      </trkpt>
      <trkpt lat="44.89126" lon="3.36486">
        <ele>1138</ele>
        <time>2020-06-02T10:09:58+02:00</time>
      </trkpt>
      <trkpt lat="44.89144" lon="3.36509">
        <ele>1141</ele>
        <time>2020-06-02T10:10:09+02:00</time>
      </trkpt>
      <trkpt lat="44.89167" lon="3.36516">
        <ele>1143</ele>
        <time>2020-06-02T10:10:20+02:00</time>
      </trkpt>
      <trkpt lat="44.8919" lon="3.36521">
        <ele>1147</ele>
        <time>2020-06-02T10:10:31+02:00</time>
      </trkpt>
      <trkpt lat="44.89212" lon="3.36531">
        <ele>1153</ele>
        <time>2020-06-02T10:10:42+02:00</time>
      </trkpt>
      <trkpt lat="44.89234" lon="3.36542">
        <ele>1152</ele>
        <time>2020-06-02T10:10:53+02:00</time>
      </trkpt>
      <trkpt lat="44.89256" lon="3.36559">
        <ele>1152</ele>
        <time>2020-06-02T10:11:04+02:00</time>
      </trkpt>
      <trkpt lat="44.89277" lon="3.36576">
        <ele>1154</ele>
        <time>2020-06-02T10:11:13+02:00</time>
      </trkpt>
      <trkpt lat="44.89298" lon="3.36594">
        <ele>1157</ele>
        <time>2020-06-02T10:11:23+02:00</time>
      </trkpt>
      <trkpt lat="44.89316" lon="3.36615">
        <ele>1152</ele>
        <time>2020-06-02T10:11:32+02:00</time>
      </trkpt>
      <trkpt lat="44.89328" lon="3.36643">
        <ele>1155</ele>
        <time>2020-06-02T10:11:41+02:00</time>
      </trkpt>
      <trkpt lat="44.89336" lon="3.36675">
        <ele>1161</ele>
        <time>2020-06-02T10:11:50+02:00</time>
      </trkpt>
      <trkpt lat="44.89346" lon="3.36707">
        <ele>1161</ele>
        <time>2020-06-02T10:15:06+02:00</time>
      </trkpt>
      <trkpt lat="44.89357" lon="3.36736">
        <ele>1161</ele>
        <time>2020-06-02T10:15:14+02:00</time>
      </trkpt>
      <trkpt lat="44.89368" lon="3.36765">
        <ele>1166</ele>
        <time>2020-06-02T10:15:23+02:00</time>
      </trkpt>
      <trkpt lat="44.89378" lon="3.36796">
        <ele>1174</ele>
        <time>2020-06-02T10:15:34+02:00</time>
      </trkpt>
      <trkpt lat="44.89387" lon="3.36825">
        <ele>1173</ele>
        <time>2020-06-02T10:15:44+02:00</time>
      </trkpt>
      <trkpt lat="44.89396" lon="3.36858">
        <ele>1177</ele>
        <time>2020-06-02T10:15:54+02:00</time>
      </trkpt>
      <trkpt lat="44.89406" lon="3.36888">
        <ele>1176</ele>
        <time>2020-06-02T10:16:04+02:00</time>
      </trkpt>
      <trkpt lat="44.89415" lon="3.36919">
        <ele>1179</ele>
        <time>2020-06-02T10:16:15+02:00</time>
      </trkpt>
      <trkpt lat="44.89429" lon="3.36946">
        <ele>1180</ele>
        <time>2020-06-02T10:16:25+02:00</time>
      </trkpt>
      <trkpt lat="44.89443" lon="3.36974">
        <ele>1180</ele>
        <time>2020-06-02T10:16:35+02:00</time>
      </trkpt>
      <trkpt lat="44.89452" lon="3.37005">
        <ele>1179</ele>
        <time>2020-06-02T10:16:44+02:00</time>
      </trkpt>
      <trkpt lat="44.89468" lon="3.37027">
        <ele>1180</ele>
        <time>2020-06-02T10:17:00+02:00</time>
      </trkpt>
      <trkpt lat="44.89484" lon="3.37051">
        <ele>1182</ele>
        <time>2020-06-02T10:17:09+02:00</time>
      </trkpt>
      <trkpt lat="44.89501" lon="3.37074">
        <ele>1180</ele>
        <time>2020-06-02T10:17:18+02:00</time>
      </trkpt>
      <trkpt lat="44.89519" lon="3.37095">
        <ele>1185</ele>
        <time>2020-06-02T10:17:28+02:00</time>
      </trkpt>
      <trkpt lat="44.89536" lon="3.37118">
        <ele>1186</ele>
        <time>2020-06-02T10:17:38+02:00</time>
      </trkpt>
      <trkpt lat="44.89554" lon="3.37138">
        <ele>1187</ele>
        <time>2020-06-02T10:17:48+02:00</time>
      </trkpt>
      <trkpt lat="44.89573" lon="3.3716">
        <ele>1188</ele>
        <time>2020-06-02T10:17:59+02:00</time>
      </trkpt>
      <trkpt lat="44.8959" lon="3.37186">
        <ele>1190</ele>
        <time>2020-06-02T10:18:09+02:00</time>
      </trkpt>
      <trkpt lat="44.89609" lon="3.37205">
        <ele>1192</ele>
        <time>2020-06-02T10:18:19+02:00</time>
      </trkpt>
      <trkpt lat="44.89627" lon="3.37228">
        <ele>1195</ele>
        <time>2020-06-02T10:18:29+02:00</time>
      </trkpt>
      <trkpt lat="44.89642" lon="3.37252">
        <ele>1200</ele>
        <time>2020-06-02T10:18:39+02:00</time>
      </trkpt>
      <trkpt lat="44.8966" lon="3.37276">
        <ele>1197</ele>
        <time>2020-06-02T10:18:50+02:00</time>
      </trkpt>
      <trkpt lat="44.89677" lon="3.373">
        <ele>1201</ele>
        <time>2020-06-02T10:18:59+02:00</time>
      </trkpt>
      <trkpt lat="44.89692" lon="3.37324">
        <ele>1205</ele>
        <time>2020-06-02T10:19:08+02:00</time>
      </trkpt>
      <trkpt lat="44.89706" lon="3.37349">
        <ele>1207</ele>
        <time>2020-06-02T10:19:18+02:00</time>
      </trkpt>
      <trkpt lat="44.89723" lon="3.37374">
        <ele>1212</ele>
        <time>2020-06-02T10:19:29+02:00</time>
      </trkpt>
      <trkpt lat="44.89737" lon="3.374">
        <ele>1214</ele>
        <time>2020-06-02T10:19:40+02:00</time>
      </trkpt>
      <trkpt lat="44.89754" lon="3.37425">
        <ele>1213</ele>
        <time>2020-06-02T10:19:50+02:00</time>
      </trkpt>
      <trkpt lat="44.89772" lon="3.37446">
        <ele>1219</ele>
        <time>2020-06-02T10:20:01+02:00</time>
      </trkpt>
      <trkpt lat="44.8979" lon="3.37467">
        <ele>1221</ele>
        <time>2020-06-02T10:20:12+02:00</time>
      </trkpt>
      <trkpt lat="44.89811" lon="3.37486">
        <ele>1219</ele>
        <time>2020-06-02T10:20:23+02:00</time>
      </trkpt>
      <trkpt lat="44.8983" lon="3.37502">
        <ele>1221</ele>
        <time>2020-06-02T10:20:34+02:00</time>
      </trkpt>
      <trkpt lat="44.89852" lon="3.37516">
        <ele>1223</ele>
        <time>2020-06-02T10:20:46+02:00</time>
      </trkpt>
      <trkpt lat="44.89876" lon="3.37522">
        <ele>1229</ele>
        <time>2020-06-02T10:20:57+02:00</time>
      </trkpt>
      <trkpt lat="44.89898" lon="3.3753">
        <ele>1231</ele>
        <time>2020-06-02T10:21:09+02:00</time>
      </trkpt>
      <trkpt lat="44.89915" lon="3.37553">
        <ele>1232</ele>
        <time>2020-06-02T10:21:20+02:00</time>
      </trkpt>
      <trkpt lat="44.89931" lon="3.37578">
        <ele>1233</ele>
        <time>2020-06-02T10:21:31+02:00</time>
      </trkpt>
      <trkpt lat="44.89948" lon="3.37603">
        <ele>1235</ele>
        <time>2020-06-02T10:21:41+02:00</time>
      </trkpt>
      <trkpt lat="44.89963" lon="3.37628">
        <ele>1236</ele>
        <time>2020-06-02T10:21:50+02:00</time>
      </trkpt>
      <trkpt lat="44.8998" lon="3.3765">
        <ele>1238</ele>
        <time>2020-06-02T10:21:59+02:00</time>
      </trkpt>
      <trkpt lat="44.8999" lon="3.37621">
        <ele>1228</ele>
        <time>2020-06-02T10:22:07+02:00</time>
      </trkpt>
      <trkpt lat="44.90007" lon="3.37644">
        <ele>1242</ele>
        <time>2020-06-02T10:22:49+02:00</time>
      </trkpt>
      <trkpt lat="44.90028" lon="3.37659">
        <ele>1248</ele>
        <time>2020-06-02T10:23:01+02:00</time>
      </trkpt>
      <trkpt lat="44.9005" lon="3.37666">
        <ele>1249</ele>
        <time>2020-06-02T10:23:11+02:00</time>
      </trkpt>
      <trkpt lat="44.90074" lon="3.37678">
        <ele>1258</ele>
        <time>2020-06-02T10:23:20+02:00</time>
      </trkpt>
      <trkpt lat="44.90095" lon="3.37686">
        <ele>1258</ele>
        <time>2020-06-02T10:23:29+02:00</time>
      </trkpt>
      <trkpt lat="44.90119" lon="3.37689">
        <ele>1263</ele>
        <time>2020-06-02T10:23:40+02:00</time>
      </trkpt>
      <trkpt lat="44.90141" lon="3.37685">
        <ele>1247</ele>
        <time>2020-06-02T10:23:52+02:00</time>
      </trkpt>
      <trkpt lat="44.90164" lon="3.37675">
        <ele>1250</ele>
        <time>2020-06-02T10:24:03+02:00</time>
      </trkpt>
      <trkpt lat="44.90186" lon="3.37661">
        <ele>1257</ele>
        <time>2020-06-02T10:24:13+02:00</time>
      </trkpt>
      <trkpt lat="44.90209" lon="3.37657">
        <ele>1261</ele>
        <time>2020-06-02T10:24:24+02:00</time>
      </trkpt>
      <trkpt lat="44.90231" lon="3.37648">
        <ele>1263</ele>
        <time>2020-06-02T10:24:33+02:00</time>
      </trkpt>
      <trkpt lat="44.90253" lon="3.37636">
        <ele>1265</ele>
        <time>2020-06-02T10:24:40+02:00</time>
      </trkpt>
      <trkpt lat="44.90273" lon="3.37621">
        <ele>1261</ele>
        <time>2020-06-02T10:24:46+02:00</time>
      </trkpt>
      <trkpt lat="44.90295" lon="3.376">
        <ele>1259</ele>
        <time>2020-06-02T10:24:49+02:00</time>
      </trkpt>
      <trkpt lat="44.90315" lon="3.37582">
        <ele>1253</ele>
        <time>2020-06-02T10:24:54+02:00</time>
      </trkpt>
      <trkpt lat="44.90339" lon="3.3757">
        <ele>1253</ele>
        <time>2020-06-02T10:25:01+02:00</time>
      </trkpt>
      <trkpt lat="44.90362" lon="3.37553">
        <ele>1256</ele>
        <time>2020-06-02T10:25:08+02:00</time>
      </trkpt>
      <trkpt lat="44.90386" lon="3.37542">
        <ele>1257</ele>
        <time>2020-06-02T10:25:16+02:00</time>
      </trkpt>
      <trkpt lat="44.9041" lon="3.37541">
        <ele>1261</ele>
        <time>2020-06-02T10:25:24+02:00</time>
      </trkpt>
      <trkpt lat="44.90433" lon="3.3754">
        <ele>1262</ele>
        <time>2020-06-02T10:25:31+02:00</time>
      </trkpt>
      <trkpt lat="44.90455" lon="3.3754">
        <ele>1262</ele>
        <time>2020-06-02T10:25:37+02:00</time>
      </trkpt>
      <trkpt lat="44.90478" lon="3.37548">
        <ele>1261</ele>
        <time>2020-06-02T10:25:43+02:00</time>
      </trkpt>
      <trkpt lat="44.90503" lon="3.37556">
        <ele>1265</ele>
        <time>2020-06-02T10:25:51+02:00</time>
      </trkpt>
      <trkpt lat="44.90525" lon="3.37567">
        <ele>1264</ele>
        <time>2020-06-02T10:25:59+02:00</time>
      </trkpt>
      <trkpt lat="44.90546" lon="3.37585">
        <ele>1264</ele>
        <time>2020-06-02T10:26:08+02:00</time>
      </trkpt>
      <trkpt lat="44.90565" lon="3.37603">
        <ele>1264</ele>
        <time>2020-06-02T10:26:20+02:00</time>
      </trkpt>
      <trkpt lat="44.90571" lon="3.37634">
        <ele>1264</ele>
        <time>2020-06-02T10:26:32+02:00</time>
      </trkpt>
      <trkpt lat="44.90581" lon="3.37662">
        <ele>1264</ele>
        <time>2020-06-02T10:26:48+02:00</time>
      </trkpt>
      <trkpt lat="44.90589" lon="3.37693">
        <ele>1274</ele>
        <time>2020-06-02T10:27:05+02:00</time>
      </trkpt>
      <trkpt lat="44.90611" lon="3.37707">
        <ele>1278</ele>
        <time>2020-06-02T10:27:20+02:00</time>
      </trkpt>
      <trkpt lat="44.90633" lon="3.37715">
        <ele>1279</ele>
        <time>2020-06-02T10:27:33+02:00</time>
      </trkpt>
      <trkpt lat="44.90651" lon="3.37736">
        <ele>1279</ele>
        <time>2020-06-02T10:27:48+02:00</time>
      </trkpt>
      <trkpt lat="44.90661" lon="3.37765">
        <ele>1282</ele>
        <time>2020-06-02T10:28:03+02:00</time>
      </trkpt>
      <trkpt lat="44.90673" lon="3.37792">
        <ele>1289</ele>
        <time>2020-06-02T10:28:17+02:00</time>
      </trkpt>
      <trkpt lat="44.90688" lon="3.37816">
        <ele>1284</ele>
        <time>2020-06-02T10:28:30+02:00</time>
      </trkpt>
      <trkpt lat="44.90706" lon="3.37837">
        <ele>1284</ele>
        <time>2020-06-02T10:28:40+02:00</time>
      </trkpt>
      <trkpt lat="44.90724" lon="3.37859">
        <ele>1292</ele>
        <time>2020-06-02T10:28:53+02:00</time>
      </trkpt>
      <trkpt lat="44.90741" lon="3.37883">
        <ele>1296</ele>
        <time>2020-06-02T10:29:09+02:00</time>
      </trkpt>
      <trkpt lat="44.90758" lon="3.37905">
        <ele>1291</ele>
        <time>2020-06-02T10:29:22+02:00</time>
      </trkpt>
      <trkpt lat="44.90775" lon="3.37926">
        <ele>1299</ele>
        <time>2020-06-02T10:29:37+02:00</time>
      </trkpt>
      <trkpt lat="44.90795" lon="3.37946">
        <ele>1304</ele>
        <time>2020-06-02T10:29:48+02:00</time>
      </trkpt>
      <trkpt lat="44.90814" lon="3.37963">
        <ele>1308</ele>
        <time>2020-06-02T10:30:00+02:00</time>
      </trkpt>
      <trkpt lat="44.90837" lon="3.37969">
        <ele>1313</ele>
        <time>2020-06-02T10:30:12+02:00</time>
      </trkpt>
      <trkpt lat="44.9086" lon="3.37978">
        <ele>1304</ele>
        <time>2020-06-02T10:30:23+02:00</time>
      </trkpt>
      <trkpt lat="44.9088" lon="3.37993">
        <ele>1313</ele>
        <time>2020-06-02T10:30:35+02:00</time>
      </trkpt>
      <trkpt lat="44.90898" lon="3.38014">
        <ele>1313</ele>
        <time>2020-06-02T10:30:46+02:00</time>
      </trkpt>
      <trkpt lat="44.90915" lon="3.38037">
        <ele>1315</ele>
        <time>2020-06-02T10:30:57+02:00</time>
      </trkpt>
      <trkpt lat="44.90931" lon="3.3806">
        <ele>1315</ele>
        <time>2020-06-02T10:31:08+02:00</time>
      </trkpt>
      <trkpt lat="44.90945" lon="3.38088">
        <ele>1321</ele>
        <time>2020-06-02T10:31:22+02:00</time>
      </trkpt>
      <trkpt lat="44.90956" lon="3.38116">
        <ele>1316</ele>
        <time>2020-06-02T10:31:33+02:00</time>
      </trkpt>
      <trkpt lat="44.90965" lon="3.38146">
        <ele>1320</ele>
        <time>2020-06-02T10:31:44+02:00</time>
      </trkpt>
      <trkpt lat="44.90979" lon="3.38173">
        <ele>1320</ele>
        <time>2020-06-02T10:31:57+02:00</time>
      </trkpt>
      <trkpt lat="44.90999" lon="3.38188">
        <ele>1327</ele>
        <time>2020-06-02T10:32:09+02:00</time>
      </trkpt>
      <trkpt lat="44.91021" lon="3.38204">
        <ele>1331</ele>
        <time>2020-06-02T10:32:21+02:00</time>
      </trkpt>
      <trkpt lat="44.91038" lon="3.38226">
        <ele>1334</ele>
        <time>2020-06-02T10:32:34+02:00</time>
      </trkpt>
      <trkpt lat="44.91046" lon="3.38257">
        <ele>1331</ele>
        <time>2020-06-02T10:32:47+02:00</time>
      </trkpt>
      <trkpt lat="44.91054" lon="3.38288">
        <ele>1333</ele>
        <time>2020-06-02T10:33:02+02:00</time>
      </trkpt>
      <trkpt lat="44.91063" lon="3.38318">
        <ele>1335</ele>
        <time>2020-06-02T10:33:19+02:00</time>
      </trkpt>
      <trkpt lat="44.91074" lon="3.38348">
        <ele>1341</ele>
        <time>2020-06-02T10:33:36+02:00</time>
      </trkpt>
      <trkpt lat="44.91079" lon="3.38379">
        <ele>1347</ele>
        <time>2020-06-02T10:33:53+02:00</time>
      </trkpt>
      <trkpt lat="44.91092" lon="3.38407">
        <ele>1349</ele>
        <time>2020-06-02T10:34:07+02:00</time>
      </trkpt>
      <trkpt lat="44.91108" lon="3.38432">
        <ele>1352</ele>
        <time>2020-06-02T10:34:22+02:00</time>
      </trkpt>
      <trkpt lat="44.91118" lon="3.38462">
        <ele>1348</ele>
        <time>2020-06-02T10:34:37+02:00</time>
      </trkpt>
      <trkpt lat="44.91136" lon="3.38483">
        <ele>1354</ele>
        <time>2020-06-02T10:34:55+02:00</time>
      </trkpt>
      <trkpt lat="44.91159" lon="3.38494">
        <ele>1364</ele>
        <time>2020-06-02T10:35:13+02:00</time>
      </trkpt>
      <trkpt lat="44.91181" lon="3.38504">
        <ele>1370</ele>
        <time>2020-06-02T10:35:29+02:00</time>
      </trkpt>
      <trkpt lat="44.91203" lon="3.38515">
        <ele>1369</ele>
        <time>2020-06-02T10:35:42+02:00</time>
      </trkpt>
      <trkpt lat="44.91224" lon="3.38531">
        <ele>1367</ele>
        <time>2020-06-02T10:35:56+02:00</time>
      </trkpt>
      <trkpt lat="44.91242" lon="3.38552">
        <ele>1368</ele>
        <time>2020-06-02T10:36:12+02:00</time>
      </trkpt>
      <trkpt lat="44.91241" lon="3.38585">
        <ele>1370</ele>
        <time>2020-06-02T10:36:34+02:00</time>
      </trkpt>
      <trkpt lat="44.9122" lon="3.386">
        <ele>1373</ele>
        <time>2020-06-02T10:36:51+02:00</time>
      </trkpt>
      <trkpt lat="44.91198" lon="3.38612">
        <ele>1377</ele>
        <time>2020-06-02T10:37:07+02:00</time>
      </trkpt>
      <trkpt lat="44.91183" lon="3.38636">
        <ele>1376</ele>
        <time>2020-06-02T10:37:21+02:00</time>
      </trkpt>
      <trkpt lat="44.91201" lon="3.38658">
        <ele>1383</ele>
        <time>2020-06-02T10:37:38+02:00</time>
      </trkpt>
      <trkpt lat="44.91222" lon="3.38669">
        <ele>1393</ele>
        <time>2020-06-02T10:37:56+02:00</time>
      </trkpt>
      <trkpt lat="44.91243" lon="3.38686">
        <ele>1392</ele>
        <time>2020-06-02T10:38:11+02:00</time>
      </trkpt>
      <trkpt lat="44.91261" lon="3.38707">
        <ele>1390</ele>
        <time>2020-06-02T10:38:25+02:00</time>
      </trkpt>
      <trkpt lat="44.91282" lon="3.38723">
        <ele>1393</ele>
        <time>2020-06-02T10:38:42+02:00</time>
      </trkpt>
      <trkpt lat="44.913" lon="3.38745">
        <ele>1400</ele>
        <time>2020-06-02T10:39:00+02:00</time>
      </trkpt>
      <trkpt lat="44.91318" lon="3.38765">
        <ele>1406</ele>
        <time>2020-06-02T10:39:16+02:00</time>
      </trkpt>
      <trkpt lat="44.91338" lon="3.38781">
        <ele>1411</ele>
        <time>2020-06-02T10:39:33+02:00</time>
      </trkpt>
      <trkpt lat="44.91358" lon="3.388">
        <ele>1409</ele>
        <time>2020-06-02T10:39:47+02:00</time>
      </trkpt>
      <trkpt lat="44.91372" lon="3.38824">
        <ele>1410</ele>
        <time>2020-06-02T10:40:02+02:00</time>
      </trkpt>
      <trkpt lat="44.91387" lon="3.38851">
        <ele>1415</ele>
        <time>2020-06-02T10:40:17+02:00</time>
      </trkpt>
      <trkpt lat="44.91399" lon="3.38879">
        <ele>1418</ele>
        <time>2020-06-02T10:40:35+02:00</time>
      </trkpt>
      <trkpt lat="44.91413" lon="3.38904">
        <ele>1425</ele>
        <time>2020-06-02T10:40:50+02:00</time>
      </trkpt>
      <trkpt lat="44.91427" lon="3.38931">
        <ele>1422</ele>
        <time>2020-06-02T10:41:06+02:00</time>
      </trkpt>
      <trkpt lat="44.9143" lon="3.38964">
        <ele>1423</ele>
        <time>2020-06-02T10:41:18+02:00</time>
      </trkpt>
      <trkpt lat="44.91438" lon="3.38995">
        <ele>1424</ele>
        <time>2020-06-02T10:41:34+02:00</time>
      </trkpt>
      <trkpt lat="44.91443" lon="3.39027">
        <ele>1432</ele>
        <time>2020-06-02T10:41:50+02:00</time>
      </trkpt>
      <trkpt lat="44.91447" lon="3.39058">
        <ele>1431</ele>
        <time>2020-06-02T10:42:03+02:00</time>
      </trkpt>
      <trkpt lat="44.91447" lon="3.39092">
        <ele>1440</ele>
        <time>2020-06-02T10:42:20+02:00</time>
      </trkpt>
      <trkpt lat="44.91443" lon="3.39125">
        <ele>1436</ele>
        <time>2020-06-02T10:42:33+02:00</time>
      </trkpt>
      <trkpt lat="44.9144" lon="3.39158">
        <ele>1436</ele>
        <time>2020-06-02T10:42:48+02:00</time>
      </trkpt>
      <trkpt lat="44.91435" lon="3.3919">
        <ele>1439</ele>
        <time>2020-06-02T10:43:04+02:00</time>
      </trkpt>
      <trkpt lat="44.9142" lon="3.39215">
        <ele>1450</ele>
        <time>2020-06-02T10:43:22+02:00</time>
      </trkpt>
      <trkpt lat="44.91403" lon="3.39238">
        <ele>1452</ele>
        <time>2020-06-02T10:43:33+02:00</time>
      </trkpt>
      <trkpt lat="44.91384" lon="3.39259">
        <ele>1450</ele>
        <time>2020-06-02T10:43:42+02:00</time>
      </trkpt>
      <trkpt lat="44.91365" lon="3.39276">
        <ele>1453</ele>
        <time>2020-06-02T10:43:55+02:00</time>
      </trkpt>
      <trkpt lat="44.91357" lon="3.3931">
        <ele>1460</ele>
        <time>2020-06-02T10:44:03+02:00</time>
      </trkpt>
      <trkpt lat="44.91364" lon="3.39344">
        <ele>1462</ele>
        <time>2020-06-02T10:44:09+02:00</time>
      </trkpt>
      <trkpt lat="44.91368" lon="3.3939">
        <ele>1444</ele>
        <time>2020-06-02T10:44:11+02:00</time>
      </trkpt>
      <trkpt lat="44.91375" lon="3.39424">
        <ele>1442</ele>
        <time>2020-06-02T10:44:15+02:00</time>
      </trkpt>
      <trkpt lat="44.91379" lon="3.39462">
        <ele>1440</ele>
        <time>2020-06-02T10:44:19+02:00</time>
      </trkpt>
      <trkpt lat="44.91384" lon="3.39496">
        <ele>1440</ele>
        <time>2020-06-02T10:44:23+02:00</time>
      </trkpt>
      <trkpt lat="44.91389" lon="3.39531">
        <ele>1437</ele>
        <time>2020-06-02T10:44:26+02:00</time>
      </trkpt>
      <trkpt lat="44.91395" lon="3.3957">
        <ele>1433</ele>
        <time>2020-06-02T10:44:29+02:00</time>
      </trkpt>
      <trkpt lat="44.91402" lon="3.39607">
        <ele>1431</ele>
        <time>2020-06-02T10:44:32+02:00</time>
      </trkpt>
      <trkpt lat="44.91409" lon="3.39642">
        <ele>1428</ele>
        <time>2020-06-02T10:44:35+02:00</time>
      </trkpt>
      <trkpt lat="44.91415" lon="3.39679">
        <ele>1428</ele>
        <time>2020-06-02T10:44:38+02:00</time>
      </trkpt>
      <trkpt lat="44.91418" lon="3.39714">
        <ele>1428</ele>
        <time>2020-06-02T10:44:41+02:00</time>
      </trkpt>
      <trkpt lat="44.91424" lon="3.39755">
        <ele>1425</ele>
        <time>2020-06-02T10:44:45+02:00</time>
      </trkpt>
      <trkpt lat="44.91428" lon="3.39788">
        <ele>1422</ele>
        <time>2020-06-02T10:44:48+02:00</time>
      </trkpt>
      <trkpt lat="44.91433" lon="3.3982">
        <ele>1421</ele>
        <time>2020-06-02T10:44:51+02:00</time>
      </trkpt>
      <trkpt lat="44.91439" lon="3.39851">
        <ele>1419</ele>
        <time>2020-06-02T10:44:54+02:00</time>
      </trkpt>
      <trkpt lat="44.91446" lon="3.3989">
        <ele>1415</ele>
        <time>2020-06-02T10:44:58+02:00</time>
      </trkpt>
      <trkpt lat="44.9145" lon="3.39931">
        <ele>1413</ele>
        <time>2020-06-02T10:45:02+02:00</time>
      </trkpt>
      <trkpt lat="44.91455" lon="3.3997">
        <ele>1410</ele>
        <time>2020-06-02T10:45:06+02:00</time>
      </trkpt>
      <trkpt lat="44.91459" lon="3.40001">
        <ele>1407</ele>
        <time>2020-06-02T10:45:10+02:00</time>
      </trkpt>
      <trkpt lat="44.91452" lon="3.40039">
        <ele>1405</ele>
        <time>2020-06-02T10:45:15+02:00</time>
      </trkpt>
      <trkpt lat="44.91437" lon="3.40066">
        <ele>1405</ele>
        <time>2020-06-02T10:45:21+02:00</time>
      </trkpt>
      <trkpt lat="44.91413" lon="3.40076">
        <ele>1408</ele>
        <time>2020-06-02T10:45:30+02:00</time>
      </trkpt>
      <trkpt lat="44.91392" lon="3.40095">
        <ele>1407</ele>
        <time>2020-06-02T10:45:39+02:00</time>
      </trkpt>
      <trkpt lat="44.9137" lon="3.40108">
        <ele>1408</ele>
        <time>2020-06-02T10:45:46+02:00</time>
      </trkpt>
      <trkpt lat="44.91347" lon="3.40123">
        <ele>1410</ele>
        <time>2020-06-02T10:45:53+02:00</time>
      </trkpt>
      <trkpt lat="44.91325" lon="3.40136">
        <ele>1407</ele>
        <time>2020-06-02T10:45:59+02:00</time>
      </trkpt>
      <trkpt lat="44.91301" lon="3.40144">
        <ele>1407</ele>
        <time>2020-06-02T10:46:05+02:00</time>
      </trkpt>
      <trkpt lat="44.91278" lon="3.4015">
        <ele>1406</ele>
        <time>2020-06-02T10:46:11+02:00</time>
      </trkpt>
      <trkpt lat="44.91253" lon="3.40158">
        <ele>1409</ele>
        <time>2020-06-02T10:46:19+02:00</time>
      </trkpt>
      <trkpt lat="44.91228" lon="3.40158">
        <ele>1408</ele>
        <time>2020-06-02T10:46:26+02:00</time>
      </trkpt>
      <trkpt lat="44.91204" lon="3.40157">
        <ele>1407</ele>
        <time>2020-06-02T10:46:33+02:00</time>
      </trkpt>
      <trkpt lat="44.9118" lon="3.40159">
        <ele>1407</ele>
        <time>2020-06-02T10:46:40+02:00</time>
      </trkpt>
      <trkpt lat="44.91174" lon="3.40192">
        <ele>1413</ele>
        <time>2020-06-02T10:48:42+02:00</time>
      </trkpt>
      <trkpt lat="44.91191" lon="3.40222">
        <ele>1411</ele>
        <time>2020-06-02T10:48:49+02:00</time>
      </trkpt>
      <trkpt lat="44.91206" lon="3.40251">
        <ele>1407</ele>
        <time>2020-06-02T10:48:54+02:00</time>
      </trkpt>
      <trkpt lat="44.91222" lon="3.40279">
        <ele>1405</ele>
        <time>2020-06-02T10:48:58+02:00</time>
      </trkpt>
      <trkpt lat="44.91239" lon="3.40313">
        <ele>1401</ele>
        <time>2020-06-02T10:49:02+02:00</time>
      </trkpt>
      <trkpt lat="44.91254" lon="3.4034">
        <ele>1398</ele>
        <time>2020-06-02T10:49:05+02:00</time>
      </trkpt>
      <trkpt lat="44.91268" lon="3.40369">
        <ele>1395</ele>
        <time>2020-06-02T10:49:08+02:00</time>
      </trkpt>
      <trkpt lat="44.91283" lon="3.40395">
        <ele>1393</ele>
        <time>2020-06-02T10:49:11+02:00</time>
      </trkpt>
      <trkpt lat="44.91298" lon="3.40421">
        <ele>1390</ele>
        <time>2020-06-02T10:49:16+02:00</time>
      </trkpt>
      <trkpt lat="44.91313" lon="3.40446">
        <ele>1390</ele>
        <time>2020-06-02T10:50:24+02:00</time>
      </trkpt>
      <trkpt lat="44.91327" lon="3.40471">
        <ele>1388</ele>
        <time>2020-06-02T10:50:29+02:00</time>
      </trkpt>
      <trkpt lat="44.91344" lon="3.40501">
        <ele>1388</ele>
        <time>2020-06-02T10:50:34+02:00</time>
      </trkpt>
      <trkpt lat="44.91358" lon="3.40526">
        <ele>1387</ele>
        <time>2020-06-02T10:50:38+02:00</time>
      </trkpt>
      <trkpt lat="44.91373" lon="3.40553">
        <ele>1386</ele>
        <time>2020-06-02T10:50:42+02:00</time>
      </trkpt>
      <trkpt lat="44.91389" lon="3.4058">
        <ele>1385</ele>
        <time>2020-06-02T10:50:46+02:00</time>
      </trkpt>
      <trkpt lat="44.91402" lon="3.40607">
        <ele>1382</ele>
        <time>2020-06-02T10:50:55+02:00</time>
      </trkpt>
      <trkpt lat="44.91418" lon="3.40635">
        <ele>1383</ele>
        <time>2020-06-02T10:52:06+02:00</time>
      </trkpt>
      <trkpt lat="44.91432" lon="3.40673">
        <ele>1376</ele>
        <time>2020-06-02T10:52:11+02:00</time>
      </trkpt>
      <trkpt lat="44.91441" lon="3.40713">
        <ele>1371</ele>
        <time>2020-06-02T10:52:15+02:00</time>
      </trkpt>
      <trkpt lat="44.91449" lon="3.40746">
        <ele>1368</ele>
        <time>2020-06-02T10:52:18+02:00</time>
      </trkpt>
      <trkpt lat="44.91455" lon="3.40781">
        <ele>1364</ele>
        <time>2020-06-02T10:52:21+02:00</time>
      </trkpt>
      <trkpt lat="44.9146" lon="3.40814">
        <ele>1365</ele>
        <time>2020-06-02T10:52:24+02:00</time>
      </trkpt>
      <trkpt lat="44.91462" lon="3.40849">
        <ele>1363</ele>
        <time>2020-06-02T10:52:27+02:00</time>
      </trkpt>
      <trkpt lat="44.91465" lon="3.40887">
        <ele>1361</ele>
        <time>2020-06-02T10:52:30+02:00</time>
      </trkpt>
      <trkpt lat="44.91469" lon="3.40926">
        <ele>1359</ele>
        <time>2020-06-02T10:52:33+02:00</time>
      </trkpt>
      <trkpt lat="44.91479" lon="3.40963">
        <ele>1355</ele>
        <time>2020-06-02T10:52:36+02:00</time>
      </trkpt>
      <trkpt lat="44.91495" lon="3.40995">
        <ele>1353</ele>
        <time>2020-06-02T10:52:39+02:00</time>
      </trkpt>
      <trkpt lat="44.91508" lon="3.41025">
        <ele>1350</ele>
        <time>2020-06-02T10:52:42+02:00</time>
      </trkpt>
      <trkpt lat="44.91532" lon="3.41029">
        <ele>1349</ele>
        <time>2020-06-02T10:52:51+02:00</time>
      </trkpt>
      <trkpt lat="44.9154" lon="3.40995">
        <ele>1346</ele>
        <time>2020-06-02T10:52:57+02:00</time>
      </trkpt>
      <trkpt lat="44.91553" lon="3.41024">
        <ele>1341</ele>
        <time>2020-06-02T10:53:05+02:00</time>
      </trkpt>
      <trkpt lat="44.91565" lon="3.41055">
        <ele>1338</ele>
        <time>2020-06-02T10:53:10+02:00</time>
      </trkpt>
      <trkpt lat="44.91571" lon="3.41091">
        <ele>1337</ele>
        <time>2020-06-02T10:53:14+02:00</time>
      </trkpt>
      <trkpt lat="44.9158" lon="3.41127">
        <ele>1337</ele>
        <time>2020-06-02T10:53:18+02:00</time>
      </trkpt>
      <trkpt lat="44.91583" lon="3.41159">
        <ele>1336</ele>
        <time>2020-06-02T10:53:21+02:00</time>
      </trkpt>
      <trkpt lat="44.91588" lon="3.41195">
        <ele>1334</ele>
        <time>2020-06-02T10:53:24+02:00</time>
      </trkpt>
      <trkpt lat="44.91587" lon="3.41231">
        <ele>1332</ele>
        <time>2020-06-02T10:53:28+02:00</time>
      </trkpt>
      <trkpt lat="44.9158" lon="3.41263">
        <ele>1330</ele>
        <time>2020-06-02T10:53:32+02:00</time>
      </trkpt>
      <trkpt lat="44.91563" lon="3.41283">
        <ele>1328</ele>
        <time>2020-06-02T10:53:36+02:00</time>
      </trkpt>
      <trkpt lat="44.91593" lon="3.41287">
        <ele>1327</ele>
        <time>2020-06-02T10:53:52+02:00</time>
      </trkpt>
      <trkpt lat="44.91611" lon="3.41267">
        <ele>1323</ele>
        <time>2020-06-02T10:53:57+02:00</time>
      </trkpt>
      <trkpt lat="44.9163" lon="3.41246">
        <ele>1323</ele>
        <time>2020-06-02T10:54:04+02:00</time>
      </trkpt>
      <trkpt lat="44.91652" lon="3.41233">
        <ele>1317</ele>
        <time>2020-06-02T10:54:08+02:00</time>
      </trkpt>
      <trkpt lat="44.91675" lon="3.41236">
        <ele>1317</ele>
        <time>2020-06-02T10:54:12+02:00</time>
      </trkpt>
      <trkpt lat="44.91695" lon="3.41217">
        <ele>1319</ele>
        <time>2020-06-02T10:54:17+02:00</time>
      </trkpt>
      <trkpt lat="44.91713" lon="3.41191">
        <ele>1321</ele>
        <time>2020-06-02T10:54:23+02:00</time>
      </trkpt>
      <trkpt lat="44.9173" lon="3.41168">
        <ele>1315</ele>
        <time>2020-06-02T10:54:27+02:00</time>
      </trkpt>
      <trkpt lat="44.91752" lon="3.41152">
        <ele>1309</ele>
        <time>2020-06-02T10:54:32+02:00</time>
      </trkpt>
      <trkpt lat="44.91774" lon="3.41141">
        <ele>1305</ele>
        <time>2020-06-02T10:54:36+02:00</time>
      </trkpt>
      <trkpt lat="44.91796" lon="3.41129">
        <ele>1304</ele>
        <time>2020-06-02T10:54:41+02:00</time>
      </trkpt>
      <trkpt lat="44.9182" lon="3.41128">
        <ele>1303</ele>
        <time>2020-06-02T10:54:50+02:00</time>
      </trkpt>
      <trkpt lat="44.91844" lon="3.41122">
        <ele>1304</ele>
        <time>2020-06-02T10:55:03+02:00</time>
      </trkpt>
      <trkpt lat="44.91864" lon="3.41106">
        <ele>1311</ele>
        <time>2020-06-02T10:55:12+02:00</time>
      </trkpt>
      <trkpt lat="44.91886" lon="3.41092">
        <ele>1310</ele>
        <time>2020-06-02T10:55:21+02:00</time>
      </trkpt>
      <trkpt lat="44.9191" lon="3.41079">
        <ele>1312</ele>
        <time>2020-06-02T10:55:31+02:00</time>
      </trkpt>
      <trkpt lat="44.91933" lon="3.41071">
        <ele>1311</ele>
        <time>2020-06-02T10:55:40+02:00</time>
      </trkpt>
      <trkpt lat="44.91955" lon="3.41064">
        <ele>1311</ele>
        <time>2020-06-02T10:55:51+02:00</time>
      </trkpt>
      <trkpt lat="44.91979" lon="3.4106">
        <ele>1313</ele>
        <time>2020-06-02T10:56:04+02:00</time>
      </trkpt>
      <trkpt lat="44.92003" lon="3.41057">
        <ele>1315</ele>
        <time>2020-06-02T10:56:16+02:00</time>
      </trkpt>
      <trkpt lat="44.92025" lon="3.41059">
        <ele>1321</ele>
        <time>2020-06-02T10:56:28+02:00</time>
      </trkpt>
      <trkpt lat="44.92049" lon="3.41057">
        <ele>1313</ele>
        <time>2020-06-02T10:56:41+02:00</time>
      </trkpt>
      <trkpt lat="44.92072" lon="3.41057">
        <ele>1317</ele>
        <time>2020-06-02T10:56:52+02:00</time>
      </trkpt>
      <trkpt lat="44.92096" lon="3.4106">
        <ele>1314</ele>
        <time>2020-06-02T10:57:04+02:00</time>
      </trkpt>
      <trkpt lat="44.92117" lon="3.41048">
        <ele>1328</ele>
        <time>2020-06-02T10:57:27+02:00</time>
      </trkpt>
      <trkpt lat="44.9214" lon="3.41057">
        <ele>1327</ele>
        <time>2020-06-02T11:10:01+02:00</time>
      </trkpt>
      <trkpt lat="44.92163" lon="3.41067">
        <ele>1321</ele>
        <time>2020-06-02T11:10:10+02:00</time>
      </trkpt>
      <trkpt lat="44.92184" lon="3.41079">
        <ele>1315</ele>
        <time>2020-06-02T11:10:21+02:00</time>
      </trkpt>
      <trkpt lat="44.92206" lon="3.41086">
        <ele>1325</ele>
        <time>2020-06-02T11:10:31+02:00</time>
      </trkpt>
      <trkpt lat="44.92229" lon="3.41084">
        <ele>1332</ele>
        <time>2020-06-02T11:10:44+02:00</time>
      </trkpt>
      <trkpt lat="44.92253" lon="3.41082">
        <ele>1335</ele>
        <time>2020-06-02T11:11:00+02:00</time>
      </trkpt>
      <trkpt lat="44.92277" lon="3.4108">
        <ele>1332</ele>
        <time>2020-06-02T11:11:10+02:00</time>
      </trkpt>
      <trkpt lat="44.92301" lon="3.41082">
        <ele>1322</ele>
        <time>2020-06-02T11:11:19+02:00</time>
      </trkpt>
      <trkpt lat="44.92324" lon="3.41085">
        <ele>1325</ele>
        <time>2020-06-02T11:11:26+02:00</time>
      </trkpt>
      <trkpt lat="44.92346" lon="3.41092">
        <ele>1327</ele>
        <time>2020-06-02T11:11:35+02:00</time>
      </trkpt>
      <trkpt lat="44.92368" lon="3.41104">
        <ele>1331</ele>
        <time>2020-06-02T11:11:46+02:00</time>
      </trkpt>
      <trkpt lat="44.92389" lon="3.41118">
        <ele>1335</ele>
        <time>2020-06-02T11:11:58+02:00</time>
      </trkpt>
      <trkpt lat="44.9241" lon="3.41133">
        <ele>1335</ele>
        <time>2020-06-02T11:12:09+02:00</time>
      </trkpt>
      <trkpt lat="44.92432" lon="3.41144">
        <ele>1337</ele>
        <time>2020-06-02T11:12:20+02:00</time>
      </trkpt>
      <trkpt lat="44.92456" lon="3.41145">
        <ele>1337</ele>
        <time>2020-06-02T11:12:34+02:00</time>
      </trkpt>
      <trkpt lat="44.92494" lon="3.41146">
        <ele>1343</ele>
        <time>2020-06-02T11:12:43+02:00</time>
      </trkpt>
      <trkpt lat="44.9252" lon="3.41155">
        <ele>1346</ele>
        <time>2020-06-02T11:12:49+02:00</time>
      </trkpt>
      <trkpt lat="44.92542" lon="3.41166">
        <ele>1344</ele>
        <time>2020-06-02T11:12:53+02:00</time>
      </trkpt>
      <trkpt lat="44.92565" lon="3.41184">
        <ele>1337</ele>
        <time>2020-06-02T11:12:58+02:00</time>
      </trkpt>
      <trkpt lat="44.92585" lon="3.41202">
        <ele>1334</ele>
        <time>2020-06-02T11:13:02+02:00</time>
      </trkpt>
      <trkpt lat="44.92604" lon="3.4122">
        <ele>1336</ele>
        <time>2020-06-02T11:13:06+02:00</time>
      </trkpt>
      <trkpt lat="44.92624" lon="3.41238">
        <ele>1335</ele>
        <time>2020-06-02T11:13:09+02:00</time>
      </trkpt>
      <trkpt lat="44.92645" lon="3.4125">
        <ele>1335</ele>
        <time>2020-06-02T11:13:12+02:00</time>
      </trkpt>
      <trkpt lat="44.9267" lon="3.41274">
        <ele>1332</ele>
        <time>2020-06-02T11:13:16+02:00</time>
      </trkpt>
      <trkpt lat="44.92689" lon="3.41302">
        <ele>1332</ele>
        <time>2020-06-02T11:13:20+02:00</time>
      </trkpt>
      <trkpt lat="44.92711" lon="3.41323">
        <ele>1331</ele>
        <time>2020-06-02T11:13:24+02:00</time>
      </trkpt>
      <trkpt lat="44.92738" lon="3.41329">
        <ele>1329</ele>
        <time>2020-06-02T11:13:28+02:00</time>
      </trkpt>
      <trkpt lat="44.92758" lon="3.41312">
        <ele>1328</ele>
        <time>2020-06-02T11:13:32+02:00</time>
      </trkpt>
      <trkpt lat="44.92774" lon="3.41282">
        <ele>1329</ele>
        <time>2020-06-02T11:13:37+02:00</time>
      </trkpt>
      <trkpt lat="44.92784" lon="3.4125">
        <ele>1327</ele>
        <time>2020-06-02T11:13:42+02:00</time>
      </trkpt>
      <trkpt lat="44.92803" lon="3.41228">
        <ele>1329</ele>
        <time>2020-06-02T11:13:47+02:00</time>
      </trkpt>
      <trkpt lat="44.92824" lon="3.41208">
        <ele>1330</ele>
        <time>2020-06-02T11:13:52+02:00</time>
      </trkpt>
      <trkpt lat="44.92845" lon="3.41195">
        <ele>1329</ele>
        <time>2020-06-02T11:13:58+02:00</time>
      </trkpt>
      <trkpt lat="44.92866" lon="3.41184">
        <ele>1329</ele>
        <time>2020-06-02T11:14:04+02:00</time>
      </trkpt>
      <trkpt lat="44.92884" lon="3.41163">
        <ele>1328</ele>
        <time>2020-06-02T11:14:09+02:00</time>
      </trkpt>
      <trkpt lat="44.92905" lon="3.41144">
        <ele>1328</ele>
        <time>2020-06-02T11:14:14+02:00</time>
      </trkpt>
      <trkpt lat="44.92926" lon="3.41121">
        <ele>1327</ele>
        <time>2020-06-02T11:14:19+02:00</time>
      </trkpt>
      <trkpt lat="44.92945" lon="3.41101">
        <ele>1327</ele>
        <time>2020-06-02T11:14:23+02:00</time>
      </trkpt>
      <trkpt lat="44.92966" lon="3.41086">
        <ele>1328</ele>
        <time>2020-06-02T11:14:27+02:00</time>
      </trkpt>
      <trkpt lat="44.92987" lon="3.41064">
        <ele>1330</ele>
        <time>2020-06-02T11:14:32+02:00</time>
      </trkpt>
      <trkpt lat="44.93007" lon="3.41038">
        <ele>1329</ele>
        <time>2020-06-02T11:14:37+02:00</time>
      </trkpt>
      <trkpt lat="44.93026" lon="3.41016">
        <ele>1328</ele>
        <time>2020-06-02T11:14:41+02:00</time>
      </trkpt>
      <trkpt lat="44.93047" lon="3.40991">
        <ele>1326</ele>
        <time>2020-06-02T11:14:46+02:00</time>
      </trkpt>
      <trkpt lat="44.93064" lon="3.40967">
        <ele>1324</ele>
        <time>2020-06-02T11:14:50+02:00</time>
      </trkpt>
      <trkpt lat="44.93084" lon="3.4094">
        <ele>1323</ele>
        <time>2020-06-02T11:14:55+02:00</time>
      </trkpt>
      <trkpt lat="44.93098" lon="3.40914">
        <ele>1321</ele>
        <time>2020-06-02T11:15:00+02:00</time>
      </trkpt>
      <trkpt lat="44.93118" lon="3.40885">
        <ele>1319</ele>
        <time>2020-06-02T11:15:05+02:00</time>
      </trkpt>
      <trkpt lat="44.93139" lon="3.40871">
        <ele>1317</ele>
        <time>2020-06-02T11:15:09+02:00</time>
      </trkpt>
      <trkpt lat="44.93163" lon="3.4086">
        <ele>1319</ele>
        <time>2020-06-02T11:15:14+02:00</time>
      </trkpt>
      <trkpt lat="44.93184" lon="3.40846">
        <ele>1318</ele>
        <time>2020-06-02T11:15:18+02:00</time>
      </trkpt>
      <trkpt lat="44.93209" lon="3.40828">
        <ele>1318</ele>
        <time>2020-06-02T11:15:22+02:00</time>
      </trkpt>
      <trkpt lat="44.93237" lon="3.40813">
        <ele>1316</ele>
        <time>2020-06-02T11:15:26+02:00</time>
      </trkpt>
      <trkpt lat="44.93258" lon="3.40799">
        <ele>1316</ele>
        <time>2020-06-02T11:15:29+02:00</time>
      </trkpt>
      <trkpt lat="44.93282" lon="3.40784">
        <ele>1314</ele>
        <time>2020-06-02T11:15:32+02:00</time>
      </trkpt>
      <trkpt lat="44.93304" lon="3.40766">
        <ele>1309</ele>
        <time>2020-06-02T11:15:35+02:00</time>
      </trkpt>
      <trkpt lat="44.93325" lon="3.40744">
        <ele>1305</ele>
        <time>2020-06-02T11:15:38+02:00</time>
      </trkpt>
      <trkpt lat="44.93346" lon="3.4072">
        <ele>1303</ele>
        <time>2020-06-02T11:15:41+02:00</time>
      </trkpt>
      <trkpt lat="44.93368" lon="3.40698">
        <ele>1302</ele>
        <time>2020-06-02T11:15:44+02:00</time>
      </trkpt>
      <trkpt lat="44.93388" lon="3.40675">
        <ele>1298</ele>
        <time>2020-06-02T11:15:47+02:00</time>
      </trkpt>
      <trkpt lat="44.9341" lon="3.40647">
        <ele>1294</ele>
        <time>2020-06-02T11:15:50+02:00</time>
      </trkpt>
      <trkpt lat="44.93434" lon="3.40618">
        <ele>1289</ele>
        <time>2020-06-02T11:15:53+02:00</time>
      </trkpt>
      <trkpt lat="44.93457" lon="3.40587">
        <ele>1282</ele>
        <time>2020-06-02T11:15:56+02:00</time>
      </trkpt>
      <trkpt lat="44.93481" lon="3.40556">
        <ele>1278</ele>
        <time>2020-06-02T11:15:59+02:00</time>
      </trkpt>
      <trkpt lat="44.93492" lon="3.40522">
        <ele>1273</ele>
        <time>2020-06-02T11:16:02+02:00</time>
      </trkpt>
      <trkpt lat="44.93495" lon="3.40488">
        <ele>1269</ele>
        <time>2020-06-02T11:16:05+02:00</time>
      </trkpt>
      <trkpt lat="44.93514" lon="3.40463">
        <ele>1266</ele>
        <time>2020-06-02T11:16:09+02:00</time>
      </trkpt>
      <trkpt lat="44.93541" lon="3.40449">
        <ele>1263</ele>
        <time>2020-06-02T11:16:13+02:00</time>
      </trkpt>
      <trkpt lat="44.93565" lon="3.4044">
        <ele>1264</ele>
        <time>2020-06-02T11:16:17+02:00</time>
      </trkpt>
      <trkpt lat="44.93588" lon="3.4042">
        <ele>1263</ele>
        <time>2020-06-02T11:16:22+02:00</time>
      </trkpt>
      <trkpt lat="44.93609" lon="3.40401">
        <ele>1261</ele>
        <time>2020-06-02T11:16:26+02:00</time>
      </trkpt>
      <trkpt lat="44.9363" lon="3.40381">
        <ele>1259</ele>
        <time>2020-06-02T11:16:30+02:00</time>
      </trkpt>
      <trkpt lat="44.93645" lon="3.40351">
        <ele>1255</ele>
        <time>2020-06-02T11:16:34+02:00</time>
      </trkpt>
      <trkpt lat="44.93646" lon="3.4031">
        <ele>1251</ele>
        <time>2020-06-02T11:16:38+02:00</time>
      </trkpt>
      <trkpt lat="44.93659" lon="3.40277">
        <ele>1249</ele>
        <time>2020-06-02T11:16:42+02:00</time>
      </trkpt>
      <trkpt lat="44.93668" lon="3.40242">
        <ele>1246</ele>
        <time>2020-06-02T11:16:47+02:00</time>
      </trkpt>
      <trkpt lat="44.93686" lon="3.40222">
        <ele>1245</ele>
        <time>2020-06-02T11:16:51+02:00</time>
      </trkpt>
      <trkpt lat="44.93696" lon="3.40192">
        <ele>1244</ele>
        <time>2020-06-02T11:16:55+02:00</time>
      </trkpt>
      <trkpt lat="44.9371" lon="3.40164">
        <ele>1242</ele>
        <time>2020-06-02T11:16:59+02:00</time>
      </trkpt>
      <trkpt lat="44.9373" lon="3.40143">
        <ele>1241</ele>
        <time>2020-06-02T11:17:04+02:00</time>
      </trkpt>
      <trkpt lat="44.93754" lon="3.40129">
        <ele>1243</ele>
        <time>2020-06-02T11:17:10+02:00</time>
      </trkpt>
      <trkpt lat="44.9377" lon="3.40101">
        <ele>1240</ele>
        <time>2020-06-02T11:17:16+02:00</time>
      </trkpt>
      <trkpt lat="44.93786" lon="3.40072">
        <ele>1241</ele>
        <time>2020-06-02T11:17:21+02:00</time>
      </trkpt>
      <trkpt lat="44.93808" lon="3.40052">
        <ele>1239</ele>
        <time>2020-06-02T11:17:25+02:00</time>
      </trkpt>
      <trkpt lat="44.93832" lon="3.40039">
        <ele>1239</ele>
        <time>2020-06-02T11:17:29+02:00</time>
      </trkpt>
      <trkpt lat="44.93858" lon="3.40037">
        <ele>1239</ele>
        <time>2020-06-02T11:17:33+02:00</time>
      </trkpt>
      <trkpt lat="44.93888" lon="3.40037">
        <ele>1237</ele>
        <time>2020-06-02T11:17:37+02:00</time>
      </trkpt>
      <trkpt lat="44.93912" lon="3.40035">
        <ele>1235</ele>
        <time>2020-06-02T11:17:40+02:00</time>
      </trkpt>
      <trkpt lat="44.93937" lon="3.40036">
        <ele>1230</ele>
        <time>2020-06-02T11:17:43+02:00</time>
      </trkpt>
      <trkpt lat="44.93962" lon="3.40042">
        <ele>1229</ele>
        <time>2020-06-02T11:17:46+02:00</time>
      </trkpt>
      <trkpt lat="44.93984" lon="3.40056">
        <ele>1227</ele>
        <time>2020-06-02T11:17:49+02:00</time>
      </trkpt>
      <trkpt lat="44.94004" lon="3.40072">
        <ele>1223</ele>
        <time>2020-06-02T11:17:52+02:00</time>
      </trkpt>
      <trkpt lat="44.94028" lon="3.40089">
        <ele>1221</ele>
        <time>2020-06-02T11:17:55+02:00</time>
      </trkpt>
      <trkpt lat="44.94055" lon="3.40105">
        <ele>1219</ele>
        <time>2020-06-02T11:17:59+02:00</time>
      </trkpt>
      <trkpt lat="44.94071" lon="3.40081">
        <ele>1218</ele>
        <time>2020-06-02T11:18:03+02:00</time>
      </trkpt>
      <trkpt lat="44.94068" lon="3.40045">
        <ele>1218</ele>
        <time>2020-06-02T11:18:07+02:00</time>
      </trkpt>
      <trkpt lat="44.9407" lon="3.40008">
        <ele>1215</ele>
        <time>2020-06-02T11:18:11+02:00</time>
      </trkpt>
      <trkpt lat="44.94081" lon="3.39977">
        <ele>1213</ele>
        <time>2020-06-02T11:18:15+02:00</time>
      </trkpt>
      <trkpt lat="44.94096" lon="3.39949">
        <ele>1214</ele>
        <time>2020-06-02T11:18:19+02:00</time>
      </trkpt>
      <trkpt lat="44.94111" lon="3.39925">
        <ele>1214</ele>
        <time>2020-06-02T11:18:23+02:00</time>
      </trkpt>
      <trkpt lat="44.94121" lon="3.39896">
        <ele>1214</ele>
        <time>2020-06-02T11:18:27+02:00</time>
      </trkpt>
      <trkpt lat="44.94132" lon="3.39866">
        <ele>1213</ele>
        <time>2020-06-02T11:18:31+02:00</time>
      </trkpt>
      <trkpt lat="44.9415" lon="3.39833">
        <ele>1210</ele>
        <time>2020-06-02T11:18:35+02:00</time>
      </trkpt>
      <trkpt lat="44.94167" lon="3.3981">
        <ele>1208</ele>
        <time>2020-06-02T11:18:38+02:00</time>
      </trkpt>
      <trkpt lat="44.94186" lon="3.39791">
        <ele>1205</ele>
        <time>2020-06-02T11:18:41+02:00</time>
      </trkpt>
      <trkpt lat="44.94206" lon="3.39772">
        <ele>1203</ele>
        <time>2020-06-02T11:18:44+02:00</time>
      </trkpt>
      <trkpt lat="44.94227" lon="3.39754">
        <ele>1201</ele>
        <time>2020-06-02T11:18:47+02:00</time>
      </trkpt>
      <trkpt lat="44.94249" lon="3.39735">
        <ele>1199</ele>
        <time>2020-06-02T11:18:50+02:00</time>
      </trkpt>
      <trkpt lat="44.94272" lon="3.39715">
        <ele>1196</ele>
        <time>2020-06-02T11:18:53+02:00</time>
      </trkpt>
      <trkpt lat="44.94295" lon="3.39696">
        <ele>1194</ele>
        <time>2020-06-02T11:18:56+02:00</time>
      </trkpt>
      <trkpt lat="44.94317" lon="3.39675">
        <ele>1192</ele>
        <time>2020-06-02T11:18:59+02:00</time>
      </trkpt>
      <trkpt lat="44.9434" lon="3.39655">
        <ele>1190</ele>
        <time>2020-06-02T11:19:02+02:00</time>
      </trkpt>
      <trkpt lat="44.94363" lon="3.39639">
        <ele>1188</ele>
        <time>2020-06-02T11:19:05+02:00</time>
      </trkpt>
      <trkpt lat="44.94388" lon="3.39627">
        <ele>1183</ele>
        <time>2020-06-02T11:19:08+02:00</time>
      </trkpt>
      <trkpt lat="44.9441" lon="3.39616">
        <ele>1181</ele>
        <time>2020-06-02T11:19:11+02:00</time>
      </trkpt>
      <trkpt lat="44.94433" lon="3.39606">
        <ele>1181</ele>
        <time>2020-06-02T11:19:16+02:00</time>
      </trkpt>
      <trkpt lat="44.94456" lon="3.39597">
        <ele>1178</ele>
        <time>2020-06-02T11:19:23+02:00</time>
      </trkpt>
      <trkpt lat="44.94478" lon="3.39586">
        <ele>1179</ele>
        <time>2020-06-02T11:19:28+02:00</time>
      </trkpt>
      <trkpt lat="44.94496" lon="3.39558">
        <ele>1175</ele>
        <time>2020-06-02T11:19:33+02:00</time>
      </trkpt>
      <trkpt lat="44.9451" lon="3.39523">
        <ele>1170</ele>
        <time>2020-06-02T11:19:37+02:00</time>
      </trkpt>
      <trkpt lat="44.94522" lon="3.39495">
        <ele>1166</ele>
        <time>2020-06-02T11:19:40+02:00</time>
      </trkpt>
      <trkpt lat="44.94531" lon="3.39464">
        <ele>1163</ele>
        <time>2020-06-02T11:19:43+02:00</time>
      </trkpt>
      <trkpt lat="44.94528" lon="3.39428">
        <ele>1160</ele>
        <time>2020-06-02T11:19:46+02:00</time>
      </trkpt>
      <trkpt lat="44.94521" lon="3.39389">
        <ele>1155</ele>
        <time>2020-06-02T11:19:49+02:00</time>
      </trkpt>
      <trkpt lat="44.94514" lon="3.39349">
        <ele>1153</ele>
        <time>2020-06-02T11:19:52+02:00</time>
      </trkpt>
      <trkpt lat="44.94509" lon="3.39312">
        <ele>1150</ele>
        <time>2020-06-02T11:19:55+02:00</time>
      </trkpt>
      <trkpt lat="44.94521" lon="3.39282">
        <ele>1150</ele>
        <time>2020-06-02T11:19:58+02:00</time>
      </trkpt>
      <trkpt lat="44.94535" lon="3.39255">
        <ele>1149</ele>
        <time>2020-06-02T11:20:01+02:00</time>
      </trkpt>
      <trkpt lat="44.94549" lon="3.3922">
        <ele>1148</ele>
        <time>2020-06-02T11:20:05+02:00</time>
      </trkpt>
      <trkpt lat="44.9456" lon="3.39188">
        <ele>1148</ele>
        <time>2020-06-02T11:20:09+02:00</time>
      </trkpt>
      <trkpt lat="44.9457" lon="3.39159">
        <ele>1150</ele>
        <time>2020-06-02T11:20:14+02:00</time>
      </trkpt>
      <trkpt lat="44.94579" lon="3.39128">
        <ele>1156</ele>
        <time>2020-06-02T11:20:24+02:00</time>
      </trkpt>
      <trkpt lat="44.94585" lon="3.39095">
        <ele>1158</ele>
        <time>2020-06-02T11:20:37+02:00</time>
      </trkpt>
      <trkpt lat="44.94585" lon="3.39062">
        <ele>1159</ele>
        <time>2020-06-02T11:20:50+02:00</time>
      </trkpt>
      <trkpt lat="44.94589" lon="3.3903">
        <ele>1164</ele>
        <time>2020-06-02T11:21:03+02:00</time>
      </trkpt>
      <trkpt lat="44.946" lon="3.39002">
        <ele>1167</ele>
        <time>2020-06-02T11:21:18+02:00</time>
      </trkpt>
      <trkpt lat="44.94617" lon="3.3898">
        <ele>1169</ele>
        <time>2020-06-02T11:21:32+02:00</time>
      </trkpt>
      <trkpt lat="44.94636" lon="3.38961">
        <ele>1170</ele>
        <time>2020-06-02T11:21:47+02:00</time>
      </trkpt>
      <trkpt lat="44.94657" lon="3.38944">
        <ele>1171</ele>
        <time>2020-06-02T11:22:01+02:00</time>
      </trkpt>
      <trkpt lat="44.94677" lon="3.38926">
        <ele>1173</ele>
        <time>2020-06-02T11:22:13+02:00</time>
      </trkpt>
      <trkpt lat="44.94696" lon="3.38909">
        <ele>1175</ele>
        <time>2020-06-02T11:22:23+02:00</time>
      </trkpt>
      <trkpt lat="44.94715" lon="3.38889">
        <ele>1177</ele>
        <time>2020-06-02T11:22:34+02:00</time>
      </trkpt>
      <trkpt lat="44.94726" lon="3.38859">
        <ele>1179</ele>
        <time>2020-06-02T11:22:46+02:00</time>
      </trkpt>
      <trkpt lat="44.94728" lon="3.38826">
        <ele>1180</ele>
        <time>2020-06-02T11:22:57+02:00</time>
      </trkpt>
      <trkpt lat="44.94726" lon="3.38794">
        <ele>1183</ele>
        <time>2020-06-02T11:23:06+02:00</time>
      </trkpt>
      <trkpt lat="44.94717" lon="3.38762">
        <ele>1184</ele>
        <time>2020-06-02T11:23:14+02:00</time>
      </trkpt>
      <trkpt lat="44.94711" lon="3.3873">
        <ele>1186</ele>
        <time>2020-06-02T11:23:22+02:00</time>
      </trkpt>
      <trkpt lat="44.94705" lon="3.38699">
        <ele>1188</ele>
        <time>2020-06-02T11:23:30+02:00</time>
      </trkpt>
      <trkpt lat="44.94697" lon="3.38668">
        <ele>1191</ele>
        <time>2020-06-02T11:23:38+02:00</time>
      </trkpt>
      <trkpt lat="44.94688" lon="3.38635">
        <ele>1191</ele>
        <time>2020-06-02T11:23:47+02:00</time>
      </trkpt>
      <trkpt lat="44.9468" lon="3.38599">
        <ele>1190</ele>
        <time>2020-06-02T11:23:55+02:00</time>
      </trkpt>
      <trkpt lat="44.94668" lon="3.38571">
        <ele>1190</ele>
        <time>2020-06-02T11:24:01+02:00</time>
      </trkpt>
      <trkpt lat="44.94658" lon="3.38542">
        <ele>1188</ele>
        <time>2020-06-02T11:24:07+02:00</time>
      </trkpt>
      <trkpt lat="44.94647" lon="3.38512">
        <ele>1189</ele>
        <time>2020-06-02T11:24:13+02:00</time>
      </trkpt>
      <trkpt lat="44.94637" lon="3.38481">
        <ele>1191</ele>
        <time>2020-06-02T11:24:19+02:00</time>
      </trkpt>
      <trkpt lat="44.9463" lon="3.3845">
        <ele>1192</ele>
        <time>2020-06-02T11:24:27+02:00</time>
      </trkpt>
      <trkpt lat="44.9463" lon="3.38416">
        <ele>1194</ele>
        <time>2020-06-02T11:24:36+02:00</time>
      </trkpt>
      <trkpt lat="44.94626" lon="3.38383">
        <ele>1197</ele>
        <time>2020-06-02T11:24:46+02:00</time>
      </trkpt>
      <trkpt lat="44.94626" lon="3.38349">
        <ele>1201</ele>
        <time>2020-06-02T11:24:57+02:00</time>
      </trkpt>
      <trkpt lat="44.94648" lon="3.38337">
        <ele>1200</ele>
        <time>2020-06-02T11:25:08+02:00</time>
      </trkpt>
      <trkpt lat="44.94671" lon="3.3835">
        <ele>1199</ele>
        <time>2020-06-02T11:25:20+02:00</time>
      </trkpt>
      <trkpt lat="44.94694" lon="3.38342">
        <ele>1204</ele>
        <time>2020-06-02T11:25:31+02:00</time>
      </trkpt>
      <trkpt lat="44.94709" lon="3.38318">
        <ele>1207</ele>
        <time>2020-06-02T11:25:41+02:00</time>
      </trkpt>
      <trkpt lat="44.94716" lon="3.38286">
        <ele>1208</ele>
        <time>2020-06-02T11:25:53+02:00</time>
      </trkpt>
      <trkpt lat="44.94716" lon="3.38253">
        <ele>1209</ele>
        <time>2020-06-02T11:26:04+02:00</time>
      </trkpt>
      <trkpt lat="44.94709" lon="3.38223">
        <ele>1218</ele>
        <time>2020-06-02T11:26:19+02:00</time>
      </trkpt>
      <trkpt lat="44.94704" lon="3.38191">
        <ele>1218</ele>
        <time>2020-06-02T11:26:31+02:00</time>
      </trkpt>
      <trkpt lat="44.94695" lon="3.38159">
        <ele>1221</ele>
        <time>2020-06-02T11:26:42+02:00</time>
      </trkpt>
      <trkpt lat="44.94683" lon="3.3813">
        <ele>1219</ele>
        <time>2020-06-02T11:26:51+02:00</time>
      </trkpt>
      <trkpt lat="44.94676" lon="3.38097">
        <ele>1216</ele>
        <time>2020-06-02T11:26:57+02:00</time>
      </trkpt>
      <trkpt lat="44.94672" lon="3.38061">
        <ele>1218</ele>
        <time>2020-06-02T11:27:03+02:00</time>
      </trkpt>
      <trkpt lat="44.9465" lon="3.3801">
        <ele>1214</ele>
        <time>2020-06-02T11:27:09+02:00</time>
      </trkpt>
      <trkpt lat="44.94634" lon="3.37986">
        <ele>1214</ele>
        <time>2020-06-02T11:27:13+02:00</time>
      </trkpt>
      <trkpt lat="44.94612" lon="3.3798">
        <ele>1215</ele>
        <time>2020-06-02T11:27:17+02:00</time>
      </trkpt>
      <trkpt lat="44.94586" lon="3.37978">
        <ele>1215</ele>
        <time>2020-06-02T11:27:23+02:00</time>
      </trkpt>
      <trkpt lat="44.94562" lon="3.37981">
        <ele>1214</ele>
        <time>2020-06-02T11:27:29+02:00</time>
      </trkpt>
      <trkpt lat="44.94537" lon="3.37985">
        <ele>1212</ele>
        <time>2020-06-02T11:27:35+02:00</time>
      </trkpt>
      <trkpt lat="44.94511" lon="3.37982">
        <ele>1213</ele>
        <time>2020-06-02T11:27:41+02:00</time>
      </trkpt>
      <trkpt lat="44.94486" lon="3.37978">
        <ele>1212</ele>
        <time>2020-06-02T11:27:46+02:00</time>
      </trkpt>
      <trkpt lat="44.94462" lon="3.37973">
        <ele>1212</ele>
        <time>2020-06-02T11:27:50+02:00</time>
      </trkpt>
      <trkpt lat="44.9444" lon="3.37965">
        <ele>1211</ele>
        <time>2020-06-02T11:27:53+02:00</time>
      </trkpt>
      <trkpt lat="44.94418" lon="3.37947">
        <ele>1210</ele>
        <time>2020-06-02T11:27:56+02:00</time>
      </trkpt>
      <trkpt lat="44.94396" lon="3.37923">
        <ele>1208</ele>
        <time>2020-06-02T11:27:59+02:00</time>
      </trkpt>
      <trkpt lat="44.94374" lon="3.37896">
        <ele>1206</ele>
        <time>2020-06-02T11:28:02+02:00</time>
      </trkpt>
      <trkpt lat="44.94358" lon="3.37865">
        <ele>1205</ele>
        <time>2020-06-02T11:28:05+02:00</time>
      </trkpt>
      <trkpt lat="44.94347" lon="3.37833">
        <ele>1204</ele>
        <time>2020-06-02T11:28:09+02:00</time>
      </trkpt>
      <trkpt lat="44.94339" lon="3.37803">
        <ele>1203</ele>
        <time>2020-06-02T11:28:14+02:00</time>
      </trkpt>
      <trkpt lat="44.94329" lon="3.37774">
        <ele>1203</ele>
        <time>2020-06-02T11:31:51+02:00</time>
      </trkpt>
      <trkpt lat="44.94306" lon="3.37765">
        <ele>1202</ele>
        <time>2020-06-02T11:32:04+02:00</time>
      </trkpt>
      <trkpt lat="44.94293" lon="3.37738">
        <ele>1203</ele>
        <time>2020-06-02T11:32:13+02:00</time>
      </trkpt>
      <trkpt lat="44.94284" lon="3.37708">
        <ele>1208</ele>
        <time>2020-06-02T11:32:26+02:00</time>
      </trkpt>
      <trkpt lat="44.94276" lon="3.37676">
        <ele>1211</ele>
        <time>2020-06-02T11:32:39+02:00</time>
      </trkpt>
      <trkpt lat="44.94264" lon="3.3765">
        <ele>1214</ele>
        <time>2020-06-02T11:32:51+02:00</time>
      </trkpt>
      <trkpt lat="44.94244" lon="3.37633">
        <ele>1214</ele>
        <time>2020-06-02T11:33:02+02:00</time>
      </trkpt>
      <trkpt lat="44.94223" lon="3.3762">
        <ele>1217</ele>
        <time>2020-06-02T11:33:14+02:00</time>
      </trkpt>
      <trkpt lat="44.94205" lon="3.37599">
        <ele>1220</ele>
        <time>2020-06-02T11:33:25+02:00</time>
      </trkpt>
      <trkpt lat="44.94187" lon="3.37579">
        <ele>1222</ele>
        <time>2020-06-02T11:33:37+02:00</time>
      </trkpt>
      <trkpt lat="44.94166" lon="3.37564">
        <ele>1223</ele>
        <time>2020-06-02T11:33:48+02:00</time>
      </trkpt>
      <trkpt lat="44.94144" lon="3.37552">
        <ele>1222</ele>
        <time>2020-06-02T11:33:58+02:00</time>
      </trkpt>
      <trkpt lat="44.94121" lon="3.37542">
        <ele>1224</ele>
        <time>2020-06-02T11:34:08+02:00</time>
      </trkpt>
      <trkpt lat="44.94097" lon="3.37546">
        <ele>1225</ele>
        <time>2020-06-02T11:34:20+02:00</time>
      </trkpt>
      <trkpt lat="44.94074" lon="3.3755">
        <ele>1228</ele>
        <time>2020-06-02T11:34:32+02:00</time>
      </trkpt>
      <trkpt lat="44.9405" lon="3.37551">
        <ele>1229</ele>
        <time>2020-06-02T11:34:43+02:00</time>
      </trkpt>
      <trkpt lat="44.94026" lon="3.37544">
        <ele>1232</ele>
        <time>2020-06-02T11:34:54+02:00</time>
      </trkpt>
      <trkpt lat="44.94005" lon="3.37533">
        <ele>1235</ele>
        <time>2020-06-02T11:35:04+02:00</time>
      </trkpt>
      <trkpt lat="44.93984" lon="3.37521">
        <ele>1234</ele>
        <time>2020-06-02T11:35:14+02:00</time>
      </trkpt>
      <trkpt lat="44.93962" lon="3.37512">
        <ele>1238</ele>
        <time>2020-06-02T11:35:25+02:00</time>
      </trkpt>
      <trkpt lat="44.93939" lon="3.37509">
        <ele>1240</ele>
        <time>2020-06-02T11:35:37+02:00</time>
      </trkpt>
      <trkpt lat="44.93917" lon="3.37499">
        <ele>1239</ele>
        <time>2020-06-02T11:35:49+02:00</time>
      </trkpt>
      <trkpt lat="44.93902" lon="3.37474">
        <ele>1242</ele>
        <time>2020-06-02T11:36:05+02:00</time>
      </trkpt>
      <trkpt lat="44.93882" lon="3.37456">
        <ele>1239</ele>
        <time>2020-06-02T11:36:18+02:00</time>
      </trkpt>
      <trkpt lat="44.93864" lon="3.37434">
        <ele>1245</ele>
        <time>2020-06-02T11:36:33+02:00</time>
      </trkpt>
      <trkpt lat="44.93844" lon="3.3742">
        <ele>1251</ele>
        <time>2020-06-02T11:36:49+02:00</time>
      </trkpt>
      <trkpt lat="44.93824" lon="3.37403">
        <ele>1251</ele>
        <time>2020-06-02T11:37:05+02:00</time>
      </trkpt>
      <trkpt lat="44.93804" lon="3.37383">
        <ele>1255</ele>
        <time>2020-06-02T11:37:22+02:00</time>
      </trkpt>
      <trkpt lat="44.93787" lon="3.37361">
        <ele>1253</ele>
        <time>2020-06-02T11:37:39+02:00</time>
      </trkpt>
      <trkpt lat="44.9377" lon="3.37339">
        <ele>1255</ele>
        <time>2020-06-02T11:37:57+02:00</time>
      </trkpt>
      <trkpt lat="44.93758" lon="3.37311">
        <ele>1259</ele>
        <time>2020-06-02T11:38:15+02:00</time>
      </trkpt>
      <trkpt lat="44.93745" lon="3.37285">
        <ele>1267</ele>
        <time>2020-06-02T11:38:35+02:00</time>
      </trkpt>
      <trkpt lat="44.93729" lon="3.37262">
        <ele>1274</ele>
        <time>2020-06-02T11:38:54+02:00</time>
      </trkpt>
      <trkpt lat="44.93717" lon="3.37234">
        <ele>1278</ele>
        <time>2020-06-02T11:39:13+02:00</time>
      </trkpt>
      <trkpt lat="44.93703" lon="3.37207">
        <ele>1284</ele>
        <time>2020-06-02T11:39:31+02:00</time>
      </trkpt>
      <trkpt lat="44.93687" lon="3.37183">
        <ele>1289</ele>
        <time>2020-06-02T11:39:48+02:00</time>
      </trkpt>
      <trkpt lat="44.9367" lon="3.37162">
        <ele>1284</ele>
        <time>2020-06-02T11:39:59+02:00</time>
      </trkpt>
      <trkpt lat="44.93659" lon="3.37133">
        <ele>1298</ele>
        <time>2020-06-02T11:40:13+02:00</time>
      </trkpt>
      <trkpt lat="44.93641" lon="3.37109">
        <ele>1291</ele>
        <time>2020-06-02T11:40:24+02:00</time>
      </trkpt>
      <trkpt lat="44.93625" lon="3.37084">
        <ele>1293</ele>
        <time>2020-06-02T11:40:34+02:00</time>
      </trkpt>
      <trkpt lat="44.93606" lon="3.37064">
        <ele>1284</ele>
        <time>2020-06-02T11:40:42+02:00</time>
      </trkpt>
      <trkpt lat="44.93595" lon="3.37036">
        <ele>1287</ele>
        <time>2020-06-02T11:40:51+02:00</time>
      </trkpt>
      <trkpt lat="44.93554" lon="3.36994">
        <ele>1289</ele>
        <time>2020-06-02T11:40:59+02:00</time>
      </trkpt>
      <trkpt lat="44.93537" lon="3.36972">
        <ele>1286</ele>
        <time>2020-06-02T11:41:05+02:00</time>
      </trkpt>
      <trkpt lat="44.93519" lon="3.36948">
        <ele>1287</ele>
        <time>2020-06-02T11:41:10+02:00</time>
      </trkpt>
      <trkpt lat="44.93494" lon="3.36932">
        <ele>1287</ele>
        <time>2020-06-02T11:41:14+02:00</time>
      </trkpt>
      <trkpt lat="44.93471" lon="3.36922">
        <ele>1284</ele>
        <time>2020-06-02T11:41:18+02:00</time>
      </trkpt>
      <trkpt lat="44.93447" lon="3.3691">
        <ele>1285</ele>
        <time>2020-06-02T11:41:24+02:00</time>
      </trkpt>
      <trkpt lat="44.93422" lon="3.36895">
        <ele>1286</ele>
        <time>2020-06-02T11:41:30+02:00</time>
      </trkpt>
      <trkpt lat="44.93398" lon="3.36883">
        <ele>1286</ele>
        <time>2020-06-02T11:41:36+02:00</time>
      </trkpt>
      <trkpt lat="44.93377" lon="3.36868">
        <ele>1288</ele>
        <time>2020-06-02T11:41:44+02:00</time>
      </trkpt>
      <trkpt lat="44.93355" lon="3.36857">
        <ele>1286</ele>
        <time>2020-06-02T11:41:49+02:00</time>
      </trkpt>
      <trkpt lat="44.93324" lon="3.36843">
        <ele>1286</ele>
        <time>2020-06-02T11:41:54+02:00</time>
      </trkpt>
      <trkpt lat="44.93295" lon="3.36837">
        <ele>1282</ele>
        <time>2020-06-02T11:41:58+02:00</time>
      </trkpt>
      <trkpt lat="44.93271" lon="3.3684">
        <ele>1279</ele>
        <time>2020-06-02T11:42:02+02:00</time>
      </trkpt>
      <trkpt lat="44.93249" lon="3.36828">
        <ele>1278</ele>
        <time>2020-06-02T11:42:08+02:00</time>
      </trkpt>
      <trkpt lat="44.93254" lon="3.36796">
        <ele>1277</ele>
        <time>2020-06-02T11:43:21+02:00</time>
      </trkpt>
      <trkpt lat="44.93254" lon="3.36762">
        <ele>1281</ele>
        <time>2020-06-02T11:43:35+02:00</time>
      </trkpt>
      <trkpt lat="44.93256" lon="3.3673">
        <ele>1282</ele>
        <time>2020-06-02T11:43:50+02:00</time>
      </trkpt>
      <trkpt lat="44.93266" lon="3.36701">
        <ele>1279</ele>
        <time>2020-06-02T11:44:02+02:00</time>
      </trkpt>
      <trkpt lat="44.93286" lon="3.36683">
        <ele>1288</ele>
        <time>2020-06-02T11:44:14+02:00</time>
      </trkpt>
      <trkpt lat="44.93305" lon="3.3666">
        <ele>1290</ele>
        <time>2020-06-02T11:44:26+02:00</time>
      </trkpt>
      <trkpt lat="44.93321" lon="3.36635">
        <ele>1287</ele>
        <time>2020-06-02T11:44:40+02:00</time>
      </trkpt>
      <trkpt lat="44.93332" lon="3.36606">
        <ele>1281</ele>
        <time>2020-06-02T11:44:53+02:00</time>
      </trkpt>
      <trkpt lat="44.93345" lon="3.36579">
        <ele>1284</ele>
        <time>2020-06-02T11:45:05+02:00</time>
      </trkpt>
      <trkpt lat="44.93358" lon="3.36551">
        <ele>1289</ele>
        <time>2020-06-02T11:45:16+02:00</time>
      </trkpt>
      <trkpt lat="44.93369" lon="3.36523">
        <ele>1289</ele>
        <time>2020-06-02T11:45:31+02:00</time>
      </trkpt>
      <trkpt lat="44.93382" lon="3.36494">
        <ele>1294</ele>
        <time>2020-06-02T11:45:46+02:00</time>
      </trkpt>
      <trkpt lat="44.93394" lon="3.36467">
        <ele>1297</ele>
        <time>2020-06-02T11:45:59+02:00</time>
      </trkpt>
      <trkpt lat="44.9341" lon="3.36441">
        <ele>1300</ele>
        <time>2020-06-02T11:46:12+02:00</time>
      </trkpt>
      <trkpt lat="44.93422" lon="3.36413">
        <ele>1302</ele>
        <time>2020-06-02T11:46:27+02:00</time>
      </trkpt>
      <trkpt lat="44.93433" lon="3.36384">
        <ele>1299</ele>
        <time>2020-06-02T11:46:38+02:00</time>
      </trkpt>
      <trkpt lat="44.93444" lon="3.36354">
        <ele>1299</ele>
        <time>2020-06-02T11:46:51+02:00</time>
      </trkpt>
      <trkpt lat="44.93455" lon="3.36327">
        <ele>1308</ele>
        <time>2020-06-02T11:47:03+02:00</time>
      </trkpt>
      <trkpt lat="44.93466" lon="3.36299">
        <ele>1312</ele>
        <time>2020-06-02T11:47:15+02:00</time>
      </trkpt>
      <trkpt lat="44.9348" lon="3.36271">
        <ele>1312</ele>
        <time>2020-06-02T11:47:23+02:00</time>
      </trkpt>
      <trkpt lat="44.93494" lon="3.36243">
        <ele>1312</ele>
        <time>2020-06-02T11:47:33+02:00</time>
      </trkpt>
      <trkpt lat="44.93509" lon="3.36217">
        <ele>1313</ele>
        <time>2020-06-02T11:47:43+02:00</time>
      </trkpt>
      <trkpt lat="44.9352" lon="3.36186">
        <ele>1312</ele>
        <time>2020-06-02T11:47:53+02:00</time>
      </trkpt>
      <trkpt lat="44.93534" lon="3.36158">
        <ele>1313</ele>
        <time>2020-06-02T11:48:04+02:00</time>
      </trkpt>
      <trkpt lat="44.93545" lon="3.36129">
        <ele>1316</ele>
        <time>2020-06-02T11:48:15+02:00</time>
      </trkpt>
      <trkpt lat="44.93555" lon="3.36097">
        <ele>1318</ele>
        <time>2020-06-02T11:48:24+02:00</time>
      </trkpt>
      <trkpt lat="44.93563" lon="3.36062">
        <ele>1316</ele>
        <time>2020-06-02T11:48:33+02:00</time>
      </trkpt>
      <trkpt lat="44.93572" lon="3.3603">
        <ele>1317</ele>
        <time>2020-06-02T11:48:40+02:00</time>
      </trkpt>
      <trkpt lat="44.93576" lon="3.36016">
        <ele>1270.9</ele>
        <time>2021-04-26T11:12:01+02:00</time>
      </trkpt>
      <trkpt lat="44.93604" lon="3.35991">
        <ele>1271.1</ele>
      </trkpt>
      <trkpt lat="44.93618" lon="3.35953">
        <ele>1270.8</ele>
      </trkpt>
      <trkpt lat="44.9359" lon="3.35899">
        <ele>1268.8</ele>
      </trkpt>
      <trkpt lat="44.93617" lon="3.35895">
        <ele>1269.7</ele>
      </trkpt>
      <trkpt lat="44.93644" lon="3.35911">
        <ele>1271.1</ele>
      </trkpt>
      <trkpt lat="44.93664" lon="3.35917">
        <ele>1271.9</ele>
      </trkpt>
      <trkpt lat="44.93694" lon="3.35923">
        <ele>1272.6</ele>
      </trkpt>
      <trkpt lat="44.93725" lon="3.3592">
        <ele>1273.3</ele>
      </trkpt>
      <trkpt lat="44.93772" lon="3.35923">
        <ele>1275.9</ele>
      </trkpt>
      <trkpt lat="44.93841" lon="3.35925">
        <ele>1282.8</ele>
      </trkpt>
      <trkpt lat="44.93987" lon="3.36014">
        <ele>1300.3</ele>
      </trkpt>
      <trkpt lat="44.94044" lon="3.36026">
        <ele>1305.2</ele>
      </trkpt>
      <trkpt lat="44.94094" lon="3.36035">
        <ele>1308.9</ele>
      </trkpt>
      <trkpt lat="44.94144" lon="3.36042">
        <ele>1311.1</ele>
      </trkpt>
      <trkpt lat="44.94208" lon="3.36026">
        <ele>1315.9</ele>
      </trkpt>
      <trkpt lat="44.94257" lon="3.36012">
        <ele>1319.5</ele>
      </trkpt>
      <trkpt lat="44.94352" lon="3.36007">
        <ele>1320.1</ele>
      </trkpt>
      <trkpt lat="44.94418" lon="3.35998">
        <ele>1320.3</ele>
      </trkpt>
      <trkpt lat="44.94512" lon="3.35977">
        <ele>1321.5</ele>
      </trkpt>
      <trkpt lat="44.94622" lon="3.35935">
        <ele>1322.8</ele>
      </trkpt>
      <trkpt lat="44.94656" lon="3.35892">
        <ele>1325.6</ele>
      </trkpt>
      <trkpt lat="44.94732" lon="3.35839">
        <ele>1321.5</ele>
      </trkpt>
      <trkpt lat="44.9478" lon="3.35767">
        <ele>1318.4</ele>
      </trkpt>
      <trkpt lat="44.94842" lon="3.35723">
        <ele>1312.3</ele>
      </trkpt>
      <trkpt lat="44.94916" lon="3.35668">
        <ele>1308.1</ele>
      </trkpt>
      <trkpt lat="44.95031" lon="3.35637">
        <ele>1304.3</ele>
      </trkpt>
      <trkpt lat="44.95098" lon="3.35615">
        <ele>1302.2</ele>
      </trkpt>
      <trkpt lat="44.95167" lon="3.35604">
        <ele>1299.5</ele>
      </trkpt>
      <trkpt lat="44.95235" lon="3.3562">
        <ele>1296</ele>
      </trkpt>
      <trkpt lat="44.95328" lon="3.35596">
        <ele>1300.3</ele>
      </trkpt>
      <trkpt lat="44.95459" lon="3.35565">
        <ele>1319.4</ele>
      </trkpt>
      <trkpt lat="44.95557" lon="3.35565">
        <ele>1330.7</ele>
      </trkpt>
      <trkpt lat="44.95606" lon="3.35525">
        <ele>1341.7</ele>
      </trkpt>
      <trkpt lat="44.95653" lon="3.3553">
        <ele>1344.3</ele>
      </trkpt>
      <trkpt lat="44.957" lon="3.35502">
        <ele>1352.9</ele>
      </trkpt>
      <trkpt lat="44.95769" lon="3.35519">
        <ele>1357.9</ele>
      </trkpt>
      <trkpt lat="44.95878" lon="3.35548">
        <ele>1366.8</ele>
      </trkpt>
      <trkpt lat="44.95975" lon="3.35549">
        <ele>1370.1</ele>
      </trkpt>
      <trkpt lat="44.96012" lon="3.35539">
        <ele>1371.1</ele>
      </trkpt>
      <trkpt lat="44.96024" lon="3.3557">
        <ele>1369.5</ele>
      </trkpt>
      <trkpt lat="44.96082" lon="3.35584">
        <ele>1370.9</ele>
      </trkpt>
      <trkpt lat="44.96228" lon="3.35679">
        <ele>1376.7</ele>
      </trkpt>
      <trkpt lat="44.96503" lon="3.35864">
        <ele>1382.6</ele>
      </trkpt>
      <trkpt lat="44.96707" lon="3.35985">
        <ele>1383.6</ele>
      </trkpt>
      <trkpt lat="44.96916" lon="3.36101">
        <ele>1389.6</ele>
      </trkpt>
      <trkpt lat="44.97091" lon="3.36205">
        <ele>1401.3</ele>
      </trkpt>
      <trkpt lat="44.97146" lon="3.36245">
        <ele>1406.2</ele>
      </trkpt>
      <trkpt lat="44.97172" lon="3.3633">
        <ele>1412.7</ele>
      </trkpt>
      <trkpt lat="44.97263" lon="3.36541">
        <ele>1434.7</ele>
      </trkpt>
      <trkpt lat="44.97351" lon="3.36751">
        <ele>1457.2</ele>
      </trkpt>
      <trkpt lat="44.97434" lon="3.36956">
        <ele>1472.8</ele>
      </trkpt>
      <trkpt lat="44.97501" lon="3.37107">
        <ele>1484.6</ele>
      </trkpt>
      <trkpt lat="44.97579" lon="3.37289">
        <ele>1489.5</ele>
      </trkpt>
      <trkpt lat="44.97404" lon="3.372">
        <ele>1479.1</ele>
      </trkpt>
      <trkpt lat="44.97267" lon="3.37125">
        <ele>1468.6</ele>
      </trkpt>
      <trkpt lat="44.97113" lon="3.3707">
        <ele>1465.3</ele>
      </trkpt>
      <trkpt lat="44.96976" lon="3.36992">
        <ele>1453.3</ele>
      </trkpt>
      <trkpt lat="44.96989" lon="3.36901">
        <ele>1451.6</ele>
      </trkpt>
      <trkpt lat="44.97027" lon="3.36782">
        <ele>1448.9</ele>
      </trkpt>
      <trkpt lat="44.97019" lon="3.36644">
        <ele>1438.2</ele>
      </trkpt>
      <trkpt lat="44.97005" lon="3.36453">
        <ele>1418.5</ele>
      </trkpt>
      <trkpt lat="44.96998" lon="3.36318">
        <ele>1406.5</ele>
      </trkpt>
      <trkpt lat="44.96953" lon="3.36223">
        <ele>1395.3</ele>
      </trkpt>
      <trkpt lat="44.96876" lon="3.36175">
        <ele>1390.3</ele>
      </trkpt>
      <trkpt lat="44.96823" lon="3.36223">
        <ele>1385.3</ele>
      </trkpt>
      <trkpt lat="44.96788" lon="3.36494">
        <ele>1368.8</ele>
      </trkpt>
      <trkpt lat="44.96783" lon="3.36564">
        <ele>1372.7</ele>
      </trkpt>
      <trkpt lat="44.96724" lon="3.3662">
        <ele>1365.8</ele>
      </trkpt>
      <trkpt lat="44.96609" lon="3.36608">
        <ele>1347.4</ele>
      </trkpt>
      <trkpt lat="44.96433" lon="3.36693">
        <ele>1335</ele>
      </trkpt>
      <trkpt lat="44.96316" lon="3.36747">
        <ele>1318</ele>
      </trkpt>
      <trkpt lat="44.96285" lon="3.36743">
        <ele>1311.1</ele>
      </trkpt>
      <trkpt lat="44.96262" lon="3.36757">
        <ele>1307.1</ele>
      </trkpt>
      <trkpt lat="44.96241" lon="3.36754">
        <ele>1303</ele>
      </trkpt>
      <trkpt lat="44.96212" lon="3.36775">
        <ele>1299.5</ele>
      </trkpt>
      <trkpt lat="44.96201" lon="3.3678">
        <ele>1297.7</ele>
      </trkpt>
      <trkpt lat="44.9619" lon="3.36774">
        <ele>1295.7</ele>
      </trkpt>
      <trkpt lat="44.96198" lon="3.36761">
        <ele>1296.8</ele>
      </trkpt>
      <trkpt lat="44.96179" lon="3.36735">
        <ele>1292.8</ele>
      </trkpt>
      <trkpt lat="44.96165" lon="3.36719">
        <ele>1289.7</ele>
      </trkpt>
      <trkpt lat="44.96154" lon="3.36687">
        <ele>1285.7</ele>
      </trkpt>
      <trkpt lat="44.96105" lon="3.36647">
        <ele>1274.3</ele>
      </trkpt>
      <trkpt lat="44.96057" lon="3.36593">
        <ele>1264.8</ele>
      </trkpt>
      <trkpt lat="44.96033" lon="3.36585">
        <ele>1260.6</ele>
      </trkpt>
      <trkpt lat="44.96035" lon="3.36565">
        <ele>1260.4</ele>
      </trkpt>
      <trkpt lat="44.9599" lon="3.36506">
        <ele>1255.4</ele>
      </trkpt>
      <trkpt lat="44.95977" lon="3.36456">
        <ele>1257.8</ele>
      </trkpt>
      <trkpt lat="44.95942" lon="3.36437">
        <ele>1258.9</ele>
      </trkpt>
      <trkpt lat="44.95879" lon="3.36294">
        <ele>1260.4</ele>
      </trkpt>
      <trkpt lat="44.95859" lon="3.36171">
        <ele>1261.3</ele>
      </trkpt>
      <trkpt lat="44.95805" lon="3.3605">
        <ele>1262.7</ele>
      </trkpt>
      <trkpt lat="44.958" lon="3.36009">
        <ele>1265.1</ele>
      </trkpt>
      <trkpt lat="44.95732" lon="3.35931">
        <ele>1273.6</ele>
      </trkpt>
      <trkpt lat="44.95688" lon="3.35854">
        <ele>1282.9</ele>
      </trkpt>
      <trkpt lat="44.95638" lon="3.35829">
        <ele>1281.7</ele>
      </trkpt>
      <trkpt lat="44.95592" lon="3.35815">
        <ele>1284</ele>
      </trkpt>
      <trkpt lat="44.95543" lon="3.35791">
        <ele>1286.3</ele>
      </trkpt>
      <trkpt lat="44.95477" lon="3.35768">
        <ele>1287.5</ele>
      </trkpt>
      <trkpt lat="44.95442" lon="3.35762">
        <ele>1288.1</ele>
      </trkpt>
      <trkpt lat="44.95402" lon="3.35757">
        <ele>1288</ele>
      </trkpt>
      <trkpt lat="44.95357" lon="3.35768">
        <ele>1284.6</ele>
      </trkpt>
      <trkpt lat="44.95289" lon="3.35743">
        <ele>1288.6</ele>
      </trkpt>
      <trkpt lat="44.95259" lon="3.35675">
        <ele>1293.4</ele>
      </trkpt>
      <trkpt lat="44.95232" lon="3.35625">
        <ele>1296.1</ele>
      </trkpt>
      <trkpt lat="44.95169" lon="3.35613">
        <ele>1299.6</ele>
      </trkpt>
      <trkpt lat="44.94921" lon="3.35671">
        <ele>1308</ele>
      </trkpt>
      <trkpt lat="44.94779" lon="3.3578">
        <ele>1318.3</ele>
      </trkpt>
      <trkpt lat="44.94738" lon="3.35842">
        <ele>1320.6</ele>
      </trkpt>
      <trkpt lat="44.94654" lon="3.35905">
        <ele>1324.8</ele>
      </trkpt>
      <trkpt lat="44.94621" lon="3.35947">
        <ele>1320.9</ele>
      </trkpt>
      <trkpt lat="44.94465" lon="3.35997">
        <ele>1318.9</ele>
      </trkpt>
      <trkpt lat="44.94329" lon="3.36018">
        <ele>1318.2</ele>
      </trkpt>
      <trkpt lat="44.94253" lon="3.3602">
        <ele>1317.8</ele>
      </trkpt>
      <trkpt lat="44.94149" lon="3.36047">
        <ele>1310.6</ele>
      </trkpt>
      <trkpt lat="44.93982" lon="3.36022">
        <ele>1299</ele>
      </trkpt>
      <trkpt lat="44.93832" lon="3.35928">
        <ele>1281.4</ele>
      </trkpt>
      <trkpt lat="44.93709" lon="3.35926">
        <ele>1272.9</ele>
      </trkpt>
      <trkpt lat="44.93647" lon="3.35921">
        <ele>1271.3</ele>
      </trkpt>
      <trkpt lat="44.93603" lon="3.35904">
        <ele>1269.4</ele>
      </trkpt>
      <trkpt lat="44.93623" lon="3.35945">
        <ele>1270.8</ele>
      </trkpt>
      <trkpt lat="44.93576" lon="3.36004">
        <ele>1271</ele>
        <time>2020-06-02T11:48:50+02:00</time>
      </trkpt>
      <trkpt lat="44.93553" lon="3.36001">
        <ele>1321</ele>
        <time>2020-06-02T11:50:59+02:00</time>
      </trkpt>
      <trkpt lat="44.9353" lon="3.35992">
        <ele>1320</ele>
        <time>2020-06-02T11:51:07+02:00</time>
      </trkpt>
      <trkpt lat="44.93507" lon="3.35999">
        <ele>1322</ele>
        <time>2020-06-02T11:51:15+02:00</time>
      </trkpt>
      <trkpt lat="44.93486" lon="3.36017">
        <ele>1324</ele>
        <time>2020-06-02T11:51:24+02:00</time>
      </trkpt>
      <trkpt lat="44.93466" lon="3.36035">
        <ele>1324</ele>
        <time>2020-06-02T11:51:33+02:00</time>
      </trkpt>
      <trkpt lat="44.93445" lon="3.3605">
        <ele>1326</ele>
        <time>2020-06-02T11:51:43+02:00</time>
      </trkpt>
      <trkpt lat="44.93427" lon="3.36071">
        <ele>1331</ele>
        <time>2020-06-02T11:51:53+02:00</time>
      </trkpt>
      <trkpt lat="44.93406" lon="3.36088">
        <ele>1333</ele>
        <time>2020-06-02T11:52:03+02:00</time>
      </trkpt>
      <trkpt lat="44.93384" lon="3.36104">
        <ele>1334</ele>
        <time>2020-06-02T11:52:13+02:00</time>
      </trkpt>
      <trkpt lat="44.93362" lon="3.36118">
        <ele>1334</ele>
        <time>2020-06-02T11:52:23+02:00</time>
      </trkpt>
      <trkpt lat="44.9334" lon="3.3613">
        <ele>1341</ele>
        <time>2020-06-02T11:52:34+02:00</time>
      </trkpt>
      <trkpt lat="44.9332" lon="3.36148">
        <ele>1342</ele>
        <time>2020-06-02T11:52:43+02:00</time>
      </trkpt>
      <trkpt lat="44.933" lon="3.36161">
        <ele>1343</ele>
        <time>2020-06-02T11:52:52+02:00</time>
      </trkpt>
      <trkpt lat="44.93278" lon="3.36171">
        <ele>1336</ele>
        <time>2020-06-02T11:53:01+02:00</time>
      </trkpt>
      <trkpt lat="44.93258" lon="3.36187">
        <ele>1340</ele>
        <time>2020-06-02T11:53:10+02:00</time>
      </trkpt>
      <trkpt lat="44.93238" lon="3.36201">
        <ele>1345</ele>
        <time>2020-06-02T11:53:21+02:00</time>
      </trkpt>
      <trkpt lat="44.93218" lon="3.36218">
        <ele>1346</ele>
        <time>2020-06-02T11:53:32+02:00</time>
      </trkpt>
      <trkpt lat="44.93199" lon="3.36238">
        <ele>1347</ele>
        <time>2020-06-02T11:53:42+02:00</time>
      </trkpt>
      <trkpt lat="44.93179" lon="3.36257">
        <ele>1350</ele>
        <time>2020-06-02T11:53:53+02:00</time>
      </trkpt>
      <trkpt lat="44.9316" lon="3.36274">
        <ele>1351</ele>
        <time>2020-06-02T11:54:03+02:00</time>
      </trkpt>
      <trkpt lat="44.93139" lon="3.36288">
        <ele>1356</ele>
        <time>2020-06-02T11:54:14+02:00</time>
      </trkpt>
      <trkpt lat="44.93118" lon="3.36302">
        <ele>1358</ele>
        <time>2020-06-02T11:54:26+02:00</time>
      </trkpt>
      <trkpt lat="44.93097" lon="3.36315">
        <ele>1357</ele>
        <time>2020-06-02T11:54:36+02:00</time>
      </trkpt>
      <trkpt lat="44.93073" lon="3.36325">
        <ele>1359</ele>
        <time>2020-06-02T11:54:46+02:00</time>
      </trkpt>
      <trkpt lat="44.93051" lon="3.36335">
        <ele>1364</ele>
        <time>2020-06-02T11:54:55+02:00</time>
      </trkpt>
      <trkpt lat="44.93027" lon="3.36344">
        <ele>1366</ele>
        <time>2020-06-02T11:55:06+02:00</time>
      </trkpt>
      <trkpt lat="44.93002" lon="3.36348">
        <ele>1365</ele>
        <time>2020-06-02T11:55:16+02:00</time>
      </trkpt>
      <trkpt lat="44.92979" lon="3.3635">
        <ele>1367</ele>
        <time>2020-06-02T11:55:24+02:00</time>
      </trkpt>
      <trkpt lat="44.92954" lon="3.36357">
        <ele>1366</ele>
        <time>2020-06-02T11:55:33+02:00</time>
      </trkpt>
      <trkpt lat="44.92931" lon="3.36364">
        <ele>1367</ele>
        <time>2020-06-02T11:55:41+02:00</time>
      </trkpt>
      <trkpt lat="44.92908" lon="3.36372">
        <ele>1368</ele>
        <time>2020-06-02T11:55:49+02:00</time>
      </trkpt>
      <trkpt lat="44.92885" lon="3.36386">
        <ele>1365</ele>
        <time>2020-06-02T11:55:57+02:00</time>
      </trkpt>
      <trkpt lat="44.9286" lon="3.36397">
        <ele>1366</ele>
        <time>2020-06-02T11:56:04+02:00</time>
      </trkpt>
      <trkpt lat="44.92836" lon="3.36405">
        <ele>1367</ele>
        <time>2020-06-02T11:56:11+02:00</time>
      </trkpt>
      <trkpt lat="44.92813" lon="3.36413">
        <ele>1371</ele>
        <time>2020-06-02T11:56:19+02:00</time>
      </trkpt>
      <trkpt lat="44.9279" lon="3.36425">
        <ele>1371</ele>
        <time>2020-06-02T11:56:28+02:00</time>
      </trkpt>
      <trkpt lat="44.92768" lon="3.36436">
        <ele>1373</ele>
        <time>2020-06-02T11:56:36+02:00</time>
      </trkpt>
      <trkpt lat="44.92747" lon="3.36452">
        <ele>1376</ele>
        <time>2020-06-02T11:56:46+02:00</time>
      </trkpt>
      <trkpt lat="44.9273" lon="3.36473">
        <ele>1376</ele>
        <time>2020-06-02T11:56:54+02:00</time>
      </trkpt>
      <trkpt lat="44.92706" lon="3.36485">
        <ele>1368</ele>
        <time>2020-06-02T11:57:02+02:00</time>
      </trkpt>
      <trkpt lat="44.92681" lon="3.36491">
        <ele>1348</ele>
        <time>2020-06-02T11:57:10+02:00</time>
      </trkpt>
      <trkpt lat="44.92612" lon="3.36522">
        <ele>1365</ele>
        <time>2020-06-02T11:57:13+02:00</time>
      </trkpt>
      <trkpt lat="44.92586" lon="3.36536">
        <ele>1363</ele>
        <time>2020-06-02T11:57:16+02:00</time>
      </trkpt>
      <trkpt lat="44.92562" lon="3.36553">
        <ele>1357</ele>
        <time>2020-06-02T11:57:19+02:00</time>
      </trkpt>
      <trkpt lat="44.9254" lon="3.36574">
        <ele>1355</ele>
        <time>2020-06-02T11:57:22+02:00</time>
      </trkpt>
      <trkpt lat="44.9252" lon="3.36593">
        <ele>1354</ele>
        <time>2020-06-02T11:57:25+02:00</time>
      </trkpt>
      <trkpt lat="44.92506" lon="3.36621">
        <ele>1351</ele>
        <time>2020-06-02T11:57:28+02:00</time>
      </trkpt>
      <trkpt lat="44.92497" lon="3.36655">
        <ele>1351</ele>
        <time>2020-06-02T11:57:31+02:00</time>
      </trkpt>
      <trkpt lat="44.92488" lon="3.36687">
        <ele>1350</ele>
        <time>2020-06-02T11:57:34+02:00</time>
      </trkpt>
      <trkpt lat="44.92472" lon="3.36715">
        <ele>1351</ele>
        <time>2020-06-02T11:57:38+02:00</time>
      </trkpt>
      <trkpt lat="44.92451" lon="3.36727">
        <ele>1352</ele>
        <time>2020-06-02T11:57:44+02:00</time>
      </trkpt>
      <trkpt lat="44.9243" lon="3.36744">
        <ele>1355</ele>
        <time>2020-06-02T11:57:52+02:00</time>
      </trkpt>
      <trkpt lat="44.92406" lon="3.36752">
        <ele>1355</ele>
        <time>2020-06-02T11:57:59+02:00</time>
      </trkpt>
      <trkpt lat="44.92383" lon="3.36765">
        <ele>1358</ele>
        <time>2020-06-02T11:58:07+02:00</time>
      </trkpt>
      <trkpt lat="44.92361" lon="3.36774">
        <ele>1358</ele>
        <time>2020-06-02T11:58:17+02:00</time>
      </trkpt>
      <trkpt lat="44.92339" lon="3.36785">
        <ele>1362</ele>
        <time>2020-06-02T11:58:29+02:00</time>
      </trkpt>
      <trkpt lat="44.9232" lon="3.36805">
        <ele>1368</ele>
        <time>2020-06-02T11:58:42+02:00</time>
      </trkpt>
      <trkpt lat="44.92301" lon="3.36828">
        <ele>1374</ele>
        <time>2020-06-02T11:58:55+02:00</time>
      </trkpt>
      <trkpt lat="44.92284" lon="3.36848">
        <ele>1371</ele>
        <time>2020-06-02T11:59:07+02:00</time>
      </trkpt>
      <trkpt lat="44.92268" lon="3.36872">
        <ele>1361</ele>
        <time>2020-06-02T11:59:17+02:00</time>
      </trkpt>
      <trkpt lat="44.92247" lon="3.36893">
        <ele>1365</ele>
        <time>2020-06-02T11:59:25+02:00</time>
      </trkpt>
      <trkpt lat="44.92227" lon="3.36913">
        <ele>1365</ele>
        <time>2020-06-02T11:59:32+02:00</time>
      </trkpt>
      <trkpt lat="44.92208" lon="3.36932">
        <ele>1368</ele>
        <time>2020-06-02T11:59:38+02:00</time>
      </trkpt>
      <trkpt lat="44.92189" lon="3.36953">
        <ele>1369</ele>
        <time>2020-06-02T11:59:44+02:00</time>
      </trkpt>
      <trkpt lat="44.92168" lon="3.3697">
        <ele>1369</ele>
        <time>2020-06-02T11:59:49+02:00</time>
      </trkpt>
      <trkpt lat="44.92145" lon="3.36986">
        <ele>1369</ele>
        <time>2020-06-02T11:59:56+02:00</time>
      </trkpt>
      <trkpt lat="44.92125" lon="3.37001">
        <ele>1372</ele>
        <time>2020-06-02T12:00:05+02:00</time>
      </trkpt>
      <trkpt lat="44.92103" lon="3.37015">
        <ele>1371</ele>
        <time>2020-06-02T12:00:16+02:00</time>
      </trkpt>
      <trkpt lat="44.92079" lon="3.37018">
        <ele>1371</ele>
        <time>2020-06-02T12:00:26+02:00</time>
      </trkpt>
      <trkpt lat="44.92057" lon="3.37034">
        <ele>1370</ele>
        <time>2020-06-02T12:00:37+02:00</time>
      </trkpt>
      <trkpt lat="44.92038" lon="3.37051">
        <ele>1370</ele>
        <time>2020-06-02T12:00:47+02:00</time>
      </trkpt>
      <trkpt lat="44.92022" lon="3.37073">
        <ele>1364</ele>
        <time>2020-06-02T12:00:59+02:00</time>
      </trkpt>
      <trkpt lat="44.92007" lon="3.37098">
        <ele>1363</ele>
        <time>2020-06-02T12:01:09+02:00</time>
      </trkpt>
      <trkpt lat="44.91992" lon="3.37125">
        <ele>1365</ele>
        <time>2020-06-02T12:01:22+02:00</time>
      </trkpt>
      <trkpt lat="44.91981" lon="3.37155">
        <ele>1369</ele>
        <time>2020-06-02T12:01:35+02:00</time>
      </trkpt>
      <trkpt lat="44.91961" lon="3.37175">
        <ele>1378</ele>
        <time>2020-06-02T12:01:50+02:00</time>
      </trkpt>
      <trkpt lat="44.91944" lon="3.37198">
        <ele>1383</ele>
        <time>2020-06-02T12:02:07+02:00</time>
      </trkpt>
      <trkpt lat="44.91924" lon="3.37217">
        <ele>1386</ele>
        <time>2020-06-02T12:02:20+02:00</time>
      </trkpt>
      <trkpt lat="44.91906" lon="3.37238">
        <ele>1389</ele>
        <time>2020-06-02T12:02:34+02:00</time>
      </trkpt>
      <trkpt lat="44.91885" lon="3.37253">
        <ele>1397</ele>
        <time>2020-06-02T12:02:48+02:00</time>
      </trkpt>
      <trkpt lat="44.91863" lon="3.37263">
        <ele>1401</ele>
        <time>2020-06-02T12:02:59+02:00</time>
      </trkpt>
      <trkpt lat="44.9184" lon="3.3726">
        <ele>1407</ele>
        <time>2020-06-02T12:03:11+02:00</time>
      </trkpt>
      <trkpt lat="44.91815" lon="3.37258">
        <ele>1411</ele>
        <time>2020-06-02T12:03:21+02:00</time>
      </trkpt>
      <trkpt lat="44.91792" lon="3.37253">
        <ele>1414</ele>
        <time>2020-06-02T12:03:31+02:00</time>
      </trkpt>
      <trkpt lat="44.9177" lon="3.3725">
        <ele>1417</ele>
        <time>2020-06-02T12:03:41+02:00</time>
      </trkpt>
      <trkpt lat="44.91747" lon="3.37242">
        <ele>1422</ele>
        <time>2020-06-02T12:03:50+02:00</time>
      </trkpt>
      <trkpt lat="44.91725" lon="3.37226">
        <ele>1420</ele>
        <time>2020-06-02T12:03:57+02:00</time>
      </trkpt>
      <trkpt lat="44.91702" lon="3.37214">
        <ele>1414</ele>
        <time>2020-06-02T12:04:04+02:00</time>
      </trkpt>
      <trkpt lat="44.91681" lon="3.37202">
        <ele>1409</ele>
        <time>2020-06-02T12:04:12+02:00</time>
      </trkpt>
      <trkpt lat="44.91661" lon="3.37183">
        <ele>1409</ele>
        <time>2020-06-02T12:04:21+02:00</time>
      </trkpt>
      <trkpt lat="44.91639" lon="3.37199">
        <ele>1408</ele>
        <time>2020-06-02T12:04:32+02:00</time>
      </trkpt>
      <trkpt lat="44.9162" lon="3.37223">
        <ele>1410</ele>
        <time>2020-06-02T12:04:41+02:00</time>
      </trkpt>
      <trkpt lat="44.91607" lon="3.37248">
        <ele>1407</ele>
        <time>2020-06-02T12:04:49+02:00</time>
      </trkpt>
      <trkpt lat="44.91589" lon="3.37273">
        <ele>1407</ele>
        <time>2020-06-02T12:04:59+02:00</time>
      </trkpt>
      <trkpt lat="44.91575" lon="3.37299">
        <ele>1409</ele>
        <time>2020-06-02T12:05:09+02:00</time>
      </trkpt>
      <trkpt lat="44.91561" lon="3.37325">
        <ele>1406</ele>
        <time>2020-06-02T12:05:20+02:00</time>
      </trkpt>
      <trkpt lat="44.91545" lon="3.37353">
        <ele>1409</ele>
        <time>2020-06-02T12:05:25+02:00</time>
      </trkpt>
      <trkpt lat="44.91529" lon="3.37376">
        <ele>1406</ele>
        <time>2020-06-02T12:05:32+02:00</time>
      </trkpt>
      <trkpt lat="44.91516" lon="3.37408">
        <ele>1401</ele>
        <time>2020-06-02T12:05:38+02:00</time>
      </trkpt>
      <trkpt lat="44.91498" lon="3.37427">
        <ele>1400</ele>
        <time>2020-06-02T12:05:43+02:00</time>
      </trkpt>
      <trkpt lat="44.91485" lon="3.37461">
        <ele>1397</ele>
        <time>2020-06-02T12:05:49+02:00</time>
      </trkpt>
      <trkpt lat="44.9147" lon="3.3749">
        <ele>1391</ele>
        <time>2020-06-02T12:05:54+02:00</time>
      </trkpt>
      <trkpt lat="44.91454" lon="3.37515">
        <ele>1386</ele>
        <time>2020-06-02T12:05:59+02:00</time>
      </trkpt>
      <trkpt lat="44.91436" lon="3.37539">
        <ele>1384</ele>
        <time>2020-06-02T12:06:04+02:00</time>
      </trkpt>
      <trkpt lat="44.91425" lon="3.37566">
        <ele>1391</ele>
        <time>2020-06-02T12:06:09+02:00</time>
      </trkpt>
      <trkpt lat="44.9141" lon="3.37591">
        <ele>1379</ele>
        <time>2020-06-02T12:06:14+02:00</time>
      </trkpt>
      <trkpt lat="44.91393" lon="3.37619">
        <ele>1377</ele>
        <time>2020-06-02T12:06:18+02:00</time>
      </trkpt>
      <trkpt lat="44.91381" lon="3.37646">
        <ele>1375</ele>
        <time>2020-06-02T12:06:24+02:00</time>
      </trkpt>
      <trkpt lat="44.91362" lon="3.37666">
        <ele>1374</ele>
        <time>2020-06-02T12:06:33+02:00</time>
      </trkpt>
      <trkpt lat="44.91342" lon="3.37695">
        <ele>1371</ele>
        <time>2020-06-02T12:06:39+02:00</time>
      </trkpt>
      <trkpt lat="44.91321" lon="3.37717">
        <ele>1365</ele>
        <time>2020-06-02T12:06:44+02:00</time>
      </trkpt>
      <trkpt lat="44.91314" lon="3.37687">
        <ele>1360</ele>
        <time>2020-06-02T12:06:57+02:00</time>
      </trkpt>
      <trkpt lat="44.91304" lon="3.37651">
        <ele>1366</ele>
        <time>2020-06-02T12:07:02+02:00</time>
      </trkpt>
      <trkpt lat="44.91295" lon="3.37615">
        <ele>1360</ele>
        <time>2020-06-02T12:07:07+02:00</time>
      </trkpt>
      <trkpt lat="44.91278" lon="3.3759">
        <ele>1355</ele>
        <time>2020-06-02T12:07:11+02:00</time>
      </trkpt>
      <trkpt lat="44.91252" lon="3.37573">
        <ele>1354</ele>
        <time>2020-06-02T12:07:15+02:00</time>
      </trkpt>
      <trkpt lat="44.91231" lon="3.37555">
        <ele>1354</ele>
        <time>2020-06-02T12:07:18+02:00</time>
      </trkpt>
      <trkpt lat="44.91207" lon="3.37534">
        <ele>1348</ele>
        <time>2020-06-02T12:07:22+02:00</time>
      </trkpt>
      <trkpt lat="44.91181" lon="3.3753">
        <ele>1347</ele>
        <time>2020-06-02T12:07:28+02:00</time>
      </trkpt>
      <trkpt lat="44.91158" lon="3.3752">
        <ele>1345</ele>
        <time>2020-06-02T12:07:32+02:00</time>
      </trkpt>
      <trkpt lat="44.91132" lon="3.37511">
        <ele>1342</ele>
        <time>2020-06-02T12:07:35+02:00</time>
      </trkpt>
      <trkpt lat="44.9111" lon="3.375">
        <ele>1338</ele>
        <time>2020-06-02T12:07:38+02:00</time>
      </trkpt>
      <trkpt lat="44.91086" lon="3.37487">
        <ele>1335</ele>
        <time>2020-06-02T12:07:41+02:00</time>
      </trkpt>
      <trkpt lat="44.91067" lon="3.3746">
        <ele>1331</ele>
        <time>2020-06-02T12:07:45+02:00</time>
      </trkpt>
      <trkpt lat="44.91051" lon="3.3743">
        <ele>1325</ele>
        <time>2020-06-02T12:07:48+02:00</time>
      </trkpt>
      <trkpt lat="44.91034" lon="3.37403">
        <ele>1325</ele>
        <time>2020-06-02T12:07:51+02:00</time>
      </trkpt>
      <trkpt lat="44.91016" lon="3.37381">
        <ele>1325</ele>
        <time>2020-06-02T12:07:54+02:00</time>
      </trkpt>
      <trkpt lat="44.90998" lon="3.37358">
        <ele>1326</ele>
        <time>2020-06-02T12:07:57+02:00</time>
      </trkpt>
      <trkpt lat="44.90976" lon="3.37345">
        <ele>1322</ele>
        <time>2020-06-02T12:08:00+02:00</time>
      </trkpt>
      <trkpt lat="44.9095" lon="3.37336">
        <ele>1322</ele>
        <time>2020-06-02T12:08:04+02:00</time>
      </trkpt>
      <trkpt lat="44.90925" lon="3.37326">
        <ele>1325</ele>
        <time>2020-06-02T12:08:08+02:00</time>
      </trkpt>
      <trkpt lat="44.90898" lon="3.37317">
        <ele>1326</ele>
        <time>2020-06-02T12:08:12+02:00</time>
      </trkpt>
      <trkpt lat="44.90873" lon="3.37312">
        <ele>1325</ele>
        <time>2020-06-02T12:08:16+02:00</time>
      </trkpt>
      <trkpt lat="44.90851" lon="3.37301">
        <ele>1327</ele>
        <time>2020-06-02T12:08:20+02:00</time>
      </trkpt>
      <trkpt lat="44.90825" lon="3.37287">
        <ele>1327</ele>
        <time>2020-06-02T12:08:25+02:00</time>
      </trkpt>
      <trkpt lat="44.90802" lon="3.37272">
        <ele>1324</ele>
        <time>2020-06-02T12:08:29+02:00</time>
      </trkpt>
      <trkpt lat="44.9078" lon="3.37262">
        <ele>1326</ele>
        <time>2020-06-02T12:08:33+02:00</time>
      </trkpt>
      <trkpt lat="44.90757" lon="3.37249">
        <ele>1325</ele>
        <time>2020-06-02T12:08:37+02:00</time>
      </trkpt>
      <trkpt lat="44.90731" lon="3.37226">
        <ele>1320</ele>
        <time>2020-06-02T12:08:41+02:00</time>
      </trkpt>
      <trkpt lat="44.90711" lon="3.37206">
        <ele>1314</ele>
        <time>2020-06-02T12:08:44+02:00</time>
      </trkpt>
      <trkpt lat="44.9069" lon="3.37177">
        <ele>1316</ele>
        <time>2020-06-02T12:08:48+02:00</time>
      </trkpt>
      <trkpt lat="44.90673" lon="3.37152">
        <ele>1315</ele>
        <time>2020-06-02T12:08:51+02:00</time>
      </trkpt>
      <trkpt lat="44.90659" lon="3.37123">
        <ele>1315</ele>
        <time>2020-06-02T12:08:54+02:00</time>
      </trkpt>
      <trkpt lat="44.90641" lon="3.37092">
        <ele>1310</ele>
        <time>2020-06-02T12:08:57+02:00</time>
      </trkpt>
      <trkpt lat="44.90618" lon="3.37072">
        <ele>1309</ele>
        <time>2020-06-02T12:09:00+02:00</time>
      </trkpt>
      <trkpt lat="44.90587" lon="3.37059">
        <ele>1303</ele>
        <time>2020-06-02T12:09:03+02:00</time>
      </trkpt>
      <trkpt lat="44.90564" lon="3.37056">
        <ele>1300</ele>
        <time>2020-06-02T12:09:05+02:00</time>
      </trkpt>
      <trkpt lat="44.90535" lon="3.37043">
        <ele>1296</ele>
        <time>2020-06-02T12:09:08+02:00</time>
      </trkpt>
      <trkpt lat="44.9051" lon="3.37041">
        <ele>1295</ele>
        <time>2020-06-02T12:09:11+02:00</time>
      </trkpt>
      <trkpt lat="44.9049" lon="3.37058">
        <ele>1296</ele>
        <time>2020-06-02T12:09:15+02:00</time>
      </trkpt>
      <trkpt lat="44.90495" lon="3.37089">
        <ele>1297</ele>
        <time>2020-06-02T12:10:51+02:00</time>
      </trkpt>
      <trkpt lat="44.90514" lon="3.37111">
        <ele>1297</ele>
        <time>2020-06-02T12:12:06+02:00</time>
      </trkpt>
      <trkpt lat="44.9053" lon="3.37138">
        <ele>1297</ele>
        <time>2020-06-02T12:12:13+02:00</time>
      </trkpt>
      <trkpt lat="44.90544" lon="3.37164">
        <ele>1295</ele>
        <time>2020-06-02T12:12:19+02:00</time>
      </trkpt>
      <trkpt lat="44.90556" lon="3.37195">
        <ele>1295</ele>
        <time>2020-06-02T12:12:22+02:00</time>
      </trkpt>
      <trkpt lat="44.90573" lon="3.37225">
        <ele>1295</ele>
        <time>2020-06-02T12:12:26+02:00</time>
      </trkpt>
      <trkpt lat="44.90592" lon="3.37253">
        <ele>1295</ele>
        <time>2020-06-02T12:12:31+02:00</time>
      </trkpt>
      <trkpt lat="44.9061" lon="3.37278">
        <ele>1291</ele>
        <time>2020-06-02T12:12:35+02:00</time>
      </trkpt>
      <trkpt lat="44.90624" lon="3.37305">
        <ele>1291</ele>
        <time>2020-06-02T12:12:42+02:00</time>
      </trkpt>
      <trkpt lat="44.90641" lon="3.37329">
        <ele>1288</ele>
        <time>2020-06-02T12:12:47+02:00</time>
      </trkpt>
      <trkpt lat="44.90665" lon="3.37347">
        <ele>1283</ele>
        <time>2020-06-02T12:12:51+02:00</time>
      </trkpt>
      <trkpt lat="44.90686" lon="3.37367">
        <ele>1282</ele>
        <time>2020-06-02T12:12:55+02:00</time>
      </trkpt>
      <trkpt lat="44.90703" lon="3.37387">
        <ele>1284</ele>
        <time>2020-06-02T12:12:59+02:00</time>
      </trkpt>
      <trkpt lat="44.90721" lon="3.37411">
        <ele>1284</ele>
        <time>2020-06-02T12:13:04+02:00</time>
      </trkpt>
      <trkpt lat="44.90738" lon="3.37436">
        <ele>1284</ele>
        <time>2020-06-02T12:13:09+02:00</time>
      </trkpt>
      <trkpt lat="44.90751" lon="3.37463">
        <ele>1287</ele>
        <time>2020-06-02T12:13:14+02:00</time>
      </trkpt>
      <trkpt lat="44.9077" lon="3.37486">
        <ele>1286</ele>
        <time>2020-06-02T12:13:19+02:00</time>
      </trkpt>
      <trkpt lat="44.90788" lon="3.37507">
        <ele>1287</ele>
        <time>2020-06-02T12:13:24+02:00</time>
      </trkpt>
      <trkpt lat="44.90811" lon="3.37525">
        <ele>1286</ele>
        <time>2020-06-02T12:13:30+02:00</time>
      </trkpt>
      <trkpt lat="44.90821" lon="3.37556">
        <ele>1286</ele>
        <time>2020-06-02T12:13:36+02:00</time>
      </trkpt>
      <trkpt lat="44.90824" lon="3.37588">
        <ele>1288</ele>
        <time>2020-06-02T12:13:41+02:00</time>
      </trkpt>
      <trkpt lat="44.90831" lon="3.37618">
        <ele>1293</ele>
        <time>2020-06-02T12:13:55+02:00</time>
      </trkpt>
      <trkpt lat="44.90831" lon="3.37652">
        <ele>1295</ele>
        <time>2020-06-02T12:14:09+02:00</time>
      </trkpt>
      <trkpt lat="44.90828" lon="3.37685">
        <ele>1298</ele>
        <time>2020-06-02T12:14:25+02:00</time>
      </trkpt>
      <trkpt lat="44.90826" lon="3.37718">
        <ele>1296</ele>
        <time>2020-06-02T12:14:41+02:00</time>
      </trkpt>
      <trkpt lat="44.90823" lon="3.37751">
        <ele>1305</ele>
        <time>2020-06-02T12:14:58+02:00</time>
      </trkpt>
      <trkpt lat="44.90825" lon="3.37784">
        <ele>1305</ele>
        <time>2020-06-02T12:15:11+02:00</time>
      </trkpt>
      <trkpt lat="44.90823" lon="3.37817">
        <ele>1313</ele>
        <time>2020-06-02T12:15:27+02:00</time>
      </trkpt>
      <trkpt lat="44.90823" lon="3.3785">
        <ele>1313</ele>
        <time>2020-06-02T12:15:39+02:00</time>
      </trkpt>
      <trkpt lat="44.9083" lon="3.37884">
        <ele>1313</ele>
        <time>2020-06-02T12:15:52+02:00</time>
      </trkpt>
      <trkpt lat="44.90845" lon="3.37911">
        <ele>1312</ele>
        <time>2020-06-02T12:16:01+02:00</time>
      </trkpt>
      <trkpt lat="44.90851" lon="3.37943">
        <ele>1310</ele>
        <time>2020-06-02T12:16:13+02:00</time>
      </trkpt>
      <trkpt lat="44.90858" lon="3.37973">
        <ele>1311</ele>
        <time>2020-06-02T12:16:22+02:00</time>
      </trkpt>
      <trkpt lat="44.90862" lon="3.38006">
        <ele>1313</ele>
        <time>2020-06-02T12:16:32+02:00</time>
      </trkpt>
      <trkpt lat="44.90861" lon="3.38039">
        <ele>1315</ele>
        <time>2020-06-02T12:16:43+02:00</time>
      </trkpt>
      <trkpt lat="44.90844" lon="3.38064">
        <ele>1321</ele>
        <time>2020-06-02T12:16:55+02:00</time>
      </trkpt>
      <trkpt lat="44.90828" lon="3.38087">
        <ele>1324</ele>
        <time>2020-06-02T12:17:04+02:00</time>
      </trkpt>
      <trkpt lat="44.90814" lon="3.38113">
        <ele>1322</ele>
        <time>2020-06-02T12:17:12+02:00</time>
      </trkpt>
      <trkpt lat="44.908" lon="3.38139">
        <ele>1327</ele>
        <time>2020-06-02T12:17:22+02:00</time>
      </trkpt>
      <trkpt lat="44.90782" lon="3.3816">
        <ele>1329</ele>
        <time>2020-06-02T12:17:32+02:00</time>
      </trkpt>
      <trkpt lat="44.90765" lon="3.38185">
        <ele>1323</ele>
        <time>2020-06-02T12:17:40+02:00</time>
      </trkpt>
      <trkpt lat="44.90751" lon="3.38214">
        <ele>1324</ele>
        <time>2020-06-02T12:17:49+02:00</time>
      </trkpt>
      <trkpt lat="44.90735" lon="3.3824">
        <ele>1326</ele>
        <time>2020-06-02T12:17:59+02:00</time>
      </trkpt>
      <trkpt lat="44.90721" lon="3.38266">
        <ele>1330</ele>
        <time>2020-06-02T12:18:10+02:00</time>
      </trkpt>
      <trkpt lat="44.90704" lon="3.38288">
        <ele>1331</ele>
        <time>2020-06-02T12:18:24+02:00</time>
      </trkpt>
      <trkpt lat="44.9069" lon="3.38314">
        <ele>1323</ele>
        <time>2020-06-02T12:18:32+02:00</time>
      </trkpt>
      <trkpt lat="44.90672" lon="3.38334">
        <ele>1324</ele>
        <time>2020-06-02T12:18:41+02:00</time>
      </trkpt>
      <trkpt lat="44.90657" lon="3.38359">
        <ele>1331</ele>
        <time>2020-06-02T12:18:52+02:00</time>
      </trkpt>
      <trkpt lat="44.90647" lon="3.38391">
        <ele>1336</ele>
        <time>2020-06-02T12:19:03+02:00</time>
      </trkpt>
      <trkpt lat="44.90634" lon="3.3842">
        <ele>1341</ele>
        <time>2020-06-02T12:19:13+02:00</time>
      </trkpt>
      <trkpt lat="44.90617" lon="3.38448">
        <ele>1339</ele>
        <time>2020-06-02T12:19:23+02:00</time>
      </trkpt>
      <trkpt lat="44.90599" lon="3.38471">
        <ele>1334</ele>
        <time>2020-06-02T12:19:34+02:00</time>
      </trkpt>
      <trkpt lat="44.90577" lon="3.38498">
        <ele>1339</ele>
        <time>2020-06-02T12:19:42+02:00</time>
      </trkpt>
      <trkpt lat="44.90564" lon="3.38532">
        <ele>1327</ele>
        <time>2020-06-02T12:19:47+02:00</time>
      </trkpt>
      <trkpt lat="44.90548" lon="3.38556">
        <ele>1333</ele>
        <time>2020-06-02T12:19:52+02:00</time>
      </trkpt>
      <trkpt lat="44.90534" lon="3.38587">
        <ele>1334</ele>
        <time>2020-06-02T12:19:58+02:00</time>
      </trkpt>
      <trkpt lat="44.90524" lon="3.38619">
        <ele>1333</ele>
        <time>2020-06-02T12:20:02+02:00</time>
      </trkpt>
      <trkpt lat="44.90518" lon="3.38651">
        <ele>1333</ele>
        <time>2020-06-02T12:20:05+02:00</time>
      </trkpt>
      <trkpt lat="44.90511" lon="3.38686">
        <ele>1329</ele>
        <time>2020-06-02T12:20:10+02:00</time>
      </trkpt>
      <trkpt lat="44.90504" lon="3.38719">
        <ele>1326</ele>
        <time>2020-06-02T12:20:15+02:00</time>
      </trkpt>
      <trkpt lat="44.90495" lon="3.38752">
        <ele>1324</ele>
        <time>2020-06-02T12:20:20+02:00</time>
      </trkpt>
      <trkpt lat="44.90493" lon="3.38785">
        <ele>1323</ele>
        <time>2020-06-02T12:20:24+02:00</time>
      </trkpt>
      <trkpt lat="44.90491" lon="3.3882">
        <ele>1326</ele>
        <time>2020-06-02T12:20:29+02:00</time>
      </trkpt>
      <trkpt lat="44.90489" lon="3.38852">
        <ele>1325</ele>
        <time>2020-06-02T12:20:34+02:00</time>
      </trkpt>
      <trkpt lat="44.90464" lon="3.38852">
        <ele>1326</ele>
        <time>2020-06-02T12:20:47+02:00</time>
      </trkpt>
      <trkpt lat="44.90439" lon="3.38837">
        <ele>1323</ele>
        <time>2020-06-02T12:20:51+02:00</time>
      </trkpt>
      <trkpt lat="44.90416" lon="3.38818">
        <ele>1310</ele>
        <time>2020-06-02T12:20:55+02:00</time>
      </trkpt>
      <trkpt lat="44.90392" lon="3.38803">
        <ele>1312</ele>
        <time>2020-06-02T12:20:59+02:00</time>
      </trkpt>
      <trkpt lat="44.90369" lon="3.38785">
        <ele>1309</ele>
        <time>2020-06-02T12:21:03+02:00</time>
      </trkpt>
      <trkpt lat="44.90349" lon="3.38764">
        <ele>1307</ele>
        <time>2020-06-02T12:21:07+02:00</time>
      </trkpt>
      <trkpt lat="44.90332" lon="3.38741">
        <ele>1304</ele>
        <time>2020-06-02T12:21:14+02:00</time>
      </trkpt>
      <trkpt lat="44.9032" lon="3.38713">
        <ele>1305</ele>
        <time>2020-06-02T12:21:23+02:00</time>
      </trkpt>
      <trkpt lat="44.90298" lon="3.38707">
        <ele>1292</ele>
        <time>2020-06-02T12:22:48+02:00</time>
      </trkpt>
      <trkpt lat="44.90287" lon="3.38735">
        <ele>1299</ele>
        <time>2020-06-02T12:26:21+02:00</time>
      </trkpt>
      <trkpt lat="44.90278" lon="3.38767">
        <ele>1293</ele>
        <time>2020-06-02T12:26:31+02:00</time>
      </trkpt>
      <trkpt lat="44.90277" lon="3.388">
        <ele>1289</ele>
        <time>2020-06-02T12:26:38+02:00</time>
      </trkpt>
      <trkpt lat="44.90264" lon="3.38827">
        <ele>1287</ele>
        <time>2020-06-02T12:26:43+02:00</time>
      </trkpt>
      <trkpt lat="44.90243" lon="3.38846">
        <ele>1289</ele>
        <time>2020-06-02T12:26:51+02:00</time>
      </trkpt>
      <trkpt lat="44.90226" lon="3.38868">
        <ele>1289</ele>
        <time>2020-06-02T12:27:00+02:00</time>
      </trkpt>
      <trkpt lat="44.90203" lon="3.38875">
        <ele>1295</ele>
        <time>2020-06-02T12:27:07+02:00</time>
      </trkpt>
      <trkpt lat="44.90182" lon="3.38887">
        <ele>1296</ele>
        <time>2020-06-02T12:27:14+02:00</time>
      </trkpt>
      <trkpt lat="44.90163" lon="3.38906">
        <ele>1295</ele>
        <time>2020-06-02T12:27:21+02:00</time>
      </trkpt>
      <trkpt lat="44.90147" lon="3.38933">
        <ele>1295</ele>
        <time>2020-06-02T12:27:28+02:00</time>
      </trkpt>
      <trkpt lat="44.90133" lon="3.3896">
        <ele>1293</ele>
        <time>2020-06-02T12:27:36+02:00</time>
      </trkpt>
      <trkpt lat="44.9012" lon="3.38989">
        <ele>1297</ele>
        <time>2020-06-02T12:27:46+02:00</time>
      </trkpt>
      <trkpt lat="44.90106" lon="3.39014">
        <ele>1295</ele>
        <time>2020-06-02T12:27:54+02:00</time>
      </trkpt>
      <trkpt lat="44.90091" lon="3.3904">
        <ele>1295</ele>
        <time>2020-06-02T12:28:03+02:00</time>
      </trkpt>
      <trkpt lat="44.90078" lon="3.39068">
        <ele>1299</ele>
        <time>2020-06-02T12:28:13+02:00</time>
      </trkpt>
      <trkpt lat="44.90066" lon="3.39098">
        <ele>1302</ele>
        <time>2020-06-02T12:28:21+02:00</time>
      </trkpt>
      <trkpt lat="44.90056" lon="3.39128">
        <ele>1300</ele>
        <time>2020-06-02T12:28:27+02:00</time>
      </trkpt>
      <trkpt lat="44.90045" lon="3.39156">
        <ele>1300</ele>
        <time>2020-06-02T12:28:34+02:00</time>
      </trkpt>
      <trkpt lat="44.9004" lon="3.39187">
        <ele>1305</ele>
        <time>2020-06-02T12:28:45+02:00</time>
      </trkpt>
      <trkpt lat="44.90032" lon="3.39217">
        <ele>1304</ele>
        <time>2020-06-02T12:28:58+02:00</time>
      </trkpt>
      <trkpt lat="44.90024" lon="3.39247">
        <ele>1304</ele>
        <time>2020-06-02T12:29:11+02:00</time>
      </trkpt>
      <trkpt lat="44.90014" lon="3.39277">
        <ele>1310</ele>
        <time>2020-06-02T12:29:26+02:00</time>
      </trkpt>
      <trkpt lat="44.9" lon="3.39306">
        <ele>1306</ele>
        <time>2020-06-02T12:29:35+02:00</time>
      </trkpt>
      <trkpt lat="44.89981" lon="3.39328">
        <ele>1303</ele>
        <time>2020-06-02T12:29:45+02:00</time>
      </trkpt>
      <trkpt lat="44.89957" lon="3.39334">
        <ele>1309</ele>
        <time>2020-06-02T12:29:54+02:00</time>
      </trkpt>
      <trkpt lat="44.89934" lon="3.39344">
        <ele>1312</ele>
        <time>2020-06-02T12:30:03+02:00</time>
      </trkpt>
      <trkpt lat="44.89912" lon="3.39355">
        <ele>1314</ele>
        <time>2020-06-02T12:30:16+02:00</time>
      </trkpt>
      <trkpt lat="44.89889" lon="3.39364">
        <ele>1321</ele>
        <time>2020-06-02T12:30:29+02:00</time>
      </trkpt>
      <trkpt lat="44.89868" lon="3.39378">
        <ele>1319</ele>
        <time>2020-06-02T12:30:39+02:00</time>
      </trkpt>
      <trkpt lat="44.8985" lon="3.39398">
        <ele>1318</ele>
        <time>2020-06-02T12:30:51+02:00</time>
      </trkpt>
      <trkpt lat="44.8983" lon="3.39416">
        <ele>1325</ele>
        <time>2020-06-02T12:31:10+02:00</time>
      </trkpt>
      <trkpt lat="44.89811" lon="3.39436">
        <ele>1328</ele>
        <time>2020-06-02T12:31:23+02:00</time>
      </trkpt>
      <trkpt lat="44.89794" lon="3.39456">
        <ele>1334</ele>
        <time>2020-06-02T12:31:38+02:00</time>
      </trkpt>
      <trkpt lat="44.89778" lon="3.3948">
        <ele>1338</ele>
        <time>2020-06-02T12:31:53+02:00</time>
      </trkpt>
      <trkpt lat="44.89763" lon="3.39505">
        <ele>1343</ele>
        <time>2020-06-02T12:32:09+02:00</time>
      </trkpt>
      <trkpt lat="44.89752" lon="3.39533">
        <ele>1344</ele>
        <time>2020-06-02T12:32:21+02:00</time>
      </trkpt>
      <trkpt lat="44.89735" lon="3.39556">
        <ele>1346</ele>
        <time>2020-06-02T12:32:37+02:00</time>
      </trkpt>
      <trkpt lat="44.89714" lon="3.39573">
        <ele>1354</ele>
        <time>2020-06-02T12:32:51+02:00</time>
      </trkpt>
      <trkpt lat="44.89694" lon="3.3959">
        <ele>1354</ele>
        <time>2020-06-02T12:33:02+02:00</time>
      </trkpt>
      <trkpt lat="44.89676" lon="3.39612">
        <ele>1353</ele>
        <time>2020-06-02T12:33:14+02:00</time>
      </trkpt>
      <trkpt lat="44.89659" lon="3.39634">
        <ele>1360</ele>
        <time>2020-06-02T12:33:27+02:00</time>
      </trkpt>
      <trkpt lat="44.89641" lon="3.39654">
        <ele>1365</ele>
        <time>2020-06-02T12:33:41+02:00</time>
      </trkpt>
      <trkpt lat="44.89631" lon="3.39686">
        <ele>1367</ele>
        <time>2020-06-02T12:33:56+02:00</time>
      </trkpt>
      <trkpt lat="44.89625" lon="3.39719">
        <ele>1367</ele>
        <time>2020-06-02T12:34:06+02:00</time>
      </trkpt>
      <trkpt lat="44.89622" lon="3.39751">
        <ele>1364</ele>
        <time>2020-06-02T12:34:17+02:00</time>
      </trkpt>
      <trkpt lat="44.89615" lon="3.39782">
        <ele>1366</ele>
        <time>2020-06-02T12:34:28+02:00</time>
      </trkpt>
      <trkpt lat="44.89604" lon="3.39812">
        <ele>1368</ele>
        <time>2020-06-02T12:34:37+02:00</time>
      </trkpt>
      <trkpt lat="44.89597" lon="3.39844">
        <ele>1347</ele>
        <time>2020-06-02T12:34:45+02:00</time>
      </trkpt>
      <trkpt lat="44.89589" lon="3.39877">
        <ele>1341</ele>
        <time>2020-06-02T12:34:54+02:00</time>
      </trkpt>
      <trkpt lat="44.89584" lon="3.39909">
        <ele>1357</ele>
        <time>2020-06-02T12:35:03+02:00</time>
      </trkpt>
      <trkpt lat="44.89575" lon="3.39939">
        <ele>1349</ele>
        <time>2020-06-02T12:35:09+02:00</time>
      </trkpt>
      <trkpt lat="44.89561" lon="3.39968">
        <ele>1347</ele>
        <time>2020-06-02T12:35:15+02:00</time>
      </trkpt>
      <trkpt lat="44.89531" lon="3.40079">
        <ele>1361</ele>
        <time>2020-06-02T12:35:20+02:00</time>
      </trkpt>
      <trkpt lat="44.89513" lon="3.40103">
        <ele>1360</ele>
        <time>2020-06-02T12:35:25+02:00</time>
      </trkpt>
      <trkpt lat="44.89501" lon="3.40138">
        <ele>1356</ele>
        <time>2020-06-02T12:35:30+02:00</time>
      </trkpt>
      <trkpt lat="44.89488" lon="3.40164">
        <ele>1357</ele>
        <time>2020-06-02T12:35:35+02:00</time>
      </trkpt>
      <trkpt lat="44.89466" lon="3.40151">
        <ele>1351</ele>
        <time>2020-06-02T12:35:44+02:00</time>
      </trkpt>
      <trkpt lat="44.89458" lon="3.40121">
        <ele>1356</ele>
        <time>2020-06-02T12:40:06+02:00</time>
      </trkpt>
      <trkpt lat="44.89454" lon="3.40088">
        <ele>1354</ele>
        <time>2020-06-02T12:40:13+02:00</time>
      </trkpt>
      <trkpt lat="44.89448" lon="3.40051">
        <ele>1351</ele>
        <time>2020-06-02T12:40:19+02:00</time>
      </trkpt>
      <trkpt lat="44.89441" lon="3.40021">
        <ele>1351</ele>
        <time>2020-06-02T12:40:24+02:00</time>
      </trkpt>
      <trkpt lat="44.8943" lon="3.3999">
        <ele>1350</ele>
        <time>2020-06-02T12:40:30+02:00</time>
      </trkpt>
      <trkpt lat="44.89421" lon="3.3996">
        <ele>1353</ele>
        <time>2020-06-02T12:40:37+02:00</time>
      </trkpt>
      <trkpt lat="44.89411" lon="3.3993">
        <ele>1353</ele>
        <time>2020-06-02T12:40:44+02:00</time>
      </trkpt>
      <trkpt lat="44.89394" lon="3.39903">
        <ele>1353</ele>
        <time>2020-06-02T12:40:50+02:00</time>
      </trkpt>
      <trkpt lat="44.89385" lon="3.39873">
        <ele>1354</ele>
        <time>2020-06-02T12:40:55+02:00</time>
      </trkpt>
      <trkpt lat="44.89374" lon="3.39841">
        <ele>1353</ele>
        <time>2020-06-02T12:41:01+02:00</time>
      </trkpt>
      <trkpt lat="44.89368" lon="3.39809">
        <ele>1354</ele>
        <time>2020-06-02T12:41:07+02:00</time>
      </trkpt>
      <trkpt lat="44.89364" lon="3.39776">
        <ele>1354</ele>
        <time>2020-06-02T12:41:13+02:00</time>
      </trkpt>
      <trkpt lat="44.89364" lon="3.39744">
        <ele>1353</ele>
        <time>2020-06-02T12:41:19+02:00</time>
      </trkpt>
      <trkpt lat="44.89367" lon="3.39709">
        <ele>1355</ele>
        <time>2020-06-02T12:41:26+02:00</time>
      </trkpt>
      <trkpt lat="44.89371" lon="3.39675">
        <ele>1355</ele>
        <time>2020-06-02T12:41:33+02:00</time>
      </trkpt>
      <trkpt lat="44.89375" lon="3.39643">
        <ele>1354</ele>
        <time>2020-06-02T12:41:40+02:00</time>
      </trkpt>
      <trkpt lat="44.8937" lon="3.39612">
        <ele>1358</ele>
        <time>2020-06-02T12:41:50+02:00</time>
      </trkpt>
      <trkpt lat="44.89364" lon="3.39579">
        <ele>1364</ele>
        <time>2020-06-02T12:41:58+02:00</time>
      </trkpt>
      <trkpt lat="44.89353" lon="3.39551">
        <ele>1359</ele>
        <time>2020-06-02T12:42:08+02:00</time>
      </trkpt>
      <trkpt lat="44.8934" lon="3.39524">
        <ele>1363</ele>
        <time>2020-06-02T12:43:19+02:00</time>
      </trkpt>
      <trkpt lat="44.89323" lon="3.39499">
        <ele>1362</ele>
        <time>2020-06-02T12:43:24+02:00</time>
      </trkpt>
      <trkpt lat="44.89305" lon="3.39478">
        <ele>1359</ele>
        <time>2020-06-02T12:43:28+02:00</time>
      </trkpt>
      <trkpt lat="44.89289" lon="3.39446">
        <ele>1358</ele>
        <time>2020-06-02T12:43:33+02:00</time>
      </trkpt>
      <trkpt lat="44.89272" lon="3.39414">
        <ele>1358</ele>
        <time>2020-06-02T12:43:37+02:00</time>
      </trkpt>
      <trkpt lat="44.89254" lon="3.39384">
        <ele>1356</ele>
        <time>2020-06-02T12:43:41+02:00</time>
      </trkpt>
      <trkpt lat="44.89244" lon="3.39352">
        <ele>1354</ele>
        <time>2020-06-02T12:43:44+02:00</time>
      </trkpt>
      <trkpt lat="44.89233" lon="3.39318">
        <ele>1350</ele>
        <time>2020-06-02T12:43:47+02:00</time>
      </trkpt>
      <trkpt lat="44.89226" lon="3.39278">
        <ele>1348</ele>
        <time>2020-06-02T12:43:50+02:00</time>
      </trkpt>
      <trkpt lat="44.89221" lon="3.39238">
        <ele>1345</ele>
        <time>2020-06-02T12:43:53+02:00</time>
      </trkpt>
      <trkpt lat="44.89213" lon="3.39199">
        <ele>1343</ele>
        <time>2020-06-02T12:43:56+02:00</time>
      </trkpt>
      <trkpt lat="44.89199" lon="3.39173">
        <ele>1342</ele>
        <time>2020-06-02T12:43:59+02:00</time>
      </trkpt>
      <trkpt lat="44.89177" lon="3.39148">
        <ele>1338</ele>
        <time>2020-06-02T12:44:03+02:00</time>
      </trkpt>
      <trkpt lat="44.89154" lon="3.39135">
        <ele>1337</ele>
        <time>2020-06-02T12:44:06+02:00</time>
      </trkpt>
      <trkpt lat="44.89133" lon="3.39125">
        <ele>1334</ele>
        <time>2020-06-02T12:44:09+02:00</time>
      </trkpt>
      <trkpt lat="44.89113" lon="3.391">
        <ele>1328</ele>
        <time>2020-06-02T12:44:14+02:00</time>
      </trkpt>
      <trkpt lat="44.89097" lon="3.39064">
        <ele>1324</ele>
        <time>2020-06-02T12:44:18+02:00</time>
      </trkpt>
      <trkpt lat="44.89079" lon="3.39034">
        <ele>1320</ele>
        <time>2020-06-02T12:44:22+02:00</time>
      </trkpt>
      <trkpt lat="44.89061" lon="3.39005">
        <ele>1316</ele>
        <time>2020-06-02T12:44:26+02:00</time>
      </trkpt>
      <trkpt lat="44.89055" lon="3.38968">
        <ele>1315</ele>
        <time>2020-06-02T12:44:30+02:00</time>
      </trkpt>
      <trkpt lat="44.89056" lon="3.38936">
        <ele>1312</ele>
        <time>2020-06-02T12:44:35+02:00</time>
      </trkpt>
      <trkpt lat="44.8905" lon="3.38905">
        <ele>1300</ele>
        <time>2020-06-02T12:44:41+02:00</time>
      </trkpt>
      <trkpt lat="44.89063" lon="3.38875">
        <ele>1297</ele>
        <time>2020-06-02T12:45:22+02:00</time>
      </trkpt>
      <trkpt lat="44.89082" lon="3.38856">
        <ele>1298</ele>
        <time>2020-06-02T12:45:30+02:00</time>
      </trkpt>
      <trkpt lat="44.89098" lon="3.38826">
        <ele>1296</ele>
        <time>2020-06-02T12:45:37+02:00</time>
      </trkpt>
      <trkpt lat="44.89115" lon="3.38804">
        <ele>1291</ele>
        <time>2020-06-02T12:45:42+02:00</time>
      </trkpt>
      <trkpt lat="44.8913" lon="3.38779">
        <ele>1289</ele>
        <time>2020-06-02T12:45:47+02:00</time>
      </trkpt>
      <trkpt lat="44.89144" lon="3.38748">
        <ele>1286</ele>
        <time>2020-06-02T12:45:52+02:00</time>
      </trkpt>
      <trkpt lat="44.8916" lon="3.38725">
        <ele>1289</ele>
        <time>2020-06-02T12:45:56+02:00</time>
      </trkpt>
      <trkpt lat="44.89179" lon="3.38699">
        <ele>1286</ele>
        <time>2020-06-02T12:46:00+02:00</time>
      </trkpt>
      <trkpt lat="44.89205" lon="3.38658">
        <ele>1283</ele>
        <time>2020-06-02T12:46:03+02:00</time>
      </trkpt>
      <trkpt lat="44.89221" lon="3.38626">
        <ele>1281</ele>
        <time>2020-06-02T12:46:07+02:00</time>
      </trkpt>
      <trkpt lat="44.89235" lon="3.38599">
        <ele>1280</ele>
        <time>2020-06-02T12:46:10+02:00</time>
      </trkpt>
      <trkpt lat="44.89243" lon="3.38561">
        <ele>1279</ele>
        <time>2020-06-02T12:46:14+02:00</time>
      </trkpt>
      <trkpt lat="44.89248" lon="3.38519">
        <ele>1285</ele>
        <time>2020-06-02T12:46:18+02:00</time>
      </trkpt>
      <trkpt lat="44.8925" lon="3.38484">
        <ele>1278</ele>
        <time>2020-06-02T12:46:21+02:00</time>
      </trkpt>
      <trkpt lat="44.89258" lon="3.38451">
        <ele>1276</ele>
        <time>2020-06-02T12:46:24+02:00</time>
      </trkpt>
      <trkpt lat="44.89261" lon="3.38414">
        <ele>1273</ele>
        <time>2020-06-02T12:46:28+02:00</time>
      </trkpt>
      <trkpt lat="44.89252" lon="3.38381">
        <ele>1266</ele>
        <time>2020-06-02T12:46:36+02:00</time>
      </trkpt>
      <trkpt lat="44.8923" lon="3.38372">
        <ele>1263</ele>
        <time>2020-06-02T12:46:41+02:00</time>
      </trkpt>
      <trkpt lat="44.89205" lon="3.38363">
        <ele>1264</ele>
        <time>2020-06-02T12:46:46+02:00</time>
      </trkpt>
      <trkpt lat="44.89213" lon="3.38332">
        <ele>1261</ele>
        <time>2020-06-02T12:46:54+02:00</time>
      </trkpt>
      <trkpt lat="44.89239" lon="3.38317">
        <ele>1258</ele>
        <time>2020-06-02T12:47:00+02:00</time>
      </trkpt>
      <trkpt lat="44.89257" lon="3.38294">
        <ele>1256</ele>
        <time>2020-06-02T12:47:04+02:00</time>
      </trkpt>
      <trkpt lat="44.89258" lon="3.3826">
        <ele>1256</ele>
        <time>2020-06-02T12:47:11+02:00</time>
      </trkpt>
      <trkpt lat="44.89236" lon="3.38235">
        <ele>1254</ele>
        <time>2020-06-02T12:47:17+02:00</time>
      </trkpt>
      <trkpt lat="44.8922" lon="3.3821">
        <ele>1253</ele>
        <time>2020-06-02T12:47:22+02:00</time>
      </trkpt>
      <trkpt lat="44.89205" lon="3.38179">
        <ele>1254</ele>
        <time>2020-06-02T12:47:26+02:00</time>
      </trkpt>
      <trkpt lat="44.89206" lon="3.38147">
        <ele>1249</ele>
        <time>2020-06-02T12:47:34+02:00</time>
      </trkpt>
      <trkpt lat="44.89234" lon="3.38141">
        <ele>1248</ele>
        <time>2020-06-02T12:47:39+02:00</time>
      </trkpt>
      <trkpt lat="44.89262" lon="3.38133">
        <ele>1245</ele>
        <time>2020-06-02T12:47:43+02:00</time>
      </trkpt>
      <trkpt lat="44.89285" lon="3.3813">
        <ele>1246</ele>
        <time>2020-06-02T12:47:46+02:00</time>
      </trkpt>
      <trkpt lat="44.8931" lon="3.38125">
        <ele>1243</ele>
        <time>2020-06-02T12:47:49+02:00</time>
      </trkpt>
      <trkpt lat="44.89332" lon="3.38116">
        <ele>1241</ele>
        <time>2020-06-02T12:47:52+02:00</time>
      </trkpt>
      <trkpt lat="44.89355" lon="3.38106">
        <ele>1237</ele>
        <time>2020-06-02T12:47:56+02:00</time>
      </trkpt>
      <trkpt lat="44.89378" lon="3.38107">
        <ele>1239</ele>
        <time>2020-06-02T12:48:02+02:00</time>
      </trkpt>
      <trkpt lat="44.89403" lon="3.38101">
        <ele>1236</ele>
        <time>2020-06-02T12:48:08+02:00</time>
      </trkpt>
      <trkpt lat="44.89427" lon="3.38104">
        <ele>1229</ele>
        <time>2020-06-02T12:48:14+02:00</time>
      </trkpt>
      <trkpt lat="44.89452" lon="3.38109">
        <ele>1231</ele>
        <time>2020-06-02T12:48:19+02:00</time>
      </trkpt>
      <trkpt lat="44.8947" lon="3.38089">
        <ele>1222</ele>
        <time>2020-06-02T12:48:25+02:00</time>
      </trkpt>
      <trkpt lat="44.89453" lon="3.38069">
        <ele>1223</ele>
        <time>2020-06-02T12:49:19+02:00</time>
      </trkpt>
      <trkpt lat="44.89428" lon="3.38052">
        <ele>1220</ele>
        <time>2020-06-02T12:49:26+02:00</time>
      </trkpt>
      <trkpt lat="44.89409" lon="3.38026">
        <ele>1218</ele>
        <time>2020-06-02T12:49:31+02:00</time>
      </trkpt>
      <trkpt lat="44.89383" lon="3.38009">
        <ele>1216</ele>
        <time>2020-06-02T12:49:35+02:00</time>
      </trkpt>
      <trkpt lat="44.8936" lon="3.38002">
        <ele>1216</ele>
        <time>2020-06-02T12:49:39+02:00</time>
      </trkpt>
      <trkpt lat="44.89332" lon="3.37993">
        <ele>1215</ele>
        <time>2020-06-02T12:49:44+02:00</time>
      </trkpt>
      <trkpt lat="44.8931" lon="3.37981">
        <ele>1219</ele>
        <time>2020-06-02T12:49:53+02:00</time>
      </trkpt>
      <trkpt lat="44.89288" lon="3.37967">
        <ele>1218</ele>
        <time>2020-06-02T12:50:01+02:00</time>
      </trkpt>
      <trkpt lat="44.89264" lon="3.37965">
        <ele>1218</ele>
        <time>2020-06-02T12:50:05+02:00</time>
      </trkpt>
      <trkpt lat="44.8924" lon="3.37959">
        <ele>1216</ele>
        <time>2020-06-02T12:50:09+02:00</time>
      </trkpt>
      <trkpt lat="44.89216" lon="3.37955">
        <ele>1215</ele>
        <time>2020-06-02T12:50:13+02:00</time>
      </trkpt>
      <trkpt lat="44.89191" lon="3.37943">
        <ele>1215</ele>
        <time>2020-06-02T12:50:17+02:00</time>
      </trkpt>
      <trkpt lat="44.89166" lon="3.37927">
        <ele>1209</ele>
        <time>2020-06-02T12:50:21+02:00</time>
      </trkpt>
      <trkpt lat="44.89142" lon="3.37908">
        <ele>1204</ele>
        <time>2020-06-02T12:50:25+02:00</time>
      </trkpt>
      <trkpt lat="44.89118" lon="3.37894">
        <ele>1206</ele>
        <time>2020-06-02T12:50:30+02:00</time>
      </trkpt>
      <trkpt lat="44.89094" lon="3.37903">
        <ele>1198</ele>
        <time>2020-06-02T12:50:35+02:00</time>
      </trkpt>
      <trkpt lat="44.8907" lon="3.37915">
        <ele>1193</ele>
        <time>2020-06-02T12:50:40+02:00</time>
      </trkpt>
      <trkpt lat="44.89044" lon="3.37911">
        <ele>1191</ele>
        <time>2020-06-02T12:50:45+02:00</time>
      </trkpt>
      <trkpt lat="44.89018" lon="3.37919">
        <ele>1192</ele>
        <time>2020-06-02T12:50:51+02:00</time>
      </trkpt>
      <trkpt lat="44.88995" lon="3.37934">
        <ele>1189</ele>
        <time>2020-06-02T12:50:57+02:00</time>
      </trkpt>
      <trkpt lat="44.88973" lon="3.37944">
        <ele>1188</ele>
        <time>2020-06-02T12:51:03+02:00</time>
      </trkpt>
      <trkpt lat="44.88953" lon="3.37927">
        <ele>1186</ele>
        <time>2020-06-02T12:51:08+02:00</time>
      </trkpt>
      <trkpt lat="44.88932" lon="3.37908">
        <ele>1180</ele>
        <time>2020-06-02T12:51:15+02:00</time>
      </trkpt>
      <trkpt lat="44.88906" lon="3.37905">
        <ele>1177</ele>
        <time>2020-06-02T12:51:20+02:00</time>
      </trkpt>
      <trkpt lat="44.88885" lon="3.37889">
        <ele>1177</ele>
        <time>2020-06-02T12:51:25+02:00</time>
      </trkpt>
      <trkpt lat="44.88862" lon="3.37889">
        <ele>1178</ele>
        <time>2020-06-02T12:51:31+02:00</time>
      </trkpt>
      <trkpt lat="44.88839" lon="3.3788">
        <ele>1181</ele>
        <time>2020-06-02T12:51:40+02:00</time>
      </trkpt>
      <trkpt lat="44.88818" lon="3.37868">
        <ele>1184</ele>
        <time>2020-06-02T12:51:50+02:00</time>
      </trkpt>
      <trkpt lat="44.88795" lon="3.37872">
        <ele>1187</ele>
        <time>2020-06-02T12:51:57+02:00</time>
      </trkpt>
      <trkpt lat="44.88771" lon="3.37873">
        <ele>1187</ele>
        <time>2020-06-02T12:52:03+02:00</time>
      </trkpt>
      <trkpt lat="44.88745" lon="3.37879">
        <ele>1186</ele>
        <time>2020-06-02T12:52:09+02:00</time>
      </trkpt>
      <trkpt lat="44.88723" lon="3.37891">
        <ele>1185</ele>
        <time>2020-06-02T12:52:15+02:00</time>
      </trkpt>
      <trkpt lat="44.887" lon="3.37895">
        <ele>1189</ele>
        <time>2020-06-02T12:52:22+02:00</time>
      </trkpt>
      <trkpt lat="44.88675" lon="3.37898">
        <ele>1186</ele>
        <time>2020-06-02T12:52:27+02:00</time>
      </trkpt>
      <trkpt lat="44.88648" lon="3.37896">
        <ele>1184</ele>
        <time>2020-06-02T12:52:32+02:00</time>
      </trkpt>
      <trkpt lat="44.88624" lon="3.37882">
        <ele>1182</ele>
        <time>2020-06-02T12:52:37+02:00</time>
      </trkpt>
      <trkpt lat="44.88601" lon="3.37864">
        <ele>1182</ele>
        <time>2020-06-02T12:52:42+02:00</time>
      </trkpt>
      <trkpt lat="44.88581" lon="3.37847">
        <ele>1182</ele>
        <time>2020-06-02T12:52:47+02:00</time>
      </trkpt>
      <trkpt lat="44.88559" lon="3.37831">
        <ele>1185</ele>
        <time>2020-06-02T12:52:53+02:00</time>
      </trkpt>
      <trkpt lat="44.88535" lon="3.37828">
        <ele>1186</ele>
        <time>2020-06-02T12:53:00+02:00</time>
      </trkpt>
      <trkpt lat="44.8851" lon="3.37832">
        <ele>1189</ele>
        <time>2020-06-02T12:53:07+02:00</time>
      </trkpt>
      <trkpt lat="44.88487" lon="3.37849">
        <ele>1189</ele>
        <time>2020-06-02T12:53:13+02:00</time>
      </trkpt>
      <trkpt lat="44.88466" lon="3.37869">
        <ele>1187</ele>
        <time>2020-06-02T12:53:19+02:00</time>
      </trkpt>
      <trkpt lat="44.88449" lon="3.37893">
        <ele>1185</ele>
        <time>2020-06-02T12:53:24+02:00</time>
      </trkpt>
      <trkpt lat="44.88443" lon="3.37927">
        <ele>1183</ele>
        <time>2020-06-02T12:53:29+02:00</time>
      </trkpt>
      <trkpt lat="44.88425" lon="3.37947">
        <ele>1181</ele>
        <time>2020-06-02T12:53:33+02:00</time>
      </trkpt>
      <trkpt lat="44.88402" lon="3.37949">
        <ele>1178</ele>
        <time>2020-06-02T12:53:36+02:00</time>
      </trkpt>
      <trkpt lat="44.88375" lon="3.37949">
        <ele>1176</ele>
        <time>2020-06-02T12:53:39+02:00</time>
      </trkpt>
      <trkpt lat="44.88349" lon="3.37968">
        <ele>1174</ele>
        <time>2020-06-02T12:53:43+02:00</time>
      </trkpt>
      <trkpt lat="44.88322" lon="3.37966">
        <ele>1176</ele>
        <time>2020-06-02T12:53:48+02:00</time>
      </trkpt>
      <trkpt lat="44.88297" lon="3.37958">
        <ele>1175</ele>
        <time>2020-06-02T12:53:54+02:00</time>
      </trkpt>
      <trkpt lat="44.88272" lon="3.37957">
        <ele>1175</ele>
        <time>2020-06-02T12:53:59+02:00</time>
      </trkpt>
      <trkpt lat="44.88247" lon="3.37965">
        <ele>1174</ele>
        <time>2020-06-02T12:54:04+02:00</time>
      </trkpt>
      <trkpt lat="44.88224" lon="3.37969">
        <ele>1173</ele>
        <time>2020-06-02T12:54:09+02:00</time>
      </trkpt>
      <trkpt lat="44.88203" lon="3.37984">
        <ele>1176</ele>
        <time>2020-06-02T12:56:10+02:00</time>
      </trkpt>
      <trkpt lat="44.88185" lon="3.38004">
        <ele>1176</ele>
        <time>2020-06-02T12:56:17+02:00</time>
      </trkpt>
      <trkpt lat="44.88165" lon="3.3802">
        <ele>1176</ele>
        <time>2020-06-02T12:56:23+02:00</time>
      </trkpt>
      <trkpt lat="44.88144" lon="3.38044">
        <ele>1176</ele>
        <time>2020-06-02T12:56:29+02:00</time>
      </trkpt>
      <trkpt lat="44.88136" lon="3.38076">
        <ele>1177</ele>
        <time>2020-06-02T12:56:35+02:00</time>
      </trkpt>
      <trkpt lat="44.88123" lon="3.38104">
        <ele>1178</ele>
        <time>2020-06-02T12:56:43+02:00</time>
      </trkpt>
      <trkpt lat="44.88102" lon="3.38119">
        <ele>1176</ele>
        <time>2020-06-02T12:56:52+02:00</time>
      </trkpt>
      <trkpt lat="44.88082" lon="3.38138">
        <ele>1172</ele>
        <time>2020-06-02T12:56:59+02:00</time>
      </trkpt>
      <trkpt lat="44.88062" lon="3.38162">
        <ele>1173</ele>
        <time>2020-06-02T12:57:05+02:00</time>
      </trkpt>
      <trkpt lat="44.88045" lon="3.38189">
        <ele>1175</ele>
        <time>2020-06-02T12:57:11+02:00</time>
      </trkpt>
      <trkpt lat="44.88029" lon="3.38211">
        <ele>1176</ele>
        <time>2020-06-02T12:57:17+02:00</time>
      </trkpt>
      <trkpt lat="44.88013" lon="3.38237">
        <ele>1179</ele>
        <time>2020-06-02T12:57:24+02:00</time>
      </trkpt>
      <trkpt lat="44.87997" lon="3.3826">
        <ele>1181</ele>
        <time>2020-06-02T12:57:31+02:00</time>
      </trkpt>
      <trkpt lat="44.8798" lon="3.38283">
        <ele>1183</ele>
        <time>2020-06-02T12:57:38+02:00</time>
      </trkpt>
      <trkpt lat="44.87964" lon="3.38308">
        <ele>1183</ele>
        <time>2020-06-02T12:57:47+02:00</time>
      </trkpt>
      <trkpt lat="44.87948" lon="3.38331">
        <ele>1187</ele>
        <time>2020-06-02T12:57:56+02:00</time>
      </trkpt>
      <trkpt lat="44.87929" lon="3.38352">
        <ele>1191</ele>
        <time>2020-06-02T12:58:07+02:00</time>
      </trkpt>
      <trkpt lat="44.8791" lon="3.3837">
        <ele>1193</ele>
        <time>2020-06-02T12:58:16+02:00</time>
      </trkpt>
      <trkpt lat="44.87889" lon="3.38387">
        <ele>1188</ele>
        <time>2020-06-02T12:58:23+02:00</time>
      </trkpt>
      <trkpt lat="44.87868" lon="3.38405">
        <ele>1185</ele>
        <time>2020-06-02T12:58:30+02:00</time>
      </trkpt>
      <trkpt lat="44.87848" lon="3.38425">
        <ele>1186</ele>
        <time>2020-06-02T12:58:37+02:00</time>
      </trkpt>
      <trkpt lat="44.8783" lon="3.38448">
        <ele>1190</ele>
        <time>2020-06-02T12:58:43+02:00</time>
      </trkpt>
      <trkpt lat="44.87813" lon="3.38472">
        <ele>1193</ele>
        <time>2020-06-02T12:58:49+02:00</time>
      </trkpt>
      <trkpt lat="44.87799" lon="3.38498">
        <ele>1194</ele>
        <time>2020-06-02T12:58:55+02:00</time>
      </trkpt>
      <trkpt lat="44.87786" lon="3.38528">
        <ele>1192</ele>
        <time>2020-06-02T12:59:02+02:00</time>
      </trkpt>
      <trkpt lat="44.87774" lon="3.38556">
        <ele>1199</ele>
        <time>2020-06-02T12:59:09+02:00</time>
      </trkpt>
      <trkpt lat="44.87766" lon="3.38585">
        <ele>1202</ele>
        <time>2020-06-02T12:59:16+02:00</time>
      </trkpt>
      <trkpt lat="44.87753" lon="3.38613">
        <ele>1204</ele>
        <time>2020-06-02T12:59:23+02:00</time>
      </trkpt>
      <trkpt lat="44.87736" lon="3.38638">
        <ele>1206</ele>
        <time>2020-06-02T12:59:31+02:00</time>
      </trkpt>
      <trkpt lat="44.8772" lon="3.38663">
        <ele>1209</ele>
        <time>2020-06-02T12:59:39+02:00</time>
      </trkpt>
      <trkpt lat="44.87705" lon="3.38689">
        <ele>1212</ele>
        <time>2020-06-02T12:59:47+02:00</time>
      </trkpt>
      <trkpt lat="44.87686" lon="3.38707">
        <ele>1211</ele>
        <time>2020-06-02T12:59:54+02:00</time>
      </trkpt>
      <trkpt lat="44.87665" lon="3.3872">
        <ele>1210</ele>
        <time>2020-06-02T13:00:01+02:00</time>
      </trkpt>
      <trkpt lat="44.87643" lon="3.3873">
        <ele>1216</ele>
        <time>2020-06-02T13:00:08+02:00</time>
      </trkpt>
      <trkpt lat="44.87618" lon="3.38738">
        <ele>1210</ele>
        <time>2020-06-02T13:00:16+02:00</time>
      </trkpt>
      <trkpt lat="44.87595" lon="3.38762">
        <ele>1204</ele>
        <time>2020-06-02T13:00:19+02:00</time>
      </trkpt>
      <trkpt lat="44.87574" lon="3.38786">
        <ele>1203</ele>
        <time>2020-06-02T13:00:23+02:00</time>
      </trkpt>
      <trkpt lat="44.87547" lon="3.3878">
        <ele>1203</ele>
        <time>2020-06-02T13:00:28+02:00</time>
      </trkpt>
      <trkpt lat="44.87522" lon="3.38775">
        <ele>1200</ele>
        <time>2020-06-02T13:00:32+02:00</time>
      </trkpt>
      <trkpt lat="44.87497" lon="3.38774">
        <ele>1199</ele>
        <time>2020-06-02T13:00:35+02:00</time>
      </trkpt>
      <trkpt lat="44.87468" lon="3.3879">
        <ele>1197</ele>
        <time>2020-06-02T13:00:38+02:00</time>
      </trkpt>
      <trkpt lat="44.87443" lon="3.38808">
        <ele>1196</ele>
        <time>2020-06-02T13:00:41+02:00</time>
      </trkpt>
      <trkpt lat="44.8742" lon="3.3882">
        <ele>1195</ele>
        <time>2020-06-02T13:00:44+02:00</time>
      </trkpt>
      <trkpt lat="44.87401" lon="3.38846">
        <ele>1196</ele>
        <time>2020-06-02T13:00:48+02:00</time>
      </trkpt>
      <trkpt lat="44.87378" lon="3.38837">
        <ele>1195</ele>
        <time>2020-06-02T13:00:53+02:00</time>
      </trkpt>
      <trkpt lat="44.87379" lon="3.38805">
        <ele>1198</ele>
        <time>2020-06-02T13:00:58+02:00</time>
      </trkpt>
      <trkpt lat="44.8739" lon="3.38775">
        <ele>1196</ele>
        <time>2020-06-02T13:01:03+02:00</time>
      </trkpt>
      <trkpt lat="44.87398" lon="3.3874">
        <ele>1196</ele>
        <time>2020-06-02T13:01:08+02:00</time>
      </trkpt>
      <trkpt lat="44.87404" lon="3.38707">
        <ele>1194</ele>
        <time>2020-06-02T13:01:13+02:00</time>
      </trkpt>
      <trkpt lat="44.87409" lon="3.38674">
        <ele>1197</ele>
        <time>2020-06-02T13:01:18+02:00</time>
      </trkpt>
      <trkpt lat="44.87417" lon="3.38639">
        <ele>1196</ele>
        <time>2020-06-02T13:01:23+02:00</time>
      </trkpt>
      <trkpt lat="44.87426" lon="3.3861">
        <ele>1195</ele>
        <time>2020-06-02T13:01:27+02:00</time>
      </trkpt>
      <trkpt lat="44.87437" lon="3.38576">
        <ele>1193</ele>
        <time>2020-06-02T13:01:31+02:00</time>
      </trkpt>
      <trkpt lat="44.8745" lon="3.38539">
        <ele>1192</ele>
        <time>2020-06-02T13:01:35+02:00</time>
      </trkpt>
      <trkpt lat="44.8745" lon="3.38506">
        <ele>1192</ele>
        <time>2020-06-02T13:01:38+02:00</time>
      </trkpt>
      <trkpt lat="44.87447" lon="3.38464">
        <ele>1191</ele>
        <time>2020-06-02T13:01:42+02:00</time>
      </trkpt>
      <trkpt lat="44.87451" lon="3.38431">
        <ele>1191</ele>
        <time>2020-06-02T13:01:45+02:00</time>
      </trkpt>
      <trkpt lat="44.87453" lon="3.38396">
        <ele>1190</ele>
        <time>2020-06-02T13:01:48+02:00</time>
      </trkpt>
      <trkpt lat="44.87448" lon="3.38357">
        <ele>1188</ele>
        <time>2020-06-02T13:01:52+02:00</time>
      </trkpt>
      <trkpt lat="44.87456" lon="3.38322">
        <ele>1187</ele>
        <time>2020-06-02T13:01:56+02:00</time>
      </trkpt>
      <trkpt lat="44.8747" lon="3.38297">
        <ele>1187</ele>
        <time>2020-06-02T13:02:00+02:00</time>
      </trkpt>
      <trkpt lat="44.87487" lon="3.38267">
        <ele>1190</ele>
        <time>2020-06-02T13:02:05+02:00</time>
      </trkpt>
      <trkpt lat="44.87499" lon="3.38232">
        <ele>1189</ele>
        <time>2020-06-02T13:02:09+02:00</time>
      </trkpt>
      <trkpt lat="44.87509" lon="3.38197">
        <ele>1188</ele>
        <time>2020-06-02T13:02:13+02:00</time>
      </trkpt>
      <trkpt lat="44.87517" lon="3.38163">
        <ele>1187</ele>
        <time>2020-06-02T13:02:17+02:00</time>
      </trkpt>
      <trkpt lat="44.8753" lon="3.38133">
        <ele>1190</ele>
        <time>2020-06-02T13:02:22+02:00</time>
      </trkpt>
      <trkpt lat="44.87543" lon="3.38107">
        <ele>1189</ele>
        <time>2020-06-02T13:02:26+02:00</time>
      </trkpt>
      <trkpt lat="44.87557" lon="3.38079">
        <ele>1189</ele>
        <time>2020-06-02T13:02:31+02:00</time>
      </trkpt>
      <trkpt lat="44.87567" lon="3.38049">
        <ele>1189</ele>
        <time>2020-06-02T13:02:36+02:00</time>
      </trkpt>
      <trkpt lat="44.87572" lon="3.38016">
        <ele>1190</ele>
        <time>2020-06-02T13:02:41+02:00</time>
      </trkpt>
      <trkpt lat="44.87576" lon="3.37984">
        <ele>1191</ele>
        <time>2020-06-02T13:02:46+02:00</time>
      </trkpt>
      <trkpt lat="44.87578" lon="3.37952">
        <ele>1192</ele>
        <time>2020-06-02T13:02:51+02:00</time>
      </trkpt>
      <trkpt lat="44.87572" lon="3.37915">
        <ele>1191</ele>
        <time>2020-06-02T13:02:56+02:00</time>
      </trkpt>
      <trkpt lat="44.8756" lon="3.37882">
        <ele>1190</ele>
        <time>2020-06-02T13:03:00+02:00</time>
      </trkpt>
      <trkpt lat="44.87547" lon="3.37854">
        <ele>1187</ele>
        <time>2020-06-02T13:03:03+02:00</time>
      </trkpt>
      <trkpt lat="44.87534" lon="3.37827">
        <ele>1185</ele>
        <time>2020-06-02T13:03:06+02:00</time>
      </trkpt>
      <trkpt lat="44.87523" lon="3.37789">
        <ele>1185</ele>
        <time>2020-06-02T13:03:10+02:00</time>
      </trkpt>
      <trkpt lat="44.87511" lon="3.37752">
        <ele>1185</ele>
        <time>2020-06-02T13:03:14+02:00</time>
      </trkpt>
      <trkpt lat="44.87501" lon="3.37721">
        <ele>1185</ele>
        <time>2020-06-02T13:03:18+02:00</time>
      </trkpt>
      <trkpt lat="44.87491" lon="3.37687">
        <ele>1183</ele>
        <time>2020-06-02T13:03:22+02:00</time>
      </trkpt>
      <trkpt lat="44.87491" lon="3.37653">
        <ele>1185</ele>
        <time>2020-06-02T13:03:25+02:00</time>
      </trkpt>
      <trkpt lat="44.87493" lon="3.37615">
        <ele>1183</ele>
        <time>2020-06-02T13:03:28+02:00</time>
      </trkpt>
      <trkpt lat="44.87494" lon="3.37572">
        <ele>1177</ele>
        <time>2020-06-02T13:03:31+02:00</time>
      </trkpt>
      <trkpt lat="44.87493" lon="3.3753">
        <ele>1174</ele>
        <time>2020-06-02T13:03:34+02:00</time>
      </trkpt>
      <trkpt lat="44.87496" lon="3.37488">
        <ele>1171</ele>
        <time>2020-06-02T13:03:37+02:00</time>
      </trkpt>
      <trkpt lat="44.87498" lon="3.37445">
        <ele>1168</ele>
        <time>2020-06-02T13:03:40+02:00</time>
      </trkpt>
      <trkpt lat="44.875" lon="3.37401">
        <ele>1166</ele>
        <time>2020-06-02T13:03:43+02:00</time>
      </trkpt>
      <trkpt lat="44.87502" lon="3.37358">
        <ele>1164</ele>
        <time>2020-06-02T13:03:46+02:00</time>
      </trkpt>
      <trkpt lat="44.875" lon="3.37319">
        <ele>1161</ele>
        <time>2020-06-02T13:03:49+02:00</time>
      </trkpt>
      <trkpt lat="44.87503" lon="3.37277">
        <ele>1157</ele>
        <time>2020-06-02T13:03:52+02:00</time>
      </trkpt>
      <trkpt lat="44.87515" lon="3.37234">
        <ele>1154</ele>
        <time>2020-06-02T13:03:55+02:00</time>
      </trkpt>
      <trkpt lat="44.87528" lon="3.37191">
        <ele>1150</ele>
        <time>2020-06-02T13:03:58+02:00</time>
      </trkpt>
      <trkpt lat="44.8754" lon="3.37155">
        <ele>1150</ele>
        <time>2020-06-02T13:04:01+02:00</time>
      </trkpt>
      <trkpt lat="44.87516" lon="3.37161">
        <ele>1146</ele>
        <time>2020-06-02T13:04:20+02:00</time>
      </trkpt>
      <trkpt lat="44.87488" lon="3.37169">
        <ele>1142</ele>
        <time>2020-06-02T13:04:26+02:00</time>
      </trkpt>
      <trkpt lat="44.87464" lon="3.37154">
        <ele>1143</ele>
        <time>2020-06-02T13:04:31+02:00</time>
      </trkpt>
      <trkpt lat="44.87445" lon="3.37133">
        <ele>1143</ele>
        <time>2020-06-02T13:04:36+02:00</time>
      </trkpt>
      <trkpt lat="44.87424" lon="3.37119">
        <ele>1146</ele>
        <time>2020-06-02T13:04:44+02:00</time>
      </trkpt>
      <trkpt lat="44.87411" lon="3.37148">
        <ele>1148</ele>
        <time>2020-06-02T13:04:57+02:00</time>
      </trkpt>
      <trkpt lat="44.87395" lon="3.37171">
        <ele>1153</ele>
        <time>2020-06-02T13:05:10+02:00</time>
      </trkpt>
      <trkpt lat="44.87381" lon="3.37146">
        <ele>1158</ele>
        <time>2020-06-02T13:05:30+02:00</time>
      </trkpt>
      <trkpt lat="44.87367" lon="3.37121">
        <ele>1159</ele>
        <time>2020-06-02T13:05:41+02:00</time>
      </trkpt>
      <trkpt lat="44.87345" lon="3.37116">
        <ele>1165</ele>
        <time>2020-06-02T13:05:51+02:00</time>
      </trkpt>
      <trkpt lat="44.87321" lon="3.37123">
        <ele>1168</ele>
        <time>2020-06-02T13:06:03+02:00</time>
      </trkpt>
      <trkpt lat="44.87297" lon="3.37123">
        <ele>1170</ele>
        <time>2020-06-02T13:06:10+02:00</time>
      </trkpt>
      <trkpt lat="44.87275" lon="3.37125">
        <ele>1169</ele>
        <time>2020-06-02T13:06:16+02:00</time>
      </trkpt>
      <trkpt lat="44.8725" lon="3.37134">
        <ele>1171</ele>
        <time>2020-06-02T13:06:23+02:00</time>
      </trkpt>
      <trkpt lat="44.87227" lon="3.37137">
        <ele>1171</ele>
        <time>2020-06-02T13:06:29+02:00</time>
      </trkpt>
      <trkpt lat="44.87204" lon="3.37125">
        <ele>1173</ele>
        <time>2020-06-02T13:06:36+02:00</time>
      </trkpt>
      <trkpt lat="44.87182" lon="3.3714">
        <ele>1173</ele>
        <time>2020-06-02T13:06:43+02:00</time>
      </trkpt>
      <trkpt lat="44.87165" lon="3.37167">
        <ele>1175</ele>
        <time>2020-06-02T13:06:51+02:00</time>
      </trkpt>
      <trkpt lat="44.87146" lon="3.37189">
        <ele>1174</ele>
        <time>2020-06-02T13:06:58+02:00</time>
      </trkpt>
      <trkpt lat="44.87127" lon="3.37212">
        <ele>1175</ele>
        <time>2020-06-02T13:07:06+02:00</time>
      </trkpt>
      <trkpt lat="44.87107" lon="3.37232">
        <ele>1176</ele>
        <time>2020-06-02T13:07:15+02:00</time>
      </trkpt>
      <trkpt lat="44.87086" lon="3.37251">
        <ele>1177</ele>
        <time>2020-06-02T13:07:23+02:00</time>
      </trkpt>
      <trkpt lat="44.87063" lon="3.3726">
        <ele>1178</ele>
        <time>2020-06-02T13:07:32+02:00</time>
      </trkpt>
      <trkpt lat="44.87046" lon="3.3724">
        <ele>1175</ele>
        <time>2020-06-02T13:08:07+02:00</time>
      </trkpt>
      <trkpt lat="44.87039" lon="3.3721">
        <ele>1178</ele>
        <time>2020-06-02T13:08:14+02:00</time>
      </trkpt>
      <trkpt lat="44.87031" lon="3.37178">
        <ele>1184</ele>
        <time>2020-06-02T13:08:21+02:00</time>
      </trkpt>
      <trkpt lat="44.87022" lon="3.37149">
        <ele>1181</ele>
        <time>2020-06-02T13:08:27+02:00</time>
      </trkpt>
      <trkpt lat="44.87015" lon="3.37114">
        <ele>1188</ele>
        <time>2020-06-02T13:08:33+02:00</time>
      </trkpt>
      <trkpt lat="44.87017" lon="3.37031">
        <ele>1175</ele>
        <time>2020-06-02T13:08:38+02:00</time>
      </trkpt>
      <trkpt lat="44.87019" lon="3.3699">
        <ele>1174</ele>
        <time>2020-06-02T13:08:42+02:00</time>
      </trkpt>
      <trkpt lat="44.87021" lon="3.36951">
        <ele>1172</ele>
        <time>2020-06-02T13:08:46+02:00</time>
      </trkpt>
      <trkpt lat="44.87022" lon="3.36914">
        <ele>1169</ele>
        <time>2020-06-02T13:08:50+02:00</time>
      </trkpt>
      <trkpt lat="44.87022" lon="3.36871">
        <ele>1167</ele>
        <time>2020-06-02T13:08:54+02:00</time>
      </trkpt>
      <trkpt lat="44.87024" lon="3.36838">
        <ele>1165</ele>
        <time>2020-06-02T13:08:57+02:00</time>
      </trkpt>
      <trkpt lat="44.87026" lon="3.36805">
        <ele>1163</ele>
        <time>2020-06-02T13:09:00+02:00</time>
      </trkpt>
      <trkpt lat="44.87029" lon="3.36765">
        <ele>1159</ele>
        <time>2020-06-02T13:09:03+02:00</time>
      </trkpt>
      <trkpt lat="44.87036" lon="3.3673">
        <ele>1158</ele>
        <time>2020-06-02T13:09:06+02:00</time>
      </trkpt>
      <trkpt lat="44.87042" lon="3.36693">
        <ele>1155</ele>
        <time>2020-06-02T13:09:09+02:00</time>
      </trkpt>
      <trkpt lat="44.8705" lon="3.36654">
        <ele>1154</ele>
        <time>2020-06-02T13:09:12+02:00</time>
      </trkpt>
      <trkpt lat="44.87057" lon="3.36616">
        <ele>1156</ele>
        <time>2020-06-02T13:09:15+02:00</time>
      </trkpt>
      <trkpt lat="44.87064" lon="3.36578">
        <ele>1151</ele>
        <time>2020-06-02T13:09:18+02:00</time>
      </trkpt>
      <trkpt lat="44.87071" lon="3.36542">
        <ele>1149</ele>
        <time>2020-06-02T13:09:21+02:00</time>
      </trkpt>
      <trkpt lat="44.87076" lon="3.36501">
        <ele>1146</ele>
        <time>2020-06-02T13:09:24+02:00</time>
      </trkpt>
      <trkpt lat="44.87083" lon="3.3646">
        <ele>1143</ele>
        <time>2020-06-02T13:09:27+02:00</time>
      </trkpt>
      <trkpt lat="44.87089" lon="3.36423">
        <ele>1141</ele>
        <time>2020-06-02T13:09:30+02:00</time>
      </trkpt>
      <trkpt lat="44.87106" lon="3.36401">
        <ele>1139</ele>
        <time>2020-06-02T13:09:34+02:00</time>
      </trkpt>
      <trkpt lat="44.87128" lon="3.36392">
        <ele>1139</ele>
        <time>2020-06-02T13:09:37+02:00</time>
      </trkpt>
      <trkpt lat="44.87152" lon="3.36379">
        <ele>1134</ele>
        <time>2020-06-02T13:09:41+02:00</time>
      </trkpt>
      <trkpt lat="44.87157" lon="3.36348">
        <ele>1131</ele>
        <time>2020-06-02T13:09:44+02:00</time>
      </trkpt>
      <trkpt lat="44.87162" lon="3.36308">
        <ele>1125</ele>
        <time>2020-06-02T13:09:47+02:00</time>
      </trkpt>
      <trkpt lat="44.87167" lon="3.36264">
        <ele>1120</ele>
        <time>2020-06-02T13:09:50+02:00</time>
      </trkpt>
      <trkpt lat="44.87168" lon="3.36224">
        <ele>1116</ele>
        <time>2020-06-02T13:09:53+02:00</time>
      </trkpt>
      <trkpt lat="44.87168" lon="3.36185">
        <ele>1113</ele>
        <time>2020-06-02T13:09:56+02:00</time>
      </trkpt>
      <trkpt lat="44.8717" lon="3.36148">
        <ele>1110</ele>
        <time>2020-06-02T13:09:59+02:00</time>
      </trkpt>
      <trkpt lat="44.87174" lon="3.36109">
        <ele>1106</ele>
        <time>2020-06-02T13:10:02+02:00</time>
      </trkpt>
      <trkpt lat="44.87181" lon="3.36071">
        <ele>1101</ele>
        <time>2020-06-02T13:10:05+02:00</time>
      </trkpt>
      <trkpt lat="44.87186" lon="3.36033">
        <ele>1098</ele>
        <time>2020-06-02T13:10:08+02:00</time>
      </trkpt>
      <trkpt lat="44.87201" lon="3.35999">
        <ele>1095</ele>
        <time>2020-06-02T13:10:11+02:00</time>
      </trkpt>
      <trkpt lat="44.87209" lon="3.35962">
        <ele>1093</ele>
        <time>2020-06-02T13:10:14+02:00</time>
      </trkpt>
      <trkpt lat="44.8721" lon="3.35922">
        <ele>1091</ele>
        <time>2020-06-02T13:10:17+02:00</time>
      </trkpt>
      <trkpt lat="44.87205" lon="3.35889">
        <ele>1089</ele>
        <time>2020-06-02T13:10:20+02:00</time>
      </trkpt>
      <trkpt lat="44.87195" lon="3.35857">
        <ele>1086</ele>
        <time>2020-06-02T13:10:24+02:00</time>
      </trkpt>
      <trkpt lat="44.87177" lon="3.35827">
        <ele>1081</ele>
        <time>2020-06-02T13:10:27+02:00</time>
      </trkpt>
      <trkpt lat="44.87164" lon="3.35789">
        <ele>1078</ele>
        <time>2020-06-02T13:10:30+02:00</time>
      </trkpt>
      <trkpt lat="44.87156" lon="3.3576">
        <ele>1076</ele>
        <time>2020-06-02T13:10:34+02:00</time>
      </trkpt>
      <trkpt lat="44.87151" lon="3.35728">
        <ele>1075</ele>
        <time>2020-06-02T13:10:43+02:00</time>
      </trkpt>
      <trkpt lat="44.87143" lon="3.35695">
        <ele>1073</ele>
        <time>2020-06-02T13:10:49+02:00</time>
      </trkpt>
      <trkpt lat="44.87146" lon="3.35658">
        <ele>1066</ele>
        <time>2020-06-02T13:10:55+02:00</time>
      </trkpt>
      <trkpt lat="44.87154" lon="3.35625">
        <ele>1065</ele>
        <time>2020-06-02T13:11:01+02:00</time>
      </trkpt>
      <trkpt lat="44.87145" lon="3.35593">
        <ele>1064</ele>
        <time>2020-06-02T13:11:09+02:00</time>
      </trkpt>
      <trkpt lat="44.87121" lon="3.35585">
        <ele>1061</ele>
        <time>2020-06-02T13:11:17+02:00</time>
      </trkpt>
      <trkpt lat="44.871" lon="3.35568">
        <ele>1057</ele>
        <time>2020-06-02T13:11:22+02:00</time>
      </trkpt>
      <trkpt lat="44.87089" lon="3.35539">
        <ele>1053</ele>
        <time>2020-06-02T13:11:25+02:00</time>
      </trkpt>
      <trkpt lat="44.87071" lon="3.3552">
        <ele>1047</ele>
        <time>2020-06-02T13:11:36+02:00</time>
      </trkpt>
      <trkpt lat="44.87055" lon="3.35493">
        <ele>1041</ele>
        <time>2020-06-02T13:11:42+02:00</time>
      </trkpt>
      <trkpt lat="44.87044" lon="3.35459">
        <ele>1036</ele>
        <time>2020-06-02T13:11:46+02:00</time>
      </trkpt>
      <trkpt lat="44.87033" lon="3.35428">
        <ele>1036</ele>
        <time>2020-06-02T13:11:50+02:00</time>
      </trkpt>
      <trkpt lat="44.87027" lon="3.35396">
        <ele>1030</ele>
        <time>2020-06-02T13:11:54+02:00</time>
      </trkpt>
      <trkpt lat="44.87014" lon="3.35365">
        <ele>1022</ele>
        <time>2020-06-02T13:11:59+02:00</time>
      </trkpt>
      <trkpt lat="44.87007" lon="3.35334">
        <ele>1025</ele>
        <time>2020-06-02T13:12:11+02:00</time>
      </trkpt>
      <trkpt lat="44.86979" lon="3.35329">
        <ele>1019</ele>
        <time>2020-06-02T13:12:16+02:00</time>
      </trkpt>
      <trkpt lat="44.86949" lon="3.35323">
        <ele>1017</ele>
        <time>2020-06-02T13:12:20+02:00</time>
      </trkpt>
      <trkpt lat="44.86924" lon="3.35319">
        <ele>1014</ele>
        <time>2020-06-02T13:12:23+02:00</time>
      </trkpt>
      <trkpt lat="44.86897" lon="3.3532">
        <ele>1013</ele>
        <time>2020-06-02T13:12:26+02:00</time>
      </trkpt>
      <trkpt lat="44.86872" lon="3.35332">
        <ele>1012</ele>
        <time>2020-06-02T13:12:29+02:00</time>
      </trkpt>
      <trkpt lat="44.86846" lon="3.35347">
        <ele>1010</ele>
        <time>2020-06-02T13:12:32+02:00</time>
      </trkpt>
      <trkpt lat="44.86814" lon="3.35348">
        <ele>1007</ele>
        <time>2020-06-02T13:12:35+02:00</time>
      </trkpt>
      <trkpt lat="44.86789" lon="3.35326">
        <ele>1006</ele>
        <time>2020-06-02T13:12:38+02:00</time>
      </trkpt>
      <trkpt lat="44.86765" lon="3.35296">
        <ele>1005</ele>
        <time>2020-06-02T13:12:41+02:00</time>
      </trkpt>
      <trkpt lat="44.86741" lon="3.35266">
        <ele>1004</ele>
        <time>2020-06-02T13:12:44+02:00</time>
      </trkpt>
      <trkpt lat="44.86716" lon="3.35236">
        <ele>1000</ele>
        <time>2020-06-02T13:12:47+02:00</time>
      </trkpt>
      <trkpt lat="44.8669" lon="3.3521">
        <ele>997</ele>
        <time>2020-06-02T13:12:50+02:00</time>
      </trkpt>
      <trkpt lat="44.86665" lon="3.35183">
        <ele>995</ele>
        <time>2020-06-02T13:12:53+02:00</time>
      </trkpt>
      <trkpt lat="44.86644" lon="3.35158">
        <ele>994</ele>
        <time>2020-06-02T13:12:56+02:00</time>
      </trkpt>
      <trkpt lat="44.86625" lon="3.35136">
        <ele>994</ele>
        <time>2020-06-02T13:12:59+02:00</time>
      </trkpt>
      <trkpt lat="44.86607" lon="3.35108">
        <ele>995</ele>
        <time>2020-06-02T13:13:03+02:00</time>
      </trkpt>
      <trkpt lat="44.8659" lon="3.35084">
        <ele>995</ele>
        <time>2020-06-02T13:13:07+02:00</time>
      </trkpt>
      <trkpt lat="44.86573" lon="3.35056">
        <ele>996</ele>
        <time>2020-06-02T13:13:12+02:00</time>
      </trkpt>
      <trkpt lat="44.86558" lon="3.35028">
        <ele>997</ele>
        <time>2020-06-02T13:13:18+02:00</time>
      </trkpt>
      <trkpt lat="44.86541" lon="3.35005">
        <ele>999</ele>
        <time>2020-06-02T13:13:23+02:00</time>
      </trkpt>
      <trkpt lat="44.86526" lon="3.34979">
        <ele>1002</ele>
        <time>2020-06-02T13:13:29+02:00</time>
      </trkpt>
      <trkpt lat="44.8651" lon="3.34953">
        <ele>1000</ele>
        <time>2020-06-02T13:13:35+02:00</time>
      </trkpt>
      <trkpt lat="44.86494" lon="3.34928">
        <ele>999</ele>
        <time>2020-06-02T13:13:41+02:00</time>
      </trkpt>
      <trkpt lat="44.86477" lon="3.34902">
        <ele>998</ele>
        <time>2020-06-02T13:13:47+02:00</time>
      </trkpt>
      <trkpt lat="44.8646" lon="3.34875">
        <ele>999</ele>
        <time>2020-06-02T13:13:53+02:00</time>
      </trkpt>
      <trkpt lat="44.86444" lon="3.34852">
        <ele>999</ele>
        <time>2020-06-02T13:13:58+02:00</time>
      </trkpt>
      <trkpt lat="44.86427" lon="3.34825">
        <ele>998</ele>
        <time>2020-06-02T13:14:04+02:00</time>
      </trkpt>
      <trkpt lat="44.8641" lon="3.34803">
        <ele>998</ele>
        <time>2020-06-02T13:14:09+02:00</time>
      </trkpt>
      <trkpt lat="44.8639" lon="3.3478">
        <ele>998</ele>
        <time>2020-06-02T13:14:15+02:00</time>
      </trkpt>
      <trkpt lat="44.86369" lon="3.34763">
        <ele>998</ele>
        <time>2020-06-02T13:14:20+02:00</time>
      </trkpt>
      <trkpt lat="44.86347" lon="3.34747">
        <ele>998</ele>
        <time>2020-06-02T13:14:25+02:00</time>
      </trkpt>
      <trkpt lat="44.86325" lon="3.34727">
        <ele>997</ele>
        <time>2020-06-02T13:14:30+02:00</time>
      </trkpt>
      <trkpt lat="44.86304" lon="3.34709">
        <ele>999</ele>
        <time>2020-06-02T13:14:35+02:00</time>
      </trkpt>
      <trkpt lat="44.86283" lon="3.3469">
        <ele>999</ele>
        <time>2020-06-02T13:14:40+02:00</time>
      </trkpt>
      <trkpt lat="44.8626" lon="3.34672">
        <ele>999</ele>
        <time>2020-06-02T13:14:45+02:00</time>
      </trkpt>
      <trkpt lat="44.86237" lon="3.34661">
        <ele>997</ele>
        <time>2020-06-02T13:14:49+02:00</time>
      </trkpt>
      <trkpt lat="44.86212" lon="3.34647">
        <ele>995</ele>
        <time>2020-06-02T13:14:54+02:00</time>
      </trkpt>
      <trkpt lat="44.86184" lon="3.34631">
        <ele>993</ele>
        <time>2020-06-02T13:14:59+02:00</time>
      </trkpt>
      <trkpt lat="44.86161" lon="3.34619">
        <ele>999</ele>
        <time>2020-06-02T13:15:04+02:00</time>
      </trkpt>
      <trkpt lat="44.8614" lon="3.34605">
        <ele>995</ele>
        <time>2020-06-02T13:15:09+02:00</time>
      </trkpt>
      <trkpt lat="44.86121" lon="3.34579">
        <ele>993</ele>
        <time>2020-06-02T13:15:15+02:00</time>
      </trkpt>
      <trkpt lat="44.86102" lon="3.34553">
        <ele>994</ele>
        <time>2020-06-02T13:15:22+02:00</time>
      </trkpt>
      <trkpt lat="44.86086" lon="3.34528">
        <ele>996</ele>
        <time>2020-06-02T13:15:28+02:00</time>
      </trkpt>
      <trkpt lat="44.86065" lon="3.34505">
        <ele>993</ele>
        <time>2020-06-02T13:15:33+02:00</time>
      </trkpt>
      <trkpt lat="44.86047" lon="3.34486">
        <ele>993</ele>
        <time>2020-06-02T13:15:37+02:00</time>
      </trkpt>
      <trkpt lat="44.86029" lon="3.34466">
        <ele>991</ele>
        <time>2020-06-02T13:15:41+02:00</time>
      </trkpt>
      <trkpt lat="44.86012" lon="3.3444">
        <ele>993</ele>
        <time>2020-06-02T13:15:45+02:00</time>
      </trkpt>
      <trkpt lat="44.85996" lon="3.34416">
        <ele>991</ele>
        <time>2020-06-02T13:15:49+02:00</time>
      </trkpt>
      <trkpt lat="44.85981" lon="3.34389">
        <ele>988</ele>
        <time>2020-06-02T13:15:53+02:00</time>
      </trkpt>
      <trkpt lat="44.85966" lon="3.34361">
        <ele>988</ele>
        <time>2020-06-02T13:15:57+02:00</time>
      </trkpt>
      <trkpt lat="44.8595" lon="3.34332">
        <ele>989</ele>
        <time>2020-06-02T13:16:01+02:00</time>
      </trkpt>
      <trkpt lat="44.85934" lon="3.34309">
        <ele>986</ele>
        <time>2020-06-02T13:16:04+02:00</time>
      </trkpt>
      <trkpt lat="44.85917" lon="3.34281">
        <ele>983</ele>
        <time>2020-06-02T13:16:07+02:00</time>
      </trkpt>
      <trkpt lat="44.85898" lon="3.3425">
        <ele>979</ele>
        <time>2020-06-02T13:16:10+02:00</time>
      </trkpt>
      <trkpt lat="44.85888" lon="3.34214">
        <ele>977</ele>
        <time>2020-06-02T13:16:12+02:00</time>
      </trkpt>
      <trkpt lat="44.85871" lon="3.34174">
        <ele>970</ele>
        <time>2020-06-02T13:16:14+02:00</time>
      </trkpt>
      <trkpt lat="44.85858" lon="3.34143">
        <ele>966</ele>
        <time>2020-06-02T13:16:16+02:00</time>
      </trkpt>
      <trkpt lat="44.85853" lon="3.34095">
        <ele>960</ele>
        <time>2020-06-02T13:16:19+02:00</time>
      </trkpt>
      <trkpt lat="44.85847" lon="3.34064">
        <ele>957</ele>
        <time>2020-06-02T13:16:21+02:00</time>
      </trkpt>
      <trkpt lat="44.85846" lon="3.34031">
        <ele>958</ele>
        <time>2020-06-02T13:16:23+02:00</time>
      </trkpt>
      <trkpt lat="44.85845" lon="3.33998">
        <ele>956</ele>
        <time>2020-06-02T13:16:25+02:00</time>
      </trkpt>
      <trkpt lat="44.8584" lon="3.33966">
        <ele>953</ele>
        <time>2020-06-02T13:16:27+02:00</time>
      </trkpt>
      <trkpt lat="44.85831" lon="3.33935">
        <ele>952</ele>
        <time>2020-06-02T13:16:29+02:00</time>
      </trkpt>
      <trkpt lat="44.85825" lon="3.339">
        <ele>950</ele>
        <time>2020-06-02T13:16:31+02:00</time>
      </trkpt>
      <trkpt lat="44.8582" lon="3.33868">
        <ele>947</ele>
        <time>2020-06-02T13:16:33+02:00</time>
      </trkpt>
      <trkpt lat="44.85813" lon="3.33836">
        <ele>946</ele>
        <time>2020-06-02T13:16:35+02:00</time>
      </trkpt>
      <trkpt lat="44.85791" lon="3.33799">
        <ele>942</ele>
        <time>2020-06-02T13:16:38+02:00</time>
      </trkpt>
      <trkpt lat="44.85773" lon="3.3377">
        <ele>940</ele>
        <time>2020-06-02T13:16:40+02:00</time>
      </trkpt>
      <trkpt lat="44.85754" lon="3.33732">
        <ele>938</ele>
        <time>2020-06-02T13:16:43+02:00</time>
      </trkpt>
      <trkpt lat="44.85741" lon="3.33698">
        <ele>934</ele>
        <time>2020-06-02T13:16:45+02:00</time>
      </trkpt>
      <trkpt lat="44.85731" lon="3.33667">
        <ele>933</ele>
        <time>2020-06-02T13:16:47+02:00</time>
      </trkpt>
      <trkpt lat="44.85715" lon="3.33626">
        <ele>931</ele>
        <time>2020-06-02T13:16:50+02:00</time>
      </trkpt>
      <trkpt lat="44.85699" lon="3.33588">
        <ele>930</ele>
        <time>2020-06-02T13:16:53+02:00</time>
      </trkpt>
      <trkpt lat="44.85686" lon="3.33553">
        <ele>928</ele>
        <time>2020-06-02T13:16:56+02:00</time>
      </trkpt>
      <trkpt lat="44.85678" lon="3.33522">
        <ele>927</ele>
        <time>2020-06-02T13:16:59+02:00</time>
      </trkpt>
      <trkpt lat="44.85663" lon="3.33493">
        <ele>924</ele>
        <time>2020-06-02T13:17:02+02:00</time>
      </trkpt>
      <trkpt lat="44.8565" lon="3.33464">
        <ele>923</ele>
        <time>2020-06-02T13:17:05+02:00</time>
      </trkpt>
      <trkpt lat="44.85637" lon="3.33434">
        <ele>921</ele>
        <time>2020-06-02T13:17:08+02:00</time>
      </trkpt>
      <trkpt lat="44.85629" lon="3.33403">
        <ele>919</ele>
        <time>2020-06-02T13:17:11+02:00</time>
      </trkpt>
      <trkpt lat="44.85621" lon="3.33371">
        <ele>919</ele>
        <time>2020-06-02T13:17:14+02:00</time>
      </trkpt>
      <trkpt lat="44.85612" lon="3.33341">
        <ele>918</ele>
        <time>2020-06-02T13:17:17+02:00</time>
      </trkpt>
      <trkpt lat="44.856" lon="3.33306">
        <ele>915</ele>
        <time>2020-06-02T13:17:21+02:00</time>
      </trkpt>
      <trkpt lat="44.8559" lon="3.33276">
        <ele>914</ele>
        <time>2020-06-02T13:17:25+02:00</time>
      </trkpt>
      <trkpt lat="44.8558" lon="3.33242">
        <ele>916</ele>
        <time>2020-06-02T13:17:30+02:00</time>
      </trkpt>
      <trkpt lat="44.8555" lon="3.33253">
        <ele>916</ele>
        <time>2020-06-02T13:17:38+02:00</time>
      </trkpt>
      <trkpt lat="44.85528" lon="3.33265">
        <ele>913</ele>
        <time>2020-06-02T13:17:42+02:00</time>
      </trkpt>
      <trkpt lat="44.85509" lon="3.33238">
        <ele>911</ele>
        <time>2020-06-02T13:17:47+02:00</time>
      </trkpt>
      <trkpt lat="44.85495" lon="3.33212">
        <ele>912</ele>
        <time>2020-06-02T13:17:52+02:00</time>
      </trkpt>
      <trkpt lat="44.85483" lon="3.33184">
        <ele>911</ele>
        <time>2020-06-02T13:17:59+02:00</time>
      </trkpt>
      <trkpt lat="44.85496" lon="3.33211">
        <ele>911</ele>
        <time>2020-06-02T13:18:21+02:00</time>
      </trkpt>
    </trkseg>
  </trk>
  <trk>
    <name><![CDATA[lozèreJ3_2]]></name>
    <trkseg>
      <trkpt lat="44.93734" lon="3.36194">
        <ele>1243</ele>
      </trkpt>
    </trkseg>
  </trk>
</gpx>